<?xml version="1.0" encoding="UTF-8" standalone="no" ?>
<gpx xmlns="http://www.topografix.com/GPX/1/1" xmlns:xsi="http://www.w3.org/2001/XMLSchema-instance" xsi:schemaLocation="http://www.topografix.com/GPX/1/1 http://www.topografix.com/GPX/1/1/gpx.xsd" version="1.1" creator="VisuGPX - https://www.visugpx.com">
  <metadata>
    <name>Ensues-Le fort de Figuerolles</name>
    <desc><![CDATA[Rando sportive le long de la mer. Attention rochers  glissants en cas de pluie. Magnifique panorama.]]></desc>
  </metadata>
  <trk>
    <name><![CDATA[ENSUES]]></name>
    <trkseg>
      <trkpt lat="43.3457" lon="5.21713">
        <ele>200</ele>
        <time>2013-01-11T07:57:34.000Z</time>
      </trkpt>
      <trkpt lat="43.34578" lon="5.21716">
        <ele>192</ele>
        <time>2013-01-11T07:57:58.000Z</time>
      </trkpt>
      <trkpt lat="43.34584" lon="5.21727">
        <ele>183</ele>
        <time>2013-01-11T07:59:00.000Z</time>
      </trkpt>
      <trkpt lat="43.34591" lon="5.21727">
        <ele>178</ele>
        <time>2013-01-11T08:01:10.000Z</time>
      </trkpt>
      <trkpt lat="43.34589" lon="5.21732">
        <ele>179</ele>
        <time>2013-01-11T08:01:45.000Z</time>
      </trkpt>
      <trkpt lat="43.34587" lon="5.2174">
        <ele>181</ele>
        <time>2013-01-11T08:01:54.000Z</time>
      </trkpt>
      <trkpt lat="43.34565" lon="5.21767">
        <ele>185</ele>
        <time>2013-01-11T08:02:13.000Z</time>
      </trkpt>
      <trkpt lat="43.3456" lon="5.21781">
        <ele>184</ele>
        <time>2013-01-11T08:02:26.000Z</time>
      </trkpt>
      <trkpt lat="43.34555" lon="5.2179">
        <ele>184</ele>
        <time>2013-01-11T08:02:30.000Z</time>
      </trkpt>
      <trkpt lat="43.34553" lon="5.218">
        <ele>185</ele>
        <time>2013-01-11T08:02:42.000Z</time>
      </trkpt>
      <trkpt lat="43.3455" lon="5.21808">
        <ele>186</ele>
        <time>2013-01-11T08:02:50.000Z</time>
      </trkpt>
      <trkpt lat="43.34544" lon="5.21825">
        <ele>186</ele>
        <time>2013-01-11T08:03:04.000Z</time>
      </trkpt>
      <trkpt lat="43.3454" lon="5.21836">
        <ele>186</ele>
        <time>2013-01-11T08:03:12.000Z</time>
      </trkpt>
      <trkpt lat="43.3453" lon="5.21865">
        <ele>190</ele>
        <time>2013-01-11T08:03:31.000Z</time>
      </trkpt>
      <trkpt lat="43.34525" lon="5.21878">
        <ele>191</ele>
        <time>2013-01-11T08:03:38.000Z</time>
      </trkpt>
      <trkpt lat="43.34515" lon="5.21908">
        <ele>191</ele>
        <time>2013-01-11T08:03:58.000Z</time>
      </trkpt>
      <trkpt lat="43.34512" lon="5.21917">
        <ele>190</ele>
        <time>2013-01-11T08:04:04.000Z</time>
      </trkpt>
      <trkpt lat="43.34501" lon="5.21945">
        <ele>186</ele>
        <time>2013-01-11T08:04:23.000Z</time>
      </trkpt>
      <trkpt lat="43.34497" lon="5.2195">
        <ele>185</ele>
        <time>2013-01-11T08:04:28.000Z</time>
      </trkpt>
      <trkpt lat="43.34492" lon="5.21956">
        <ele>184</ele>
        <time>2013-01-11T08:04:34.000Z</time>
      </trkpt>
      <trkpt lat="43.34475" lon="5.21967">
        <ele>184</ele>
        <time>2013-01-11T08:04:48.000Z</time>
      </trkpt>
      <trkpt lat="43.34469" lon="5.21973">
        <ele>183</ele>
        <time>2013-01-11T08:04:54.000Z</time>
      </trkpt>
      <trkpt lat="43.34465" lon="5.21982">
        <ele>183</ele>
        <time>2013-01-11T08:05:00.000Z</time>
      </trkpt>
      <trkpt lat="43.3446" lon="5.22">
        <ele>183</ele>
        <time>2013-01-11T08:05:11.000Z</time>
      </trkpt>
      <trkpt lat="43.34437" lon="5.2205">
        <ele>182</ele>
        <time>2013-01-11T08:05:45.000Z</time>
      </trkpt>
      <trkpt lat="43.34433" lon="5.22064">
        <ele>183</ele>
        <time>2013-01-11T08:05:55.000Z</time>
      </trkpt>
      <trkpt lat="43.34434" lon="5.2211">
        <ele>184</ele>
        <time>2013-01-11T08:06:21.000Z</time>
      </trkpt>
      <trkpt lat="43.34441" lon="5.22143">
        <ele>186</ele>
        <time>2013-01-11T08:06:41.000Z</time>
      </trkpt>
      <trkpt lat="43.34444" lon="5.22165">
        <ele>186</ele>
        <time>2013-01-11T08:06:54.000Z</time>
      </trkpt>
      <trkpt lat="43.34446" lon="5.22176">
        <ele>188</ele>
        <time>2013-01-11T08:07:00.000Z</time>
      </trkpt>
      <trkpt lat="43.34452" lon="5.22207">
        <ele>193</ele>
        <time>2013-01-11T08:07:20.000Z</time>
      </trkpt>
      <trkpt lat="43.34463" lon="5.22269">
        <ele>198</ele>
        <time>2013-01-11T08:07:58.000Z</time>
      </trkpt>
      <trkpt lat="43.34463" lon="5.2227">
        <ele>199</ele>
        <time>2013-01-11T08:07:59.000Z</time>
      </trkpt>
      <trkpt lat="43.34468" lon="5.22296">
        <ele>200</ele>
        <time>2013-01-11T08:08:15.000Z</time>
      </trkpt>
      <trkpt lat="43.34473" lon="5.22317">
        <ele>200</ele>
        <time>2013-01-11T08:08:30.000Z</time>
      </trkpt>
      <trkpt lat="43.34478" lon="5.22342">
        <ele>201</ele>
        <time>2013-01-11T08:08:48.000Z</time>
      </trkpt>
      <trkpt lat="43.34479" lon="5.2235">
        <ele>198</ele>
        <time>2013-01-11T08:08:57.000Z</time>
      </trkpt>
      <trkpt lat="43.3448" lon="5.22357">
        <ele>197</ele>
        <time>2013-01-11T08:09:04.000Z</time>
      </trkpt>
      <trkpt lat="43.34482" lon="5.22383">
        <ele>198</ele>
        <time>2013-01-11T08:09:22.000Z</time>
      </trkpt>
      <trkpt lat="43.3448" lon="5.22419">
        <ele>201</ele>
        <time>2013-01-11T08:09:46.000Z</time>
      </trkpt>
      <trkpt lat="43.34469" lon="5.22466">
        <ele>204</ele>
        <time>2013-01-11T08:10:19.000Z</time>
      </trkpt>
      <trkpt lat="43.34465" lon="5.22463">
        <ele>203</ele>
        <time>2013-01-11T08:10:27.000Z</time>
      </trkpt>
      <trkpt lat="43.34464" lon="5.2245">
        <ele>201</ele>
        <time>2013-01-11T08:10:36.000Z</time>
      </trkpt>
      <trkpt lat="43.34463" lon="5.22436">
        <ele>200</ele>
        <time>2013-01-11T08:10:45.000Z</time>
      </trkpt>
      <trkpt lat="43.3446" lon="5.22426">
        <ele>199</ele>
        <time>2013-01-11T08:10:51.000Z</time>
      </trkpt>
      <trkpt lat="43.34457" lon="5.22418">
        <ele>199</ele>
        <time>2013-01-11T08:10:57.000Z</time>
      </trkpt>
      <trkpt lat="43.34447" lon="5.22412">
        <ele>199</ele>
        <time>2013-01-11T08:11:06.000Z</time>
      </trkpt>
      <trkpt lat="43.34413" lon="5.22396">
        <ele>200</ele>
        <time>2013-01-11T08:11:36.000Z</time>
      </trkpt>
      <trkpt lat="43.34402" lon="5.22388">
        <ele>201</ele>
        <time>2013-01-11T08:11:47.000Z</time>
      </trkpt>
      <trkpt lat="43.34378" lon="5.22373">
        <ele>202</ele>
        <time>2013-01-11T08:12:09.000Z</time>
      </trkpt>
      <trkpt lat="43.34351" lon="5.22351">
        <ele>202</ele>
        <time>2013-01-11T08:12:34.000Z</time>
      </trkpt>
      <trkpt lat="43.34326" lon="5.22328">
        <ele>202</ele>
        <time>2013-01-11T08:12:58.000Z</time>
      </trkpt>
      <trkpt lat="43.34309" lon="5.22322">
        <ele>204</ele>
        <time>2013-01-11T08:13:12.000Z</time>
      </trkpt>
      <trkpt lat="43.34303" lon="5.22319">
        <ele>205</ele>
        <time>2013-01-11T08:13:18.000Z</time>
      </trkpt>
      <trkpt lat="43.34299" lon="5.22314">
        <ele>205</ele>
        <time>2013-01-11T08:13:22.000Z</time>
      </trkpt>
      <trkpt lat="43.34298" lon="5.22305">
        <ele>206</ele>
        <time>2013-01-11T08:13:28.000Z</time>
      </trkpt>
      <trkpt lat="43.34309" lon="5.2228">
        <ele>208</ele>
        <time>2013-01-11T08:13:47.000Z</time>
      </trkpt>
      <trkpt lat="43.3431" lon="5.2227">
        <ele>208</ele>
        <time>2013-01-11T08:13:53.000Z</time>
      </trkpt>
      <trkpt lat="43.34309" lon="5.22252">
        <ele>208</ele>
        <time>2013-01-11T08:14:05.000Z</time>
      </trkpt>
      <trkpt lat="43.34306" lon="5.22242">
        <ele>208</ele>
        <time>2013-01-11T08:14:11.000Z</time>
      </trkpt>
      <trkpt lat="43.343" lon="5.22234">
        <ele>208</ele>
        <time>2013-01-11T08:14:18.000Z</time>
      </trkpt>
      <trkpt lat="43.34291" lon="5.22228">
        <ele>209</ele>
        <time>2013-01-11T08:14:26.000Z</time>
      </trkpt>
      <trkpt lat="43.34274" lon="5.22222">
        <ele>210</ele>
        <time>2013-01-11T08:14:41.000Z</time>
      </trkpt>
      <trkpt lat="43.34264" lon="5.22221">
        <ele>212</ele>
        <time>2013-01-11T08:14:49.000Z</time>
      </trkpt>
      <trkpt lat="43.34258" lon="5.22224">
        <ele>212</ele>
        <time>2013-01-11T08:14:55.000Z</time>
      </trkpt>
      <trkpt lat="43.34249" lon="5.22233">
        <ele>214</ele>
        <time>2013-01-11T08:15:04.000Z</time>
      </trkpt>
      <trkpt lat="43.34221" lon="5.22265">
        <ele>216</ele>
        <time>2013-01-11T08:15:33.000Z</time>
      </trkpt>
      <trkpt lat="43.34205" lon="5.22274">
        <ele>217</ele>
        <time>2013-01-11T08:15:48.000Z</time>
      </trkpt>
      <trkpt lat="43.3419" lon="5.22274">
        <ele>217</ele>
        <time>2013-01-11T08:16:00.000Z</time>
      </trkpt>
      <trkpt lat="43.3417" lon="5.22268">
        <ele>219</ele>
        <time>2013-01-11T08:16:18.000Z</time>
      </trkpt>
      <trkpt lat="43.34164" lon="5.22262">
        <ele>219</ele>
        <time>2013-01-11T08:16:24.000Z</time>
      </trkpt>
      <trkpt lat="43.34161" lon="5.22255">
        <ele>220</ele>
        <time>2013-01-11T08:16:30.000Z</time>
      </trkpt>
      <trkpt lat="43.34159" lon="5.22248">
        <ele>219</ele>
        <time>2013-01-11T08:16:51.000Z</time>
      </trkpt>
      <trkpt lat="43.34155" lon="5.22246">
        <ele>219</ele>
        <time>2013-01-11T08:17:00.000Z</time>
      </trkpt>
      <trkpt lat="43.34155" lon="5.2225">
        <ele>219</ele>
        <time>2013-01-11T08:17:21.000Z</time>
      </trkpt>
      <trkpt lat="43.34158" lon="5.22245">
        <ele>220</ele>
        <time>2013-01-11T08:17:29.000Z</time>
      </trkpt>
      <trkpt lat="43.34165" lon="5.22236">
        <ele>220</ele>
        <time>2013-01-11T08:18:17.000Z</time>
      </trkpt>
      <trkpt lat="43.3417" lon="5.2223">
        <ele>221</ele>
        <time>2013-01-11T08:18:54.000Z</time>
      </trkpt>
      <trkpt lat="43.34174" lon="5.22225">
        <ele>221</ele>
        <time>2013-01-11T08:18:58.000Z</time>
      </trkpt>
      <trkpt lat="43.34178" lon="5.22214">
        <ele>220</ele>
        <time>2013-01-11T08:19:05.000Z</time>
      </trkpt>
      <trkpt lat="43.34184" lon="5.22197">
        <ele>219</ele>
        <time>2013-01-11T08:19:22.000Z</time>
      </trkpt>
      <trkpt lat="43.34194" lon="5.22146">
        <ele>215</ele>
        <time>2013-01-11T08:19:51.000Z</time>
      </trkpt>
      <trkpt lat="43.34196" lon="5.22129">
        <ele>213</ele>
        <time>2013-01-11T08:20:00.000Z</time>
      </trkpt>
      <trkpt lat="43.34197" lon="5.22122">
        <ele>212</ele>
        <time>2013-01-11T08:20:04.000Z</time>
      </trkpt>
      <trkpt lat="43.34201" lon="5.22071">
        <ele>207</ele>
        <time>2013-01-11T08:20:31.000Z</time>
      </trkpt>
      <trkpt lat="43.34199" lon="5.22055">
        <ele>206</ele>
        <time>2013-01-11T08:20:39.000Z</time>
      </trkpt>
      <trkpt lat="43.34192" lon="5.22038">
        <ele>206</ele>
        <time>2013-01-11T08:20:49.000Z</time>
      </trkpt>
      <trkpt lat="43.3418" lon="5.22006">
        <ele>208</ele>
        <time>2013-01-11T08:21:09.000Z</time>
      </trkpt>
      <trkpt lat="43.34163" lon="5.21976">
        <ele>210</ele>
        <time>2013-01-11T08:21:31.000Z</time>
      </trkpt>
      <trkpt lat="43.34161" lon="5.21962">
        <ele>211</ele>
        <time>2013-01-11T08:21:39.000Z</time>
      </trkpt>
      <trkpt lat="43.3416" lon="5.21936">
        <ele>212</ele>
        <time>2013-01-11T08:21:54.000Z</time>
      </trkpt>
      <trkpt lat="43.34156" lon="5.21917">
        <ele>214</ele>
        <time>2013-01-11T08:25:08.000Z</time>
      </trkpt>
      <trkpt lat="43.34157" lon="5.21919">
        <ele>214</ele>
        <time>2013-01-11T08:26:50.000Z</time>
      </trkpt>
      <trkpt lat="43.34162" lon="5.21921">
        <ele>215</ele>
        <time>2013-01-11T08:27:21.000Z</time>
      </trkpt>
      <trkpt lat="43.34167" lon="5.21924">
        <ele>216</ele>
        <time>2013-01-11T08:27:29.000Z</time>
      </trkpt>
      <trkpt lat="43.34161" lon="5.21927">
        <ele>214</ele>
        <time>2013-01-11T08:28:04.000Z</time>
      </trkpt>
      <trkpt lat="43.3416" lon="5.21941">
        <ele>214</ele>
        <time>2013-01-11T08:28:12.000Z</time>
      </trkpt>
      <trkpt lat="43.34161" lon="5.21971">
        <ele>214</ele>
        <time>2013-01-11T08:28:26.000Z</time>
      </trkpt>
      <trkpt lat="43.34166" lon="5.21981">
        <ele>213</ele>
        <time>2013-01-11T08:28:32.000Z</time>
      </trkpt>
      <trkpt lat="43.34173" lon="5.21996">
        <ele>212</ele>
        <time>2013-01-11T08:28:41.000Z</time>
      </trkpt>
      <trkpt lat="43.3417" lon="5.22004">
        <ele>210</ele>
        <time>2013-01-11T08:28:46.000Z</time>
      </trkpt>
      <trkpt lat="43.34165" lon="5.22008">
        <ele>209</ele>
        <time>2013-01-11T08:28:51.000Z</time>
      </trkpt>
      <trkpt lat="43.34158" lon="5.2201">
        <ele>207</ele>
        <time>2013-01-11T08:28:56.000Z</time>
      </trkpt>
      <trkpt lat="43.34152" lon="5.2201">
        <ele>205</ele>
        <time>2013-01-11T08:29:01.000Z</time>
      </trkpt>
      <trkpt lat="43.34135" lon="5.21999">
        <ele>203</ele>
        <time>2013-01-11T08:29:15.000Z</time>
      </trkpt>
      <trkpt lat="43.3413" lon="5.21993">
        <ele>202</ele>
        <time>2013-01-11T08:29:19.000Z</time>
      </trkpt>
      <trkpt lat="43.34128" lon="5.21987">
        <ele>202</ele>
        <time>2013-01-11T08:29:23.000Z</time>
      </trkpt>
      <trkpt lat="43.34121" lon="5.21956">
        <ele>200</ele>
        <time>2013-01-11T08:29:40.000Z</time>
      </trkpt>
      <trkpt lat="43.34113" lon="5.21923">
        <ele>196</ele>
        <time>2013-01-11T08:30:01.000Z</time>
      </trkpt>
      <trkpt lat="43.34102" lon="5.2187">
        <ele>192</ele>
        <time>2013-01-11T08:30:33.000Z</time>
      </trkpt>
      <trkpt lat="43.34105" lon="5.21823">
        <ele>188</ele>
        <time>2013-01-11T08:31:03.000Z</time>
      </trkpt>
      <trkpt lat="43.34111" lon="5.21761">
        <ele>185</ele>
        <time>2013-01-11T08:31:40.000Z</time>
      </trkpt>
      <trkpt lat="43.34111" lon="5.21759">
        <ele>185</ele>
        <time>2013-01-11T08:31:41.000Z</time>
      </trkpt>
      <trkpt lat="43.34119" lon="5.21697">
        <ele>178</ele>
        <time>2013-01-11T08:32:15.000Z</time>
      </trkpt>
      <trkpt lat="43.34119" lon="5.21695">
        <ele>178</ele>
        <time>2013-01-11T08:32:16.000Z</time>
      </trkpt>
      <trkpt lat="43.34119" lon="5.21686">
        <ele>177</ele>
        <time>2013-01-11T08:32:21.000Z</time>
      </trkpt>
      <trkpt lat="43.34117" lon="5.21664">
        <ele>175</ele>
        <time>2013-01-11T08:32:33.000Z</time>
      </trkpt>
      <trkpt lat="43.34104" lon="5.21604">
        <ele>170</ele>
        <time>2013-01-11T08:33:08.000Z</time>
      </trkpt>
      <trkpt lat="43.34104" lon="5.21602">
        <ele>169</ele>
        <time>2013-01-11T08:33:09.000Z</time>
      </trkpt>
      <trkpt lat="43.34088" lon="5.21543">
        <ele>165</ele>
        <time>2013-01-11T08:33:44.000Z</time>
      </trkpt>
      <trkpt lat="43.34087" lon="5.21541">
        <ele>165</ele>
        <time>2013-01-11T08:33:45.000Z</time>
      </trkpt>
      <trkpt lat="43.34087" lon="5.2154">
        <ele>164</ele>
        <time>2013-01-11T08:33:46.000Z</time>
      </trkpt>
      <trkpt lat="43.34076" lon="5.21526">
        <ele>162</ele>
        <time>2013-01-11T08:33:57.000Z</time>
      </trkpt>
      <trkpt lat="43.34066" lon="5.21524">
        <ele>162</ele>
        <time>2013-01-11T08:34:05.000Z</time>
      </trkpt>
      <trkpt lat="43.34057" lon="5.21528">
        <ele>162</ele>
        <time>2013-01-11T08:34:12.000Z</time>
      </trkpt>
      <trkpt lat="43.34016" lon="5.21556">
        <ele>161</ele>
        <time>2013-01-11T08:34:48.000Z</time>
      </trkpt>
      <trkpt lat="43.34015" lon="5.21556">
        <ele>160</ele>
        <time>2013-01-11T08:34:49.000Z</time>
      </trkpt>
      <trkpt lat="43.34012" lon="5.21557">
        <ele>160</ele>
        <time>2013-01-11T08:34:51.000Z</time>
      </trkpt>
      <trkpt lat="43.34001" lon="5.21558">
        <ele>160</ele>
        <time>2013-01-11T08:34:59.000Z</time>
      </trkpt>
      <trkpt lat="43.33984" lon="5.21552">
        <ele>160</ele>
        <time>2013-01-11T08:35:13.000Z</time>
      </trkpt>
      <trkpt lat="43.33975" lon="5.21545">
        <ele>161</ele>
        <time>2013-01-11T08:35:21.000Z</time>
      </trkpt>
      <trkpt lat="43.33966" lon="5.21532">
        <ele>161</ele>
        <time>2013-01-11T08:35:31.000Z</time>
      </trkpt>
      <trkpt lat="43.33937" lon="5.21484">
        <ele>163</ele>
        <time>2013-01-11T08:36:07.000Z</time>
      </trkpt>
      <trkpt lat="43.33936" lon="5.21482">
        <ele>163</ele>
        <time>2013-01-11T08:36:08.000Z</time>
      </trkpt>
      <trkpt lat="43.33923" lon="5.21437">
        <ele>161</ele>
        <time>2013-01-11T08:36:35.000Z</time>
      </trkpt>
      <trkpt lat="43.33913" lon="5.21396">
        <ele>159</ele>
        <time>2013-01-11T08:36:59.000Z</time>
      </trkpt>
      <trkpt lat="43.33912" lon="5.21389">
        <ele>158</ele>
        <time>2013-01-11T08:37:03.000Z</time>
      </trkpt>
      <trkpt lat="43.33912" lon="5.2138">
        <ele>158</ele>
        <time>2013-01-11T08:37:08.000Z</time>
      </trkpt>
      <trkpt lat="43.33909" lon="5.21372">
        <ele>157</ele>
        <time>2013-01-11T08:37:16.000Z</time>
      </trkpt>
      <trkpt lat="43.33907" lon="5.21372">
        <ele>156</ele>
        <time>2013-01-11T08:37:34.000Z</time>
      </trkpt>
      <trkpt lat="43.33908" lon="5.21371">
        <ele>156</ele>
        <time>2013-01-11T08:37:48.000Z</time>
      </trkpt>
      <trkpt lat="43.3391" lon="5.21352">
        <ele>155</ele>
        <time>2013-01-11T08:37:58.000Z</time>
      </trkpt>
      <trkpt lat="43.3391" lon="5.21329">
        <ele>152</ele>
        <time>2013-01-11T08:38:12.000Z</time>
      </trkpt>
      <trkpt lat="43.33907" lon="5.21324">
        <ele>150</ele>
        <time>2013-01-11T08:38:44.000Z</time>
      </trkpt>
      <trkpt lat="43.33901" lon="5.21313">
        <ele>148</ele>
        <time>2013-01-11T08:38:53.000Z</time>
      </trkpt>
      <trkpt lat="43.33895" lon="5.21308">
        <ele>146</ele>
        <time>2013-01-11T08:38:58.000Z</time>
      </trkpt>
      <trkpt lat="43.33889" lon="5.21309">
        <ele>145</ele>
        <time>2013-01-11T08:39:04.000Z</time>
      </trkpt>
      <trkpt lat="43.33869" lon="5.21316">
        <ele>146</ele>
        <time>2013-01-11T08:39:18.000Z</time>
      </trkpt>
      <trkpt lat="43.33823" lon="5.21316">
        <ele>147</ele>
        <time>2013-01-11T08:39:49.000Z</time>
      </trkpt>
      <trkpt lat="43.33823" lon="5.21316">
        <ele>147</ele>
        <time>2013-01-11T08:39:50.000Z</time>
      </trkpt>
      <trkpt lat="43.33805" lon="5.2132">
        <ele>144</ele>
        <time>2013-01-11T08:40:08.000Z</time>
      </trkpt>
      <trkpt lat="43.33794" lon="5.21328">
        <ele>144</ele>
        <time>2013-01-11T08:40:16.000Z</time>
      </trkpt>
      <trkpt lat="43.33789" lon="5.21334">
        <ele>144</ele>
        <time>2013-01-11T08:40:20.000Z</time>
      </trkpt>
      <trkpt lat="43.33779" lon="5.21345">
        <ele>144</ele>
        <time>2013-01-11T08:40:28.000Z</time>
      </trkpt>
      <trkpt lat="43.33771" lon="5.21347">
        <ele>143</ele>
        <time>2013-01-11T08:40:34.000Z</time>
      </trkpt>
      <trkpt lat="43.33765" lon="5.21343">
        <ele>142</ele>
        <time>2013-01-11T08:40:39.000Z</time>
      </trkpt>
      <trkpt lat="43.33761" lon="5.21336">
        <ele>141</ele>
        <time>2013-01-11T08:40:44.000Z</time>
      </trkpt>
      <trkpt lat="43.33754" lon="5.21319">
        <ele>140</ele>
        <time>2013-01-11T08:40:54.000Z</time>
      </trkpt>
      <trkpt lat="43.33743" lon="5.21302">
        <ele>139</ele>
        <time>2013-01-11T08:41:06.000Z</time>
      </trkpt>
      <trkpt lat="43.33733" lon="5.21299">
        <ele>138</ele>
        <time>2013-01-11T08:41:12.000Z</time>
      </trkpt>
      <trkpt lat="43.33724" lon="5.21302">
        <ele>137</ele>
        <time>2013-01-11T08:41:18.000Z</time>
      </trkpt>
      <trkpt lat="43.33717" lon="5.21311">
        <ele>137</ele>
        <time>2013-01-11T08:41:24.000Z</time>
      </trkpt>
      <trkpt lat="43.33715" lon="5.21323">
        <ele>136</ele>
        <time>2013-01-11T08:41:30.000Z</time>
      </trkpt>
      <trkpt lat="43.33715" lon="5.21339">
        <ele>136</ele>
        <time>2013-01-11T08:41:38.000Z</time>
      </trkpt>
      <trkpt lat="43.33716" lon="5.21355">
        <ele>135</ele>
        <time>2013-01-11T08:41:46.000Z</time>
      </trkpt>
      <trkpt lat="43.33718" lon="5.21368">
        <ele>134</ele>
        <time>2013-01-11T08:41:54.000Z</time>
      </trkpt>
      <trkpt lat="43.33719" lon="5.21375">
        <ele>133</ele>
        <time>2013-01-11T08:42:26.000Z</time>
      </trkpt>
      <trkpt lat="43.33721" lon="5.21384">
        <ele>133</ele>
        <time>2013-01-11T08:42:31.000Z</time>
      </trkpt>
      <trkpt lat="43.3372" lon="5.21392">
        <ele>133</ele>
        <time>2013-01-11T08:42:35.000Z</time>
      </trkpt>
      <trkpt lat="43.33713" lon="5.21439">
        <ele>134</ele>
        <time>2013-01-11T08:43:01.000Z</time>
      </trkpt>
      <trkpt lat="43.33702" lon="5.21477">
        <ele>133</ele>
        <time>2013-01-11T08:43:21.000Z</time>
      </trkpt>
      <trkpt lat="43.3369" lon="5.21492">
        <ele>132</ele>
        <time>2013-01-11T08:43:31.000Z</time>
      </trkpt>
      <trkpt lat="43.33652" lon="5.21527">
        <ele>123</ele>
        <time>2013-01-11T08:44:04.000Z</time>
      </trkpt>
      <trkpt lat="43.33652" lon="5.21528">
        <ele>122</ele>
        <time>2013-01-11T08:44:05.000Z</time>
      </trkpt>
      <trkpt lat="43.33641" lon="5.21539">
        <ele>120</ele>
        <time>2013-01-11T08:44:15.000Z</time>
      </trkpt>
      <trkpt lat="43.33634" lon="5.21553">
        <ele>118</ele>
        <time>2013-01-11T08:44:24.000Z</time>
      </trkpt>
      <trkpt lat="43.33631" lon="5.21574">
        <ele>116</ele>
        <time>2013-01-11T08:44:36.000Z</time>
      </trkpt>
      <trkpt lat="43.33632" lon="5.21636">
        <ele>112</ele>
        <time>2013-01-11T08:45:11.000Z</time>
      </trkpt>
      <trkpt lat="43.33632" lon="5.21638">
        <ele>112</ele>
        <time>2013-01-11T08:45:12.000Z</time>
      </trkpt>
      <trkpt lat="43.33629" lon="5.2168">
        <ele>109</ele>
        <time>2013-01-11T08:45:34.000Z</time>
      </trkpt>
      <trkpt lat="43.33629" lon="5.21707">
        <ele>106</ele>
        <time>2013-01-11T08:45:48.000Z</time>
      </trkpt>
      <trkpt lat="43.33633" lon="5.21717">
        <ele>105</ele>
        <time>2013-01-11T08:45:54.000Z</time>
      </trkpt>
      <trkpt lat="43.3364" lon="5.21732">
        <ele>103</ele>
        <time>2013-01-11T08:46:04.000Z</time>
      </trkpt>
      <trkpt lat="43.33636" lon="5.2174">
        <ele>102</ele>
        <time>2013-01-11T08:46:10.000Z</time>
      </trkpt>
      <trkpt lat="43.3363" lon="5.2174">
        <ele>101</ele>
        <time>2013-01-11T08:46:16.000Z</time>
      </trkpt>
      <trkpt lat="43.3362" lon="5.21732">
        <ele>99</ele>
        <time>2013-01-11T08:46:25.000Z</time>
      </trkpt>
      <trkpt lat="43.33614" lon="5.21716">
        <ele>98</ele>
        <time>2013-01-11T08:46:36.000Z</time>
      </trkpt>
      <trkpt lat="43.33612" lon="5.217">
        <ele>97</ele>
        <time>2013-01-11T08:46:45.000Z</time>
      </trkpt>
      <trkpt lat="43.33606" lon="5.21694">
        <ele>97</ele>
        <time>2013-01-11T08:46:51.000Z</time>
      </trkpt>
      <trkpt lat="43.33601" lon="5.217">
        <ele>95</ele>
        <time>2013-01-11T08:46:57.000Z</time>
      </trkpt>
      <trkpt lat="43.33601" lon="5.2172">
        <ele>94</ele>
        <time>2013-01-11T08:47:09.000Z</time>
      </trkpt>
      <trkpt lat="43.33604" lon="5.21748">
        <ele>94</ele>
        <time>2013-01-11T08:47:24.000Z</time>
      </trkpt>
      <trkpt lat="43.33622" lon="5.21784">
        <ele>91</ele>
        <time>2013-01-11T08:47:48.000Z</time>
      </trkpt>
      <trkpt lat="43.33633" lon="5.21803">
        <ele>89</ele>
        <time>2013-01-11T08:48:01.000Z</time>
      </trkpt>
      <trkpt lat="43.33672" lon="5.21834">
        <ele>83</ele>
        <time>2013-01-11T08:48:34.000Z</time>
      </trkpt>
      <trkpt lat="43.33672" lon="5.21835">
        <ele>83</ele>
        <time>2013-01-11T08:48:35.000Z</time>
      </trkpt>
      <trkpt lat="43.33674" lon="5.21842">
        <ele>82</ele>
        <time>2013-01-11T08:48:39.000Z</time>
      </trkpt>
      <trkpt lat="43.33674" lon="5.21851">
        <ele>81</ele>
        <time>2013-01-11T08:48:44.000Z</time>
      </trkpt>
      <trkpt lat="43.33666" lon="5.21865">
        <ele>80</ele>
        <time>2013-01-11T08:48:54.000Z</time>
      </trkpt>
      <trkpt lat="43.33654" lon="5.21873">
        <ele>79</ele>
        <time>2013-01-11T08:49:04.000Z</time>
      </trkpt>
      <trkpt lat="43.33633" lon="5.21884">
        <ele>77</ele>
        <time>2013-01-11T08:49:20.000Z</time>
      </trkpt>
      <trkpt lat="43.33621" lon="5.21888">
        <ele>76</ele>
        <time>2013-01-11T08:49:30.000Z</time>
      </trkpt>
      <trkpt lat="43.33605" lon="5.21887">
        <ele>75</ele>
        <time>2013-01-11T08:49:41.000Z</time>
      </trkpt>
      <trkpt lat="43.336" lon="5.21887">
        <ele>71</ele>
        <time>2013-01-11T08:49:59.000Z</time>
      </trkpt>
      <trkpt lat="43.33591" lon="5.21892">
        <ele>70</ele>
        <time>2013-01-11T08:50:07.000Z</time>
      </trkpt>
      <trkpt lat="43.33585" lon="5.21901">
        <ele>69</ele>
        <time>2013-01-11T08:50:13.000Z</time>
      </trkpt>
      <trkpt lat="43.33578" lon="5.21915">
        <ele>68</ele>
        <time>2013-01-11T08:50:23.000Z</time>
      </trkpt>
      <trkpt lat="43.33573" lon="5.21912">
        <ele>68</ele>
        <time>2013-01-11T08:50:27.000Z</time>
      </trkpt>
      <trkpt lat="43.3356" lon="5.21898">
        <ele>68</ele>
        <time>2013-01-11T08:50:40.000Z</time>
      </trkpt>
      <trkpt lat="43.33553" lon="5.21895">
        <ele>68</ele>
        <time>2013-01-11T08:50:46.000Z</time>
      </trkpt>
      <trkpt lat="43.33537" lon="5.21896">
        <ele>65</ele>
        <time>2013-01-11T08:50:59.000Z</time>
      </trkpt>
      <trkpt lat="43.33531" lon="5.21896">
        <ele>64</ele>
        <time>2013-01-11T08:51:03.000Z</time>
      </trkpt>
      <trkpt lat="43.33522" lon="5.21905">
        <ele>63</ele>
        <time>2013-01-11T08:51:11.000Z</time>
      </trkpt>
      <trkpt lat="43.33522" lon="5.21904">
        <ele>63</ele>
        <time>2013-01-11T08:51:19.000Z</time>
      </trkpt>
      <trkpt lat="43.33527" lon="5.21899">
        <ele>64</ele>
        <time>2013-01-11T08:51:31.000Z</time>
      </trkpt>
      <trkpt lat="43.33526" lon="5.21899">
        <ele>64</ele>
        <time>2013-01-11T08:51:41.000Z</time>
      </trkpt>
      <trkpt lat="43.33511" lon="5.21921">
        <ele>64</ele>
        <time>2013-01-11T08:51:56.000Z</time>
      </trkpt>
      <trkpt lat="43.3351" lon="5.2195">
        <ele>61</ele>
        <time>2013-01-11T08:52:10.000Z</time>
      </trkpt>
      <trkpt lat="43.33508" lon="5.21966">
        <ele>60</ele>
        <time>2013-01-11T08:52:18.000Z</time>
      </trkpt>
      <trkpt lat="43.33504" lon="5.2196">
        <ele>59</ele>
        <time>2013-01-11T08:52:24.000Z</time>
      </trkpt>
      <trkpt lat="43.33504" lon="5.21947">
        <ele>56</ele>
        <time>2013-01-11T08:52:31.000Z</time>
      </trkpt>
      <trkpt lat="43.33499" lon="5.21935">
        <ele>54</ele>
        <time>2013-01-11T08:52:40.000Z</time>
      </trkpt>
      <trkpt lat="43.33495" lon="5.21924">
        <ele>53</ele>
        <time>2013-01-11T08:52:47.000Z</time>
      </trkpt>
      <trkpt lat="43.3349" lon="5.21914">
        <ele>51</ele>
        <time>2013-01-11T08:52:54.000Z</time>
      </trkpt>
      <trkpt lat="43.33483" lon="5.21916">
        <ele>50</ele>
        <time>2013-01-11T08:53:00.000Z</time>
      </trkpt>
      <trkpt lat="43.33475" lon="5.21923">
        <ele>49</ele>
        <time>2013-01-11T08:53:07.000Z</time>
      </trkpt>
      <trkpt lat="43.33466" lon="5.21922">
        <ele>47</ele>
        <time>2013-01-11T08:53:14.000Z</time>
      </trkpt>
      <trkpt lat="43.33461" lon="5.21916">
        <ele>44</ele>
        <time>2013-01-11T08:53:20.000Z</time>
      </trkpt>
      <trkpt lat="43.33424" lon="5.21883">
        <ele>39</ele>
        <time>2013-01-11T08:53:49.000Z</time>
      </trkpt>
      <trkpt lat="43.33423" lon="5.21882">
        <ele>39</ele>
        <time>2013-01-11T08:53:50.000Z</time>
      </trkpt>
      <trkpt lat="43.3341" lon="5.21878">
        <ele>36</ele>
        <time>2013-01-11T08:53:57.000Z</time>
      </trkpt>
      <trkpt lat="43.33401" lon="5.21878">
        <ele>32</ele>
        <time>2013-01-11T08:54:03.000Z</time>
      </trkpt>
      <trkpt lat="43.33395" lon="5.21879">
        <ele>29</ele>
        <time>2013-01-11T08:54:07.000Z</time>
      </trkpt>
      <trkpt lat="43.33389" lon="5.21878">
        <ele>28</ele>
        <time>2013-01-11T08:54:11.000Z</time>
      </trkpt>
      <trkpt lat="43.33384" lon="5.21873">
        <ele>26</ele>
        <time>2013-01-11T08:54:15.000Z</time>
      </trkpt>
      <trkpt lat="43.33378" lon="5.21862">
        <ele>24</ele>
        <time>2013-01-11T08:54:21.000Z</time>
      </trkpt>
      <trkpt lat="43.33369" lon="5.2186">
        <ele>22</ele>
        <time>2013-01-11T08:54:27.000Z</time>
      </trkpt>
      <trkpt lat="43.33354" lon="5.21862">
        <ele>20</ele>
        <time>2013-01-11T08:54:40.000Z</time>
      </trkpt>
      <trkpt lat="43.33347" lon="5.21859">
        <ele>19</ele>
        <time>2013-01-11T08:54:46.000Z</time>
      </trkpt>
      <trkpt lat="43.33345" lon="5.21851">
        <ele>19</ele>
        <time>2013-01-11T08:54:52.000Z</time>
      </trkpt>
      <trkpt lat="43.33342" lon="5.21839">
        <ele>17</ele>
        <time>2013-01-11T08:55:03.000Z</time>
      </trkpt>
      <trkpt lat="43.33332" lon="5.21823">
        <ele>16</ele>
        <time>2013-01-11T08:55:18.000Z</time>
      </trkpt>
      <trkpt lat="43.33314" lon="5.21812">
        <ele>15</ele>
        <time>2013-01-11T08:55:36.000Z</time>
      </trkpt>
      <trkpt lat="43.33281" lon="5.21808">
        <ele>18</ele>
        <time>2013-01-11T08:56:04.000Z</time>
      </trkpt>
      <trkpt lat="43.3327" lon="5.21802">
        <ele>26</ele>
        <time>2013-01-11T08:56:47.000Z</time>
      </trkpt>
      <trkpt lat="43.33264" lon="5.21799">
        <ele>28</ele>
        <time>2013-01-11T08:57:00.000Z</time>
      </trkpt>
      <trkpt lat="43.33257" lon="5.21798">
        <ele>27</ele>
        <time>2013-01-11T08:57:04.000Z</time>
      </trkpt>
      <trkpt lat="43.33214" lon="5.21803">
        <ele>26</ele>
        <time>2013-01-11T08:57:24.000Z</time>
      </trkpt>
      <trkpt lat="43.33212" lon="5.21804">
        <ele>26</ele>
        <time>2013-01-11T08:57:25.000Z</time>
      </trkpt>
      <trkpt lat="43.33198" lon="5.21811">
        <ele>24</ele>
        <time>2013-01-11T08:57:34.000Z</time>
      </trkpt>
      <trkpt lat="43.33193" lon="5.21817">
        <ele>23</ele>
        <time>2013-01-11T08:57:38.000Z</time>
      </trkpt>
      <trkpt lat="43.33191" lon="5.21823">
        <ele>22</ele>
        <time>2013-01-11T08:57:46.000Z</time>
      </trkpt>
      <trkpt lat="43.33186" lon="5.21828">
        <ele>19</ele>
        <time>2013-01-11T08:58:01.000Z</time>
      </trkpt>
      <trkpt lat="43.33178" lon="5.2183">
        <ele>23</ele>
        <time>2013-01-11T08:58:16.000Z</time>
      </trkpt>
      <trkpt lat="43.33184" lon="5.21834">
        <ele>8</ele>
        <time>2013-01-11T08:59:05.000Z</time>
      </trkpt>
      <trkpt lat="43.33178" lon="5.21832">
        <ele>5</ele>
        <time>2013-01-11T08:59:37.000Z</time>
      </trkpt>
      <trkpt lat="43.33181" lon="5.21839">
        <ele>5</ele>
        <time>2013-01-11T09:00:13.000Z</time>
      </trkpt>
      <trkpt lat="43.33176" lon="5.21845">
        <ele>6</ele>
        <time>2013-01-11T09:00:19.000Z</time>
      </trkpt>
      <trkpt lat="43.33175" lon="5.21849">
        <ele>5</ele>
        <time>2013-01-11T09:01:13.000Z</time>
      </trkpt>
      <trkpt lat="43.33173" lon="5.21858">
        <ele>5</ele>
        <time>2013-01-11T09:01:30.000Z</time>
      </trkpt>
      <trkpt lat="43.3317" lon="5.21866">
        <ele>6</ele>
        <time>2013-01-11T09:01:41.000Z</time>
      </trkpt>
      <trkpt lat="43.33165" lon="5.21872">
        <ele>8</ele>
        <time>2013-01-11T09:01:47.000Z</time>
      </trkpt>
      <trkpt lat="43.33151" lon="5.21894">
        <ele>15</ele>
        <time>2013-01-11T09:02:24.000Z</time>
      </trkpt>
      <trkpt lat="43.33144" lon="5.21899">
        <ele>17</ele>
        <time>2013-01-11T09:02:50.000Z</time>
      </trkpt>
      <trkpt lat="43.33139" lon="5.21897">
        <ele>14</ele>
        <time>2013-01-11T09:03:15.000Z</time>
      </trkpt>
      <trkpt lat="43.3313" lon="5.21901">
        <ele>13</ele>
        <time>2013-01-11T09:03:23.000Z</time>
      </trkpt>
      <trkpt lat="43.33113" lon="5.21909">
        <ele>15</ele>
        <time>2013-01-11T09:04:02.000Z</time>
      </trkpt>
      <trkpt lat="43.33108" lon="5.2191">
        <ele>10</ele>
        <time>2013-01-11T09:05:38.000Z</time>
      </trkpt>
      <trkpt lat="43.33103" lon="5.21915">
        <ele>10</ele>
        <time>2013-01-11T09:06:11.000Z</time>
      </trkpt>
      <trkpt lat="43.33091" lon="5.21927">
        <ele>13</ele>
        <time>2013-01-11T09:06:23.000Z</time>
      </trkpt>
      <trkpt lat="43.3309" lon="5.21934">
        <ele>14</ele>
        <time>2013-01-11T09:06:29.000Z</time>
      </trkpt>
      <trkpt lat="43.33094" lon="5.21941">
        <ele>17</ele>
        <time>2013-01-11T09:07:07.000Z</time>
      </trkpt>
      <trkpt lat="43.33097" lon="5.21949">
        <ele>18</ele>
        <time>2013-01-11T09:07:19.000Z</time>
      </trkpt>
      <trkpt lat="43.33096" lon="5.21956">
        <ele>17</ele>
        <time>2013-01-11T09:07:26.000Z</time>
      </trkpt>
      <trkpt lat="43.33099" lon="5.21979">
        <ele>15</ele>
        <time>2013-01-11T09:08:01.000Z</time>
      </trkpt>
      <trkpt lat="43.33094" lon="5.21984">
        <ele>16</ele>
        <time>2013-01-11T09:08:09.000Z</time>
      </trkpt>
      <trkpt lat="43.33087" lon="5.21986">
        <ele>18</ele>
        <time>2013-01-11T09:08:19.000Z</time>
      </trkpt>
      <trkpt lat="43.33079" lon="5.21993">
        <ele>18</ele>
        <time>2013-01-11T09:08:31.000Z</time>
      </trkpt>
      <trkpt lat="43.33075" lon="5.21999">
        <ele>19</ele>
        <time>2013-01-11T09:08:40.000Z</time>
      </trkpt>
      <trkpt lat="43.33073" lon="5.22006">
        <ele>19</ele>
        <time>2013-01-11T09:08:57.000Z</time>
      </trkpt>
      <trkpt lat="43.33074" lon="5.22014">
        <ele>19</ele>
        <time>2013-01-11T09:12:27.000Z</time>
      </trkpt>
      <trkpt lat="43.33079" lon="5.22024">
        <ele>17</ele>
        <time>2013-01-11T09:12:41.000Z</time>
      </trkpt>
      <trkpt lat="43.33076" lon="5.22033">
        <ele>17</ele>
        <time>2013-01-11T09:12:56.000Z</time>
      </trkpt>
      <trkpt lat="43.33076" lon="5.22041">
        <ele>15</ele>
        <time>2013-01-11T09:13:03.000Z</time>
      </trkpt>
      <trkpt lat="43.33075" lon="5.2205">
        <ele>14</ele>
        <time>2013-01-11T09:13:09.000Z</time>
      </trkpt>
      <trkpt lat="43.33075" lon="5.2206">
        <ele>14</ele>
        <time>2013-01-11T09:13:15.000Z</time>
      </trkpt>
      <trkpt lat="43.33076" lon="5.22073">
        <ele>14</ele>
        <time>2013-01-11T09:13:23.000Z</time>
      </trkpt>
      <trkpt lat="43.33075" lon="5.22083">
        <ele>13</ele>
        <time>2013-01-11T09:13:29.000Z</time>
      </trkpt>
      <trkpt lat="43.3307" lon="5.22088">
        <ele>14</ele>
        <time>2013-01-11T09:13:36.000Z</time>
      </trkpt>
      <trkpt lat="43.33064" lon="5.22089">
        <ele>15</ele>
        <time>2013-01-11T09:13:44.000Z</time>
      </trkpt>
      <trkpt lat="43.33053" lon="5.22089">
        <ele>16</ele>
        <time>2013-01-11T09:14:00.000Z</time>
      </trkpt>
      <trkpt lat="43.33047" lon="5.22093">
        <ele>15</ele>
        <time>2013-01-11T09:14:05.000Z</time>
      </trkpt>
      <trkpt lat="43.3303" lon="5.22089">
        <ele>17</ele>
        <time>2013-01-11T09:14:26.000Z</time>
      </trkpt>
      <trkpt lat="43.33021" lon="5.22085">
        <ele>17</ele>
        <time>2013-01-11T09:14:35.000Z</time>
      </trkpt>
      <trkpt lat="43.33008" lon="5.22082">
        <ele>16</ele>
        <time>2013-01-11T09:14:50.000Z</time>
      </trkpt>
      <trkpt lat="43.32999" lon="5.22079">
        <ele>16</ele>
        <time>2013-01-11T09:15:01.000Z</time>
      </trkpt>
      <trkpt lat="43.32989" lon="5.22073">
        <ele>14</ele>
        <time>2013-01-11T09:15:42.000Z</time>
      </trkpt>
      <trkpt lat="43.3299" lon="5.22062">
        <ele>9</ele>
        <time>2013-01-11T09:15:57.000Z</time>
      </trkpt>
      <trkpt lat="43.32991" lon="5.22061">
        <ele>13</ele>
        <time>2013-01-11T09:17:29.000Z</time>
      </trkpt>
      <trkpt lat="43.3299" lon="5.22073">
        <ele>17</ele>
        <time>2013-01-11T09:17:41.000Z</time>
      </trkpt>
      <trkpt lat="43.32985" lon="5.22076">
        <ele>20</ele>
        <time>2013-01-11T09:18:13.000Z</time>
      </trkpt>
      <trkpt lat="43.32979" lon="5.22075">
        <ele>20</ele>
        <time>2013-01-11T09:18:26.000Z</time>
      </trkpt>
      <trkpt lat="43.32976" lon="5.22084">
        <ele>19</ele>
        <time>2013-01-11T09:19:26.000Z</time>
      </trkpt>
      <trkpt lat="43.32968" lon="5.2209">
        <ele>20</ele>
        <time>2013-01-11T09:19:45.000Z</time>
      </trkpt>
      <trkpt lat="43.32962" lon="5.22093">
        <ele>18</ele>
        <time>2013-01-11T09:19:55.000Z</time>
      </trkpt>
      <trkpt lat="43.32951" lon="5.22081">
        <ele>19</ele>
        <time>2013-01-11T09:20:26.000Z</time>
      </trkpt>
      <trkpt lat="43.32945" lon="5.22078">
        <ele>19</ele>
        <time>2013-01-11T09:20:34.000Z</time>
      </trkpt>
      <trkpt lat="43.32937" lon="5.2207">
        <ele>22</ele>
        <time>2013-01-11T09:20:47.000Z</time>
      </trkpt>
      <trkpt lat="43.32919" lon="5.22062">
        <ele>21</ele>
        <time>2013-01-11T09:21:17.000Z</time>
      </trkpt>
      <trkpt lat="43.32913" lon="5.2206">
        <ele>22</ele>
        <time>2013-01-11T09:21:25.000Z</time>
      </trkpt>
      <trkpt lat="43.32892" lon="5.22057">
        <ele>27</ele>
        <time>2013-01-11T09:22:07.000Z</time>
      </trkpt>
      <trkpt lat="43.32887" lon="5.22058">
        <ele>29</ele>
        <time>2013-01-11T09:22:21.000Z</time>
      </trkpt>
      <trkpt lat="43.32883" lon="5.22063">
        <ele>30</ele>
        <time>2013-01-11T09:22:29.000Z</time>
      </trkpt>
      <trkpt lat="43.32882" lon="5.2207">
        <ele>30</ele>
        <time>2013-01-11T09:22:41.000Z</time>
      </trkpt>
      <trkpt lat="43.32882" lon="5.22078">
        <ele>33</ele>
        <time>2013-01-11T09:23:01.000Z</time>
      </trkpt>
      <trkpt lat="43.32881" lon="5.22086">
        <ele>38</ele>
        <time>2013-01-11T09:23:21.000Z</time>
      </trkpt>
      <trkpt lat="43.32883" lon="5.22093">
        <ele>39</ele>
        <time>2013-01-11T09:23:32.000Z</time>
      </trkpt>
      <trkpt lat="43.3289" lon="5.22115">
        <ele>41</ele>
        <time>2013-01-11T09:23:53.000Z</time>
      </trkpt>
      <trkpt lat="43.32896" lon="5.22131">
        <ele>43</ele>
        <time>2013-01-11T09:24:38.000Z</time>
      </trkpt>
      <trkpt lat="43.32899" lon="5.22143">
        <ele>44</ele>
        <time>2013-01-11T09:24:51.000Z</time>
      </trkpt>
      <trkpt lat="43.32903" lon="5.22158">
        <ele>47</ele>
        <time>2013-01-11T09:25:05.000Z</time>
      </trkpt>
      <trkpt lat="43.32906" lon="5.22174">
        <ele>52</ele>
        <time>2013-01-11T09:25:27.000Z</time>
      </trkpt>
      <trkpt lat="43.32903" lon="5.22185">
        <ele>52</ele>
        <time>2013-01-11T09:25:36.000Z</time>
      </trkpt>
      <trkpt lat="43.32903" lon="5.22193">
        <ele>52</ele>
        <time>2013-01-11T09:25:42.000Z</time>
      </trkpt>
      <trkpt lat="43.32903" lon="5.22205">
        <ele>53</ele>
        <time>2013-01-11T09:25:53.000Z</time>
      </trkpt>
      <trkpt lat="43.32902" lon="5.22234">
        <ele>55</ele>
        <time>2013-01-11T09:26:21.000Z</time>
      </trkpt>
      <trkpt lat="43.32898" lon="5.22241">
        <ele>54</ele>
        <time>2013-01-11T09:26:28.000Z</time>
      </trkpt>
      <trkpt lat="43.32893" lon="5.22246">
        <ele>54</ele>
        <time>2013-01-11T09:26:35.000Z</time>
      </trkpt>
      <trkpt lat="43.32885" lon="5.22252">
        <ele>52</ele>
        <time>2013-01-11T09:26:58.000Z</time>
      </trkpt>
      <trkpt lat="43.32884" lon="5.22258">
        <ele>51</ele>
        <time>2013-01-11T09:27:05.000Z</time>
      </trkpt>
      <trkpt lat="43.32882" lon="5.22265">
        <ele>49</ele>
        <time>2013-01-11T09:27:13.000Z</time>
      </trkpt>
      <trkpt lat="43.32881" lon="5.22273">
        <ele>45</ele>
        <time>2013-01-11T09:27:45.000Z</time>
      </trkpt>
      <trkpt lat="43.3288" lon="5.22281">
        <ele>45</ele>
        <time>2013-01-11T09:27:51.000Z</time>
      </trkpt>
      <trkpt lat="43.32887" lon="5.22289">
        <ele>47</ele>
        <time>2013-01-11T09:28:53.000Z</time>
      </trkpt>
      <trkpt lat="43.32889" lon="5.22297">
        <ele>47</ele>
        <time>2013-01-11T09:29:05.000Z</time>
      </trkpt>
      <trkpt lat="43.32889" lon="5.2231">
        <ele>47</ele>
        <time>2013-01-11T09:29:15.000Z</time>
      </trkpt>
      <trkpt lat="43.3289" lon="5.22319">
        <ele>44</ele>
        <time>2013-01-11T09:29:41.000Z</time>
      </trkpt>
      <trkpt lat="43.32891" lon="5.22328">
        <ele>43</ele>
        <time>2013-01-11T09:29:48.000Z</time>
      </trkpt>
      <trkpt lat="43.32892" lon="5.22336">
        <ele>44</ele>
        <time>2013-01-11T09:29:55.000Z</time>
      </trkpt>
      <trkpt lat="43.32893" lon="5.22347">
        <ele>46</ele>
        <time>2013-01-11T09:30:07.000Z</time>
      </trkpt>
      <trkpt lat="43.32896" lon="5.22354">
        <ele>49</ele>
        <time>2013-01-11T09:30:16.000Z</time>
      </trkpt>
      <trkpt lat="43.32893" lon="5.2236">
        <ele>50</ele>
        <time>2013-01-11T09:30:26.000Z</time>
      </trkpt>
      <trkpt lat="43.32888" lon="5.22356">
        <ele>52</ele>
        <time>2013-01-11T09:30:38.000Z</time>
      </trkpt>
      <trkpt lat="43.32883" lon="5.22357">
        <ele>54</ele>
        <time>2013-01-11T09:30:56.000Z</time>
      </trkpt>
      <trkpt lat="43.32883" lon="5.22365">
        <ele>56</ele>
        <time>2013-01-11T09:31:12.000Z</time>
      </trkpt>
      <trkpt lat="43.32882" lon="5.2238">
        <ele>60</ele>
        <time>2013-01-11T09:31:41.000Z</time>
      </trkpt>
      <trkpt lat="43.3288" lon="5.2239">
        <ele>61</ele>
        <time>2013-01-11T09:31:51.000Z</time>
      </trkpt>
      <trkpt lat="43.3288" lon="5.22397">
        <ele>60</ele>
        <time>2013-01-11T09:31:59.000Z</time>
      </trkpt>
      <trkpt lat="43.32879" lon="5.22408">
        <ele>59</ele>
        <time>2013-01-11T09:32:16.000Z</time>
      </trkpt>
      <trkpt lat="43.32875" lon="5.22417">
        <ele>56</ele>
        <time>2013-01-11T09:33:02.000Z</time>
      </trkpt>
      <trkpt lat="43.32876" lon="5.22426">
        <ele>52</ele>
        <time>2013-01-11T09:33:24.000Z</time>
      </trkpt>
      <trkpt lat="43.32878" lon="5.22453">
        <ele>46</ele>
        <time>2013-01-11T09:34:05.000Z</time>
      </trkpt>
      <trkpt lat="43.32882" lon="5.22469">
        <ele>45</ele>
        <time>2013-01-11T09:34:18.000Z</time>
      </trkpt>
      <trkpt lat="43.3288" lon="5.22476">
        <ele>46</ele>
        <time>2013-01-11T09:34:26.000Z</time>
      </trkpt>
      <trkpt lat="43.32878" lon="5.22484">
        <ele>48</ele>
        <time>2013-01-11T09:34:34.000Z</time>
      </trkpt>
      <trkpt lat="43.3288" lon="5.22491">
        <ele>50</ele>
        <time>2013-01-11T09:34:45.000Z</time>
      </trkpt>
      <trkpt lat="43.32883" lon="5.22502">
        <ele>51</ele>
        <time>2013-01-11T09:35:08.000Z</time>
      </trkpt>
      <trkpt lat="43.32891" lon="5.22522">
        <ele>50</ele>
        <time>2013-01-11T09:35:26.000Z</time>
      </trkpt>
      <trkpt lat="43.32891" lon="5.2253">
        <ele>50</ele>
        <time>2013-01-11T09:35:33.000Z</time>
      </trkpt>
      <trkpt lat="43.32889" lon="5.22551">
        <ele>52</ele>
        <time>2013-01-11T09:36:14.000Z</time>
      </trkpt>
      <trkpt lat="43.32893" lon="5.22572">
        <ele>49</ele>
        <time>2013-01-11T09:37:00.000Z</time>
      </trkpt>
      <trkpt lat="43.32896" lon="5.2258">
        <ele>48</ele>
        <time>2013-01-11T09:37:06.000Z</time>
      </trkpt>
      <trkpt lat="43.32898" lon="5.22593">
        <ele>47</ele>
        <time>2013-01-11T09:37:14.000Z</time>
      </trkpt>
      <trkpt lat="43.329" lon="5.22601">
        <ele>47</ele>
        <time>2013-01-11T09:37:19.000Z</time>
      </trkpt>
      <trkpt lat="43.32905" lon="5.22612">
        <ele>47</ele>
        <time>2013-01-11T09:37:27.000Z</time>
      </trkpt>
      <trkpt lat="43.3291" lon="5.22627">
        <ele>46</ele>
        <time>2013-01-11T09:37:39.000Z</time>
      </trkpt>
      <trkpt lat="43.32918" lon="5.22632">
        <ele>44</ele>
        <time>2013-01-11T09:37:46.000Z</time>
      </trkpt>
      <trkpt lat="43.32924" lon="5.22636">
        <ele>43</ele>
        <time>2013-01-11T09:37:51.000Z</time>
      </trkpt>
      <trkpt lat="43.32937" lon="5.22647">
        <ele>43</ele>
        <time>2013-01-11T09:38:03.000Z</time>
      </trkpt>
      <trkpt lat="43.3294" lon="5.22654">
        <ele>43</ele>
        <time>2013-01-11T09:38:09.000Z</time>
      </trkpt>
      <trkpt lat="43.32944" lon="5.22661">
        <ele>44</ele>
        <time>2013-01-11T09:38:15.000Z</time>
      </trkpt>
      <trkpt lat="43.32949" lon="5.22673">
        <ele>44</ele>
        <time>2013-01-11T09:38:24.000Z</time>
      </trkpt>
      <trkpt lat="43.32944" lon="5.227">
        <ele>45</ele>
        <time>2013-01-11T09:38:57.000Z</time>
      </trkpt>
      <trkpt lat="43.32941" lon="5.22706">
        <ele>46</ele>
        <time>2013-01-11T09:39:10.000Z</time>
      </trkpt>
      <trkpt lat="43.32939" lon="5.22718">
        <ele>50</ele>
        <time>2013-01-11T09:39:33.000Z</time>
      </trkpt>
      <trkpt lat="43.32941" lon="5.2273">
        <ele>51</ele>
        <time>2013-01-11T09:39:46.000Z</time>
      </trkpt>
      <trkpt lat="43.32944" lon="5.22736">
        <ele>51</ele>
        <time>2013-01-11T09:39:52.000Z</time>
      </trkpt>
      <trkpt lat="43.32949" lon="5.22751">
        <ele>50</ele>
        <time>2013-01-11T09:40:08.000Z</time>
      </trkpt>
      <trkpt lat="43.32952" lon="5.22761">
        <ele>50</ele>
        <time>2013-01-11T09:40:19.000Z</time>
      </trkpt>
      <trkpt lat="43.32956" lon="5.22775">
        <ele>52</ele>
        <time>2013-01-11T09:40:29.000Z</time>
      </trkpt>
      <trkpt lat="43.32951" lon="5.22773">
        <ele>51</ele>
        <time>2013-01-11T09:41:00.000Z</time>
      </trkpt>
      <trkpt lat="43.32946" lon="5.22775">
        <ele>55</ele>
        <time>2013-01-11T09:41:37.000Z</time>
      </trkpt>
      <trkpt lat="43.32938" lon="5.22786">
        <ele>57</ele>
        <time>2013-01-11T09:41:54.000Z</time>
      </trkpt>
      <trkpt lat="43.32939" lon="5.22794">
        <ele>58</ele>
        <time>2013-01-11T09:42:03.000Z</time>
      </trkpt>
      <trkpt lat="43.32939" lon="5.22803">
        <ele>58</ele>
        <time>2013-01-11T09:42:12.000Z</time>
      </trkpt>
      <trkpt lat="43.32939" lon="5.22811">
        <ele>58</ele>
        <time>2013-01-11T09:42:30.000Z</time>
      </trkpt>
      <trkpt lat="43.32938" lon="5.22819">
        <ele>59</ele>
        <time>2013-01-11T09:42:43.000Z</time>
      </trkpt>
      <trkpt lat="43.32935" lon="5.22826">
        <ele>59</ele>
        <time>2013-01-11T09:42:51.000Z</time>
      </trkpt>
      <trkpt lat="43.32933" lon="5.22851">
        <ele>62</ele>
        <time>2013-01-11T09:43:14.000Z</time>
      </trkpt>
      <trkpt lat="43.32933" lon="5.2286">
        <ele>62</ele>
        <time>2013-01-11T09:43:35.000Z</time>
      </trkpt>
      <trkpt lat="43.32938" lon="5.22865">
        <ele>61</ele>
        <time>2013-01-11T09:44:06.000Z</time>
      </trkpt>
      <trkpt lat="43.32943" lon="5.22873">
        <ele>58</ele>
        <time>2013-01-11T09:44:18.000Z</time>
      </trkpt>
      <trkpt lat="43.32951" lon="5.22879">
        <ele>55</ele>
        <time>2013-01-11T09:44:38.000Z</time>
      </trkpt>
      <trkpt lat="43.32954" lon="5.22889">
        <ele>52</ele>
        <time>2013-01-11T09:44:53.000Z</time>
      </trkpt>
      <trkpt lat="43.32953" lon="5.22898">
        <ele>51</ele>
        <time>2013-01-11T09:45:03.000Z</time>
      </trkpt>
      <trkpt lat="43.32954" lon="5.22907">
        <ele>50</ele>
        <time>2013-01-11T09:45:11.000Z</time>
      </trkpt>
      <trkpt lat="43.32961" lon="5.22929">
        <ele>47</ele>
        <time>2013-01-11T09:46:04.000Z</time>
      </trkpt>
      <trkpt lat="43.32966" lon="5.22933">
        <ele>47</ele>
        <time>2013-01-11T09:46:28.000Z</time>
      </trkpt>
      <trkpt lat="43.32973" lon="5.22943">
        <ele>40</ele>
        <time>2013-01-11T09:48:55.000Z</time>
      </trkpt>
      <trkpt lat="43.32979" lon="5.22943">
        <ele>40</ele>
        <time>2013-01-11T09:49:04.000Z</time>
      </trkpt>
      <trkpt lat="43.32987" lon="5.22948">
        <ele>41</ele>
        <time>2013-01-11T09:49:14.000Z</time>
      </trkpt>
      <trkpt lat="43.32993" lon="5.2295">
        <ele>41</ele>
        <time>2013-01-11T09:49:22.000Z</time>
      </trkpt>
      <trkpt lat="43.32996" lon="5.22954">
        <ele>40</ele>
        <time>2013-01-11T09:49:30.000Z</time>
      </trkpt>
      <trkpt lat="43.33" lon="5.22959">
        <ele>39</ele>
        <time>2013-01-11T09:49:42.000Z</time>
      </trkpt>
      <trkpt lat="43.33012" lon="5.2296">
        <ele>37</ele>
        <time>2013-01-11T09:50:07.000Z</time>
      </trkpt>
      <trkpt lat="43.3302" lon="5.22969">
        <ele>35</ele>
        <time>2013-01-11T09:50:19.000Z</time>
      </trkpt>
      <trkpt lat="43.33027" lon="5.22976">
        <ele>31</ele>
        <time>2013-01-11T09:50:35.000Z</time>
      </trkpt>
      <trkpt lat="43.33032" lon="5.22989">
        <ele>28</ele>
        <time>2013-01-11T09:50:51.000Z</time>
      </trkpt>
      <trkpt lat="43.33025" lon="5.22998">
        <ele>29</ele>
        <time>2013-01-11T09:51:01.000Z</time>
      </trkpt>
      <trkpt lat="43.33022" lon="5.23005">
        <ele>30</ele>
        <time>2013-01-11T09:51:07.000Z</time>
      </trkpt>
      <trkpt lat="43.33021" lon="5.23014">
        <ele>29</ele>
        <time>2013-01-11T09:51:13.000Z</time>
      </trkpt>
      <trkpt lat="43.3302" lon="5.23046">
        <ele>30</ele>
        <time>2013-01-11T09:51:36.000Z</time>
      </trkpt>
      <trkpt lat="43.33019" lon="5.23061">
        <ele>32</ele>
        <time>2013-01-11T09:52:00.000Z</time>
      </trkpt>
      <trkpt lat="43.33029" lon="5.23077">
        <ele>36</ele>
        <time>2013-01-11T09:52:17.000Z</time>
      </trkpt>
      <trkpt lat="43.33033" lon="5.23083">
        <ele>37</ele>
        <time>2013-01-11T09:52:24.000Z</time>
      </trkpt>
      <trkpt lat="43.33034" lon="5.23095">
        <ele>39</ele>
        <time>2013-01-11T09:52:37.000Z</time>
      </trkpt>
      <trkpt lat="43.33035" lon="5.23111">
        <ele>41</ele>
        <time>2013-01-11T09:52:51.000Z</time>
      </trkpt>
      <trkpt lat="43.33038" lon="5.23127">
        <ele>42</ele>
        <time>2013-01-11T09:53:09.000Z</time>
      </trkpt>
      <trkpt lat="43.33045" lon="5.23135">
        <ele>44</ele>
        <time>2013-01-11T09:53:24.000Z</time>
      </trkpt>
      <trkpt lat="43.3305" lon="5.23136">
        <ele>45</ele>
        <time>2013-01-11T09:53:31.000Z</time>
      </trkpt>
      <trkpt lat="43.33064" lon="5.23135">
        <ele>45</ele>
        <time>2013-01-11T09:53:47.000Z</time>
      </trkpt>
      <trkpt lat="43.33066" lon="5.23141">
        <ele>46</ele>
        <time>2013-01-11T09:53:55.000Z</time>
      </trkpt>
      <trkpt lat="43.33069" lon="5.23147">
        <ele>46</ele>
        <time>2013-01-11T09:54:02.000Z</time>
      </trkpt>
      <trkpt lat="43.33074" lon="5.23161">
        <ele>47</ele>
        <time>2013-01-11T09:54:17.000Z</time>
      </trkpt>
      <trkpt lat="43.33082" lon="5.23184">
        <ele>46</ele>
        <time>2013-01-11T09:54:36.000Z</time>
      </trkpt>
      <trkpt lat="43.33089" lon="5.23194">
        <ele>47</ele>
        <time>2013-01-11T09:54:50.000Z</time>
      </trkpt>
      <trkpt lat="43.33098" lon="5.23203">
        <ele>49</ele>
        <time>2013-01-11T09:55:10.000Z</time>
      </trkpt>
      <trkpt lat="43.33102" lon="5.2321">
        <ele>49</ele>
        <time>2013-01-11T09:55:17.000Z</time>
      </trkpt>
      <trkpt lat="43.33108" lon="5.23218">
        <ele>50</ele>
        <time>2013-01-11T09:55:30.000Z</time>
      </trkpt>
      <trkpt lat="43.33113" lon="5.23227">
        <ele>51</ele>
        <time>2013-01-11T09:55:49.000Z</time>
      </trkpt>
      <trkpt lat="43.33117" lon="5.23237">
        <ele>54</ele>
        <time>2013-01-11T09:56:09.000Z</time>
      </trkpt>
      <trkpt lat="43.33121" lon="5.23261">
        <ele>59</ele>
        <time>2013-01-11T09:56:55.000Z</time>
      </trkpt>
      <trkpt lat="43.33121" lon="5.23269">
        <ele>61</ele>
        <time>2013-01-11T09:57:09.000Z</time>
      </trkpt>
      <trkpt lat="43.33123" lon="5.23277">
        <ele>63</ele>
        <time>2013-01-11T09:57:17.000Z</time>
      </trkpt>
      <trkpt lat="43.33125" lon="5.23289">
        <ele>62</ele>
        <time>2013-01-11T09:57:29.000Z</time>
      </trkpt>
      <trkpt lat="43.33126" lon="5.23297">
        <ele>62</ele>
        <time>2013-01-11T09:57:36.000Z</time>
      </trkpt>
      <trkpt lat="43.33125" lon="5.23315">
        <ele>63</ele>
        <time>2013-01-11T09:57:48.000Z</time>
      </trkpt>
      <trkpt lat="43.33127" lon="5.23321">
        <ele>63</ele>
        <time>2013-01-11T09:58:03.000Z</time>
      </trkpt>
      <trkpt lat="43.33128" lon="5.23329">
        <ele>61</ele>
        <time>2013-01-11T09:58:21.000Z</time>
      </trkpt>
      <trkpt lat="43.33131" lon="5.23332">
        <ele>59</ele>
        <time>2013-01-11T09:58:32.000Z</time>
      </trkpt>
      <trkpt lat="43.33146" lon="5.23325">
        <ele>54</ele>
        <time>2013-01-11T09:59:10.000Z</time>
      </trkpt>
      <trkpt lat="43.33146" lon="5.23337">
        <ele>49</ele>
        <time>2013-01-11T09:59:33.000Z</time>
      </trkpt>
      <trkpt lat="43.33146" lon="5.23352">
        <ele>47</ele>
        <time>2013-01-11T09:59:54.000Z</time>
      </trkpt>
      <trkpt lat="43.33144" lon="5.2336">
        <ele>46</ele>
        <time>2013-01-11T10:00:03.000Z</time>
      </trkpt>
      <trkpt lat="43.33144" lon="5.23372">
        <ele>44</ele>
        <time>2013-01-11T10:00:18.000Z</time>
      </trkpt>
      <trkpt lat="43.33147" lon="5.23385">
        <ele>42</ele>
        <time>2013-01-11T10:00:29.000Z</time>
      </trkpt>
      <trkpt lat="43.33147" lon="5.23398">
        <ele>40</ele>
        <time>2013-01-11T10:00:38.000Z</time>
      </trkpt>
      <trkpt lat="43.33145" lon="5.23412">
        <ele>39</ele>
        <time>2013-01-11T10:00:47.000Z</time>
      </trkpt>
      <trkpt lat="43.3315" lon="5.2343">
        <ele>38</ele>
        <time>2013-01-11T10:00:59.000Z</time>
      </trkpt>
      <trkpt lat="43.33163" lon="5.23445">
        <ele>37</ele>
        <time>2013-01-11T10:01:14.000Z</time>
      </trkpt>
      <trkpt lat="43.3317" lon="5.23453">
        <ele>36</ele>
        <time>2013-01-11T10:01:20.000Z</time>
      </trkpt>
      <trkpt lat="43.33174" lon="5.23468">
        <ele>36</ele>
        <time>2013-01-11T10:01:28.000Z</time>
      </trkpt>
      <trkpt lat="43.3317" lon="5.23479">
        <ele>37</ele>
        <time>2013-01-11T10:01:34.000Z</time>
      </trkpt>
      <trkpt lat="43.33164" lon="5.23493">
        <ele>36</ele>
        <time>2013-01-11T10:01:46.000Z</time>
      </trkpt>
      <trkpt lat="43.33164" lon="5.23501">
        <ele>36</ele>
        <time>2013-01-11T10:01:52.000Z</time>
      </trkpt>
      <trkpt lat="43.33165" lon="5.23509">
        <ele>37</ele>
        <time>2013-01-11T10:01:58.000Z</time>
      </trkpt>
      <trkpt lat="43.33183" lon="5.23566">
        <ele>42</ele>
        <time>2013-01-11T10:02:44.000Z</time>
      </trkpt>
      <trkpt lat="43.33183" lon="5.23568">
        <ele>42</ele>
        <time>2013-01-11T10:02:45.000Z</time>
      </trkpt>
      <trkpt lat="43.33197" lon="5.23621">
        <ele>46</ele>
        <time>2013-01-11T10:03:34.000Z</time>
      </trkpt>
      <trkpt lat="43.332" lon="5.23632">
        <ele>45</ele>
        <time>2013-01-11T10:03:44.000Z</time>
      </trkpt>
      <trkpt lat="43.33207" lon="5.23648">
        <ele>43</ele>
        <time>2013-01-11T10:04:06.000Z</time>
      </trkpt>
      <trkpt lat="43.33212" lon="5.23646">
        <ele>42</ele>
        <time>2013-01-11T10:06:34.000Z</time>
      </trkpt>
      <trkpt lat="43.33213" lon="5.23654">
        <ele>39</ele>
        <time>2013-01-11T10:07:04.000Z</time>
      </trkpt>
      <trkpt lat="43.33213" lon="5.23662">
        <ele>43</ele>
        <time>2013-01-11T10:07:26.000Z</time>
      </trkpt>
      <trkpt lat="43.33214" lon="5.2367">
        <ele>46</ele>
        <time>2013-01-11T10:07:47.000Z</time>
      </trkpt>
      <trkpt lat="43.33218" lon="5.23665">
        <ele>42</ele>
        <time>2013-01-11T10:07:58.000Z</time>
      </trkpt>
      <trkpt lat="43.33221" lon="5.23658">
        <ele>39</ele>
        <time>2013-01-11T10:08:10.000Z</time>
      </trkpt>
      <trkpt lat="43.33229" lon="5.23654">
        <ele>37</ele>
        <time>2013-01-11T10:08:27.000Z</time>
      </trkpt>
      <trkpt lat="43.33234" lon="5.23659">
        <ele>36</ele>
        <time>2013-01-11T10:08:38.000Z</time>
      </trkpt>
      <trkpt lat="43.33229" lon="5.23664">
        <ele>44</ele>
        <time>2013-01-11T10:08:49.000Z</time>
      </trkpt>
      <trkpt lat="43.33224" lon="5.23669">
        <ele>45</ele>
        <time>2013-01-11T10:08:58.000Z</time>
      </trkpt>
      <trkpt lat="43.33227" lon="5.23676">
        <ele>37</ele>
        <time>2013-01-11T10:09:15.000Z</time>
      </trkpt>
      <trkpt lat="43.33224" lon="5.23682">
        <ele>29</ele>
        <time>2013-01-11T10:09:32.000Z</time>
      </trkpt>
      <trkpt lat="43.33221" lon="5.23688">
        <ele>22</ele>
        <time>2013-01-11T10:09:45.000Z</time>
      </trkpt>
      <trkpt lat="43.33215" lon="5.23703">
        <ele>7</ele>
        <time>2013-01-11T10:10:06.000Z</time>
      </trkpt>
      <trkpt lat="43.33213" lon="5.2371">
        <ele>8</ele>
        <time>2013-01-11T10:10:16.000Z</time>
      </trkpt>
      <trkpt lat="43.33212" lon="5.23717">
        <ele>14</ele>
        <time>2013-01-11T10:10:45.000Z</time>
      </trkpt>
      <trkpt lat="43.33209" lon="5.23724">
        <ele>14</ele>
        <time>2013-01-11T10:11:02.000Z</time>
      </trkpt>
      <trkpt lat="43.33203" lon="5.23726">
        <ele>20</ele>
        <time>2013-01-11T10:11:14.000Z</time>
      </trkpt>
      <trkpt lat="43.33184" lon="5.23735">
        <ele>27</ele>
        <time>2013-01-11T10:13:03.000Z</time>
      </trkpt>
      <trkpt lat="43.33181" lon="5.23742">
        <ele>23</ele>
        <time>2013-01-11T10:13:22.000Z</time>
      </trkpt>
      <trkpt lat="43.33182" lon="5.2375">
        <ele>21</ele>
        <time>2013-01-11T10:13:31.000Z</time>
      </trkpt>
      <trkpt lat="43.33184" lon="5.23762">
        <ele>22</ele>
        <time>2013-01-11T10:13:41.000Z</time>
      </trkpt>
      <trkpt lat="43.33184" lon="5.23773">
        <ele>23</ele>
        <time>2013-01-11T10:13:55.000Z</time>
      </trkpt>
      <trkpt lat="43.33185" lon="5.23779">
        <ele>16</ele>
        <time>2013-01-11T10:15:21.000Z</time>
      </trkpt>
      <trkpt lat="43.33186" lon="5.23786">
        <ele>15</ele>
        <time>2013-01-11T10:16:43.000Z</time>
      </trkpt>
      <trkpt lat="43.33184" lon="5.23794">
        <ele>15</ele>
        <time>2013-01-11T10:17:03.000Z</time>
      </trkpt>
      <trkpt lat="43.33184" lon="5.23801">
        <ele>14</ele>
        <time>2013-01-11T10:17:16.000Z</time>
      </trkpt>
      <trkpt lat="43.33186" lon="5.23808">
        <ele>16</ele>
        <time>2013-01-11T10:17:34.000Z</time>
      </trkpt>
      <trkpt lat="43.33185" lon="5.23816">
        <ele>18</ele>
        <time>2013-01-11T10:17:42.000Z</time>
      </trkpt>
      <trkpt lat="43.33184" lon="5.23824">
        <ele>18</ele>
        <time>2013-01-11T10:17:49.000Z</time>
      </trkpt>
      <trkpt lat="43.33185" lon="5.23832">
        <ele>19</ele>
        <time>2013-01-11T10:17:59.000Z</time>
      </trkpt>
      <trkpt lat="43.33186" lon="5.23843">
        <ele>22</ele>
        <time>2013-01-11T10:18:26.000Z</time>
      </trkpt>
      <trkpt lat="43.33186" lon="5.23854">
        <ele>22</ele>
        <time>2013-01-11T10:18:39.000Z</time>
      </trkpt>
      <trkpt lat="43.33187" lon="5.23866">
        <ele>22</ele>
        <time>2013-01-11T10:18:53.000Z</time>
      </trkpt>
      <trkpt lat="43.33187" lon="5.23886">
        <ele>27</ele>
        <time>2013-01-11T10:19:31.000Z</time>
      </trkpt>
      <trkpt lat="43.33189" lon="5.23895">
        <ele>29</ele>
        <time>2013-01-11T10:20:37.000Z</time>
      </trkpt>
      <trkpt lat="43.3319" lon="5.23906">
        <ele>31</ele>
        <time>2013-01-11T10:20:49.000Z</time>
      </trkpt>
      <trkpt lat="43.33193" lon="5.23918">
        <ele>31</ele>
        <time>2013-01-11T10:20:59.000Z</time>
      </trkpt>
      <trkpt lat="43.33191" lon="5.23925">
        <ele>31</ele>
        <time>2013-01-11T10:21:11.000Z</time>
      </trkpt>
      <trkpt lat="43.33195" lon="5.23932">
        <ele>32</ele>
        <time>2013-01-11T10:21:27.000Z</time>
      </trkpt>
      <trkpt lat="43.33192" lon="5.23945">
        <ele>33</ele>
        <time>2013-01-11T10:21:43.000Z</time>
      </trkpt>
      <trkpt lat="43.33193" lon="5.23955">
        <ele>31</ele>
        <time>2013-01-11T10:21:50.000Z</time>
      </trkpt>
      <trkpt lat="43.33197" lon="5.23969">
        <ele>33</ele>
        <time>2013-01-11T10:22:06.000Z</time>
      </trkpt>
      <trkpt lat="43.33198" lon="5.23981">
        <ele>36</ele>
        <time>2013-01-11T10:22:29.000Z</time>
      </trkpt>
      <trkpt lat="43.33201" lon="5.23987">
        <ele>36</ele>
        <time>2013-01-11T10:22:43.000Z</time>
      </trkpt>
      <trkpt lat="43.33205" lon="5.23994">
        <ele>36</ele>
        <time>2013-01-11T10:22:53.000Z</time>
      </trkpt>
      <trkpt lat="43.33206" lon="5.24002">
        <ele>36</ele>
        <time>2013-01-11T10:22:59.000Z</time>
      </trkpt>
      <trkpt lat="43.33207" lon="5.24011">
        <ele>35</ele>
        <time>2013-01-11T10:23:06.000Z</time>
      </trkpt>
      <trkpt lat="43.33209" lon="5.24018">
        <ele>36</ele>
        <time>2013-01-11T10:23:12.000Z</time>
      </trkpt>
      <trkpt lat="43.3321" lon="5.24026">
        <ele>36</ele>
        <time>2013-01-11T10:23:20.000Z</time>
      </trkpt>
      <trkpt lat="43.33212" lon="5.24034">
        <ele>35</ele>
        <time>2013-01-11T10:23:29.000Z</time>
      </trkpt>
      <trkpt lat="43.33215" lon="5.24041">
        <ele>36</ele>
        <time>2013-01-11T10:23:35.000Z</time>
      </trkpt>
      <trkpt lat="43.33221" lon="5.24052">
        <ele>36</ele>
        <time>2013-01-11T10:23:43.000Z</time>
      </trkpt>
      <trkpt lat="43.33223" lon="5.2406">
        <ele>35</ele>
        <time>2013-01-11T10:23:49.000Z</time>
      </trkpt>
      <trkpt lat="43.33229" lon="5.24079">
        <ele>35</ele>
        <time>2013-01-11T10:24:20.000Z</time>
      </trkpt>
      <trkpt lat="43.33231" lon="5.24087">
        <ele>34</ele>
        <time>2013-01-11T10:24:29.000Z</time>
      </trkpt>
      <trkpt lat="43.33232" lon="5.24095">
        <ele>31</ele>
        <time>2013-01-11T10:25:20.000Z</time>
      </trkpt>
      <trkpt lat="43.33232" lon="5.24107">
        <ele>29</ele>
        <time>2013-01-11T10:25:54.000Z</time>
      </trkpt>
      <trkpt lat="43.3323" lon="5.24117">
        <ele>29</ele>
        <time>2013-01-11T10:26:35.000Z</time>
      </trkpt>
      <trkpt lat="43.33229" lon="5.24138">
        <ele>27</ele>
        <time>2013-01-11T10:26:59.000Z</time>
      </trkpt>
      <trkpt lat="43.3323" lon="5.24145">
        <ele>26</ele>
        <time>2013-01-11T10:27:18.000Z</time>
      </trkpt>
      <trkpt lat="43.33231" lon="5.24153">
        <ele>26</ele>
        <time>2013-01-11T10:27:28.000Z</time>
      </trkpt>
      <trkpt lat="43.33227" lon="5.2417">
        <ele>26</ele>
        <time>2013-01-11T10:27:39.000Z</time>
      </trkpt>
      <trkpt lat="43.33232" lon="5.24193">
        <ele>28</ele>
        <time>2013-01-11T10:28:06.000Z</time>
      </trkpt>
      <trkpt lat="43.33237" lon="5.24208">
        <ele>28</ele>
        <time>2013-01-11T10:28:37.000Z</time>
      </trkpt>
      <trkpt lat="43.33239" lon="5.24217">
        <ele>28</ele>
        <time>2013-01-11T10:28:44.000Z</time>
      </trkpt>
      <trkpt lat="43.3324" lon="5.24233">
        <ele>28</ele>
        <time>2013-01-11T10:28:59.000Z</time>
      </trkpt>
      <trkpt lat="43.33241" lon="5.2424">
        <ele>27</ele>
        <time>2013-01-11T10:29:06.000Z</time>
      </trkpt>
      <trkpt lat="43.33244" lon="5.24246">
        <ele>29</ele>
        <time>2013-01-11T10:29:19.000Z</time>
      </trkpt>
      <trkpt lat="43.33247" lon="5.24252">
        <ele>30</ele>
        <time>2013-01-11T10:29:36.000Z</time>
      </trkpt>
      <trkpt lat="43.33252" lon="5.24258">
        <ele>30</ele>
        <time>2013-01-11T10:29:42.000Z</time>
      </trkpt>
      <trkpt lat="43.33266" lon="5.24267">
        <ele>27</ele>
        <time>2013-01-11T10:29:58.000Z</time>
      </trkpt>
      <trkpt lat="43.33272" lon="5.24268">
        <ele>25</ele>
        <time>2013-01-11T10:30:05.000Z</time>
      </trkpt>
      <trkpt lat="43.33279" lon="5.24276">
        <ele>23</ele>
        <time>2013-01-11T10:30:18.000Z</time>
      </trkpt>
      <trkpt lat="43.33282" lon="5.24284">
        <ele>22</ele>
        <time>2013-01-11T10:30:26.000Z</time>
      </trkpt>
      <trkpt lat="43.33282" lon="5.24296">
        <ele>21</ele>
        <time>2013-01-11T10:30:47.000Z</time>
      </trkpt>
      <trkpt lat="43.33283" lon="5.24304">
        <ele>21</ele>
        <time>2013-01-11T10:30:57.000Z</time>
      </trkpt>
      <trkpt lat="43.33286" lon="5.2431">
        <ele>23</ele>
        <time>2013-01-11T10:31:06.000Z</time>
      </trkpt>
      <trkpt lat="43.33288" lon="5.24318">
        <ele>24</ele>
        <time>2013-01-11T10:31:15.000Z</time>
      </trkpt>
      <trkpt lat="43.33295" lon="5.24327">
        <ele>24</ele>
        <time>2013-01-11T10:31:28.000Z</time>
      </trkpt>
      <trkpt lat="43.33298" lon="5.24333">
        <ele>23</ele>
        <time>2013-01-11T10:31:36.000Z</time>
      </trkpt>
      <trkpt lat="43.33305" lon="5.24341">
        <ele>21</ele>
        <time>2013-01-11T10:31:54.000Z</time>
      </trkpt>
      <trkpt lat="43.33307" lon="5.24349">
        <ele>21</ele>
        <time>2013-01-11T10:32:02.000Z</time>
      </trkpt>
      <trkpt lat="43.33309" lon="5.2436">
        <ele>21</ele>
        <time>2013-01-11T10:32:12.000Z</time>
      </trkpt>
      <trkpt lat="43.3331" lon="5.24368">
        <ele>20</ele>
        <time>2013-01-11T10:32:21.000Z</time>
      </trkpt>
      <trkpt lat="43.33313" lon="5.24374">
        <ele>19</ele>
        <time>2013-01-11T10:32:28.000Z</time>
      </trkpt>
      <trkpt lat="43.3332" lon="5.24384">
        <ele>19</ele>
        <time>2013-01-11T10:32:38.000Z</time>
      </trkpt>
      <trkpt lat="43.33327" lon="5.24397">
        <ele>20</ele>
        <time>2013-01-11T10:32:53.000Z</time>
      </trkpt>
      <trkpt lat="43.33332" lon="5.24415">
        <ele>23</ele>
        <time>2013-01-11T10:33:14.000Z</time>
      </trkpt>
      <trkpt lat="43.33335" lon="5.24425">
        <ele>26</ele>
        <time>2013-01-11T10:33:29.000Z</time>
      </trkpt>
      <trkpt lat="43.33341" lon="5.24433">
        <ele>28</ele>
        <time>2013-01-11T10:33:45.000Z</time>
      </trkpt>
      <trkpt lat="43.33345" lon="5.24439">
        <ele>29</ele>
        <time>2013-01-11T10:33:57.000Z</time>
      </trkpt>
      <trkpt lat="43.33351" lon="5.24443">
        <ele>31</ele>
        <time>2013-01-11T10:34:07.000Z</time>
      </trkpt>
      <trkpt lat="43.33356" lon="5.24445">
        <ele>32</ele>
        <time>2013-01-11T10:34:22.000Z</time>
      </trkpt>
      <trkpt lat="43.33362" lon="5.24446">
        <ele>33</ele>
        <time>2013-01-11T10:34:35.000Z</time>
      </trkpt>
      <trkpt lat="43.33365" lon="5.2444">
        <ele>34</ele>
        <time>2013-01-11T10:34:45.000Z</time>
      </trkpt>
      <trkpt lat="43.33386" lon="5.24441">
        <ele>36</ele>
        <time>2013-01-11T10:35:17.000Z</time>
      </trkpt>
      <trkpt lat="43.33393" lon="5.24447">
        <ele>37</ele>
        <time>2013-01-11T10:35:28.000Z</time>
      </trkpt>
      <trkpt lat="43.33394" lon="5.2445">
        <ele>41</ele>
        <time>2013-01-11T10:37:40.000Z</time>
      </trkpt>
      <trkpt lat="43.33395" lon="5.2445">
        <ele>44</ele>
        <time>2013-01-11T10:40:24.000Z</time>
      </trkpt>
      <trkpt lat="43.33397" lon="5.24458">
        <ele>44</ele>
        <time>2013-01-11T10:40:31.000Z</time>
      </trkpt>
      <trkpt lat="43.33395" lon="5.24466">
        <ele>43</ele>
        <time>2013-01-11T10:40:38.000Z</time>
      </trkpt>
      <trkpt lat="43.33394" lon="5.24473">
        <ele>43</ele>
        <time>2013-01-11T10:40:50.000Z</time>
      </trkpt>
      <trkpt lat="43.33389" lon="5.2448">
        <ele>49</ele>
        <time>2013-01-11T10:41:44.000Z</time>
      </trkpt>
      <trkpt lat="43.33387" lon="5.24487">
        <ele>47</ele>
        <time>2013-01-11T10:42:07.000Z</time>
      </trkpt>
      <trkpt lat="43.33388" lon="5.24495">
        <ele>46</ele>
        <time>2013-01-11T10:42:21.000Z</time>
      </trkpt>
      <trkpt lat="43.33389" lon="5.24502">
        <ele>45</ele>
        <time>2013-01-11T10:42:33.000Z</time>
      </trkpt>
      <trkpt lat="43.3339" lon="5.24509">
        <ele>42</ele>
        <time>2013-01-11T10:42:57.000Z</time>
      </trkpt>
      <trkpt lat="43.33388" lon="5.24512">
        <ele>37</ele>
        <time>2013-01-11T10:43:23.000Z</time>
      </trkpt>
      <trkpt lat="43.33385" lon="5.24519">
        <ele>33</ele>
        <time>2013-01-11T10:43:58.000Z</time>
      </trkpt>
      <trkpt lat="43.33388" lon="5.2453">
        <ele>32</ele>
        <time>2013-01-11T10:44:14.000Z</time>
      </trkpt>
      <trkpt lat="43.33389" lon="5.24539">
        <ele>32</ele>
        <time>2013-01-11T10:44:21.000Z</time>
      </trkpt>
      <trkpt lat="43.33397" lon="5.24546">
        <ele>32</ele>
        <time>2013-01-11T10:44:30.000Z</time>
      </trkpt>
      <trkpt lat="43.33403" lon="5.24548">
        <ele>33</ele>
        <time>2013-01-11T10:44:37.000Z</time>
      </trkpt>
      <trkpt lat="43.33408" lon="5.24539">
        <ele>45</ele>
        <time>2013-01-11T10:45:45.000Z</time>
      </trkpt>
      <trkpt lat="43.33415" lon="5.2454">
        <ele>44</ele>
        <time>2013-01-11T10:45:52.000Z</time>
      </trkpt>
      <trkpt lat="43.33426" lon="5.24536">
        <ele>52</ele>
        <time>2013-01-11T10:46:22.000Z</time>
      </trkpt>
      <trkpt lat="43.33432" lon="5.24535">
        <ele>60</ele>
        <time>2013-01-11T10:46:32.000Z</time>
      </trkpt>
      <trkpt lat="43.33436" lon="5.24534">
        <ele>57</ele>
        <time>2013-01-11T10:46:47.000Z</time>
      </trkpt>
      <trkpt lat="43.3344" lon="5.24544">
        <ele>47</ele>
        <time>2013-01-11T10:47:05.000Z</time>
      </trkpt>
      <trkpt lat="43.33443" lon="5.24552">
        <ele>43</ele>
        <time>2013-01-11T10:47:13.000Z</time>
      </trkpt>
      <trkpt lat="43.33444" lon="5.2456">
        <ele>41</ele>
        <time>2013-01-11T10:47:19.000Z</time>
      </trkpt>
      <trkpt lat="43.33446" lon="5.24568">
        <ele>40</ele>
        <time>2013-01-11T10:47:25.000Z</time>
      </trkpt>
      <trkpt lat="43.33445" lon="5.2458">
        <ele>41</ele>
        <time>2013-01-11T10:47:34.000Z</time>
      </trkpt>
      <trkpt lat="43.33446" lon="5.24586">
        <ele>40</ele>
        <time>2013-01-11T10:48:05.000Z</time>
      </trkpt>
      <trkpt lat="43.33445" lon="5.24593">
        <ele>41</ele>
        <time>2013-01-11T10:48:27.000Z</time>
      </trkpt>
      <trkpt lat="43.33439" lon="5.24593">
        <ele>40</ele>
        <time>2013-01-11T10:48:52.000Z</time>
      </trkpt>
      <trkpt lat="43.33432" lon="5.24568">
        <ele>72</ele>
        <time>2013-01-11T10:49:15.000Z</time>
      </trkpt>
      <trkpt lat="43.33429" lon="5.24559">
        <ele>95</ele>
        <time>2013-01-11T10:49:37.000Z</time>
      </trkpt>
      <trkpt lat="43.33419" lon="5.24571">
        <ele>86</ele>
        <time>2013-01-11T10:49:48.000Z</time>
      </trkpt>
      <trkpt lat="43.33413" lon="5.24577">
        <ele>78</ele>
        <time>2013-01-11T10:49:52.000Z</time>
      </trkpt>
      <trkpt lat="43.33407" lon="5.24593">
        <ele>52</ele>
        <time>2013-01-11T10:50:08.000Z</time>
      </trkpt>
      <trkpt lat="43.33405" lon="5.24602">
        <ele>49</ele>
        <time>2013-01-11T10:50:13.000Z</time>
      </trkpt>
      <trkpt lat="43.33403" lon="5.24618">
        <ele>47</ele>
        <time>2013-01-11T10:50:30.000Z</time>
      </trkpt>
      <trkpt lat="43.334" lon="5.24625">
        <ele>47</ele>
        <time>2013-01-11T10:50:36.000Z</time>
      </trkpt>
      <trkpt lat="43.33404" lon="5.24635">
        <ele>46</ele>
        <time>2013-01-11T10:50:53.000Z</time>
      </trkpt>
      <trkpt lat="43.33407" lon="5.24649">
        <ele>44</ele>
        <time>2013-01-11T10:51:02.000Z</time>
      </trkpt>
      <trkpt lat="43.33409" lon="5.24656">
        <ele>44</ele>
        <time>2013-01-11T10:51:09.000Z</time>
      </trkpt>
      <trkpt lat="43.3342" lon="5.24686">
        <ele>47</ele>
        <time>2013-01-11T10:51:36.000Z</time>
      </trkpt>
      <trkpt lat="43.33422" lon="5.24693">
        <ele>47</ele>
        <time>2013-01-11T10:51:43.000Z</time>
      </trkpt>
      <trkpt lat="43.33426" lon="5.24701">
        <ele>47</ele>
        <time>2013-01-11T10:51:49.000Z</time>
      </trkpt>
      <trkpt lat="43.33432" lon="5.2471">
        <ele>44</ele>
        <time>2013-01-11T10:52:07.000Z</time>
      </trkpt>
      <trkpt lat="43.33438" lon="5.24712">
        <ele>42</ele>
        <time>2013-01-11T10:52:41.000Z</time>
      </trkpt>
      <trkpt lat="43.3345" lon="5.24727">
        <ele>44</ele>
        <time>2013-01-11T10:53:45.000Z</time>
      </trkpt>
      <trkpt lat="43.33452" lon="5.24734">
        <ele>45</ele>
        <time>2013-01-11T10:54:26.000Z</time>
      </trkpt>
      <trkpt lat="43.33448" lon="5.24753">
        <ele>60</ele>
        <time>2013-01-11T10:55:22.000Z</time>
      </trkpt>
      <trkpt lat="43.33451" lon="5.2476">
        <ele>60</ele>
        <time>2013-01-11T10:55:36.000Z</time>
      </trkpt>
      <trkpt lat="43.33465" lon="5.24777">
        <ele>55</ele>
        <time>2013-01-11T10:56:08.000Z</time>
      </trkpt>
      <trkpt lat="43.33471" lon="5.24779">
        <ele>54</ele>
        <time>2013-01-11T10:56:14.000Z</time>
      </trkpt>
      <trkpt lat="43.33484" lon="5.24781">
        <ele>50</ele>
        <time>2013-01-11T10:56:25.000Z</time>
      </trkpt>
      <trkpt lat="43.33493" lon="5.24788">
        <ele>49</ele>
        <time>2013-01-11T10:56:32.000Z</time>
      </trkpt>
      <trkpt lat="43.33505" lon="5.24805">
        <ele>48</ele>
        <time>2013-01-11T10:56:49.000Z</time>
      </trkpt>
      <trkpt lat="43.33508" lon="5.24813">
        <ele>51</ele>
        <time>2013-01-11T10:57:00.000Z</time>
      </trkpt>
      <trkpt lat="43.33511" lon="5.24824">
        <ele>51</ele>
        <time>2013-01-11T10:57:15.000Z</time>
      </trkpt>
      <trkpt lat="43.33518" lon="5.2483">
        <ele>45</ele>
        <time>2013-01-11T10:57:31.000Z</time>
      </trkpt>
      <trkpt lat="43.33521" lon="5.24838">
        <ele>43</ele>
        <time>2013-01-11T10:57:35.000Z</time>
      </trkpt>
      <trkpt lat="43.33524" lon="5.24845">
        <ele>41</ele>
        <time>2013-01-11T10:57:43.000Z</time>
      </trkpt>
      <trkpt lat="43.33525" lon="5.2487">
        <ele>38</ele>
        <time>2013-01-11T10:58:10.000Z</time>
      </trkpt>
      <trkpt lat="43.33522" lon="5.24888">
        <ele>37</ele>
        <time>2013-01-11T10:58:29.000Z</time>
      </trkpt>
      <trkpt lat="43.33525" lon="5.24895">
        <ele>37</ele>
        <time>2013-01-11T10:58:37.000Z</time>
      </trkpt>
      <trkpt lat="43.33531" lon="5.24903">
        <ele>35</ele>
        <time>2013-01-11T10:58:53.000Z</time>
      </trkpt>
      <trkpt lat="43.33538" lon="5.24908">
        <ele>29</ele>
        <time>2013-01-11T10:59:18.000Z</time>
      </trkpt>
      <trkpt lat="43.33543" lon="5.24914">
        <ele>28</ele>
        <time>2013-01-11T10:59:26.000Z</time>
      </trkpt>
      <trkpt lat="43.33548" lon="5.24922">
        <ele>27</ele>
        <time>2013-01-11T10:59:34.000Z</time>
      </trkpt>
      <trkpt lat="43.33549" lon="5.24934">
        <ele>28</ele>
        <time>2013-01-11T10:59:48.000Z</time>
      </trkpt>
      <trkpt lat="43.33545" lon="5.2494">
        <ele>31</ele>
        <time>2013-01-11T11:00:01.000Z</time>
      </trkpt>
      <trkpt lat="43.33545" lon="5.24948">
        <ele>28</ele>
        <time>2013-01-11T11:00:15.000Z</time>
      </trkpt>
      <trkpt lat="43.33548" lon="5.24954">
        <ele>15</ele>
        <time>2013-01-11T11:00:36.000Z</time>
      </trkpt>
      <trkpt lat="43.33544" lon="5.2497">
        <ele>17</ele>
        <time>2013-01-11T11:01:15.000Z</time>
      </trkpt>
      <trkpt lat="43.33548" lon="5.24975">
        <ele>18</ele>
        <time>2013-01-11T11:01:35.000Z</time>
      </trkpt>
      <trkpt lat="43.33553" lon="5.2498">
        <ele>20</ele>
        <time>2013-01-11T11:01:45.000Z</time>
      </trkpt>
      <trkpt lat="43.33551" lon="5.24987">
        <ele>24</ele>
        <time>2013-01-11T11:02:00.000Z</time>
      </trkpt>
      <trkpt lat="43.33553" lon="5.24994">
        <ele>25</ele>
        <time>2013-01-11T11:02:12.000Z</time>
      </trkpt>
      <trkpt lat="43.33553" lon="5.25001">
        <ele>25</ele>
        <time>2013-01-11T11:02:20.000Z</time>
      </trkpt>
      <trkpt lat="43.33553" lon="5.25009">
        <ele>30</ele>
        <time>2013-01-11T11:02:45.000Z</time>
      </trkpt>
      <trkpt lat="43.33551" lon="5.2502">
        <ele>29</ele>
        <time>2013-01-11T11:03:01.000Z</time>
      </trkpt>
      <trkpt lat="43.33558" lon="5.25043">
        <ele>28</ele>
        <time>2013-01-11T11:03:18.000Z</time>
      </trkpt>
      <trkpt lat="43.33561" lon="5.25055">
        <ele>29</ele>
        <time>2013-01-11T11:03:28.000Z</time>
      </trkpt>
      <trkpt lat="43.33564" lon="5.25067">
        <ele>29</ele>
        <time>2013-01-11T11:03:36.000Z</time>
      </trkpt>
      <trkpt lat="43.33578" lon="5.25083">
        <ele>23</ele>
        <time>2013-01-11T11:04:10.000Z</time>
      </trkpt>
      <trkpt lat="43.33578" lon="5.25092">
        <ele>22</ele>
        <time>2013-01-11T11:04:18.000Z</time>
      </trkpt>
      <trkpt lat="43.33579" lon="5.25101">
        <ele>21</ele>
        <time>2013-01-11T11:04:34.000Z</time>
      </trkpt>
      <trkpt lat="43.33581" lon="5.25108">
        <ele>20</ele>
        <time>2013-01-11T11:04:38.000Z</time>
      </trkpt>
      <trkpt lat="43.33592" lon="5.25129">
        <ele>20</ele>
        <time>2013-01-11T11:04:57.000Z</time>
      </trkpt>
      <trkpt lat="43.33591" lon="5.25137">
        <ele>21</ele>
        <time>2013-01-11T11:05:04.000Z</time>
      </trkpt>
      <trkpt lat="43.33593" lon="5.25144">
        <ele>22</ele>
        <time>2013-01-11T11:05:11.000Z</time>
      </trkpt>
      <trkpt lat="43.33596" lon="5.25154">
        <ele>23</ele>
        <time>2013-01-11T11:05:20.000Z</time>
      </trkpt>
      <trkpt lat="43.336" lon="5.25161">
        <ele>23</ele>
        <time>2013-01-11T11:05:29.000Z</time>
      </trkpt>
      <trkpt lat="43.33605" lon="5.25165">
        <ele>21</ele>
        <time>2013-01-11T11:05:48.000Z</time>
      </trkpt>
      <trkpt lat="43.33613" lon="5.25165">
        <ele>16</ele>
        <time>2013-01-11T11:06:52.000Z</time>
      </trkpt>
      <trkpt lat="43.33619" lon="5.25169">
        <ele>16</ele>
        <time>2013-01-11T11:07:00.000Z</time>
      </trkpt>
      <trkpt lat="43.33624" lon="5.25174">
        <ele>15</ele>
        <time>2013-01-11T11:07:11.000Z</time>
      </trkpt>
      <trkpt lat="43.33632" lon="5.2519">
        <ele>17</ele>
        <time>2013-01-11T11:07:27.000Z</time>
      </trkpt>
      <trkpt lat="43.33635" lon="5.25198">
        <ele>17</ele>
        <time>2013-01-11T11:07:34.000Z</time>
      </trkpt>
      <trkpt lat="43.33638" lon="5.25205">
        <ele>19</ele>
        <time>2013-01-11T11:07:42.000Z</time>
      </trkpt>
      <trkpt lat="43.33642" lon="5.25216">
        <ele>20</ele>
        <time>2013-01-11T11:07:57.000Z</time>
      </trkpt>
      <trkpt lat="43.33646" lon="5.25231">
        <ele>21</ele>
        <time>2013-01-11T11:08:15.000Z</time>
      </trkpt>
      <trkpt lat="43.33649" lon="5.25238">
        <ele>20</ele>
        <time>2013-01-11T11:08:25.000Z</time>
      </trkpt>
      <trkpt lat="43.33655" lon="5.25252">
        <ele>25</ele>
        <time>2013-01-11T11:08:44.000Z</time>
      </trkpt>
      <trkpt lat="43.33666" lon="5.25268">
        <ele>23</ele>
        <time>2013-01-11T11:09:04.000Z</time>
      </trkpt>
      <trkpt lat="43.33675" lon="5.25267">
        <ele>20</ele>
        <time>2013-01-11T11:09:13.000Z</time>
      </trkpt>
      <trkpt lat="43.33683" lon="5.2526">
        <ele>16</ele>
        <time>2013-01-11T11:09:22.000Z</time>
      </trkpt>
      <trkpt lat="43.33691" lon="5.25252">
        <ele>14</ele>
        <time>2013-01-11T11:09:31.000Z</time>
      </trkpt>
      <trkpt lat="43.33696" lon="5.25253">
        <ele>16</ele>
        <time>2013-01-11T11:09:40.000Z</time>
      </trkpt>
      <trkpt lat="43.33702" lon="5.25249">
        <ele>16</ele>
        <time>2013-01-11T11:09:59.000Z</time>
      </trkpt>
      <trkpt lat="43.3371" lon="5.25248">
        <ele>16</ele>
        <time>2013-01-11T11:10:09.000Z</time>
      </trkpt>
      <trkpt lat="43.33719" lon="5.25247">
        <ele>16</ele>
        <time>2013-01-11T11:10:18.000Z</time>
      </trkpt>
      <trkpt lat="43.33732" lon="5.25246">
        <ele>23</ele>
        <time>2013-01-11T11:10:45.000Z</time>
      </trkpt>
      <trkpt lat="43.33738" lon="5.25246">
        <ele>23</ele>
        <time>2013-01-11T11:10:50.000Z</time>
      </trkpt>
      <trkpt lat="43.33746" lon="5.25248">
        <ele>23</ele>
        <time>2013-01-11T11:11:10.000Z</time>
      </trkpt>
      <trkpt lat="43.33754" lon="5.25253">
        <ele>24</ele>
        <time>2013-01-11T11:11:21.000Z</time>
      </trkpt>
      <trkpt lat="43.33758" lon="5.25257">
        <ele>26</ele>
        <time>2013-01-11T11:11:32.000Z</time>
      </trkpt>
      <trkpt lat="43.33764" lon="5.25262">
        <ele>28</ele>
        <time>2013-01-11T11:11:42.000Z</time>
      </trkpt>
      <trkpt lat="43.33772" lon="5.25266">
        <ele>30</ele>
        <time>2013-01-11T11:12:00.000Z</time>
      </trkpt>
      <trkpt lat="43.33778" lon="5.25263">
        <ele>31</ele>
        <time>2013-01-11T11:12:08.000Z</time>
      </trkpt>
      <trkpt lat="43.33783" lon="5.25259">
        <ele>31</ele>
        <time>2013-01-11T11:12:30.000Z</time>
      </trkpt>
      <trkpt lat="43.33791" lon="5.25257">
        <ele>26</ele>
        <time>2013-01-11T11:13:00.000Z</time>
      </trkpt>
      <trkpt lat="43.33796" lon="5.25253">
        <ele>23</ele>
        <time>2013-01-11T11:13:14.000Z</time>
      </trkpt>
      <trkpt lat="43.33802" lon="5.25252">
        <ele>23</ele>
        <time>2013-01-11T11:13:23.000Z</time>
      </trkpt>
      <trkpt lat="43.33807" lon="5.25256">
        <ele>21</ele>
        <time>2013-01-11T11:13:39.000Z</time>
      </trkpt>
      <trkpt lat="43.33812" lon="5.25257">
        <ele>20</ele>
        <time>2013-01-11T11:13:51.000Z</time>
      </trkpt>
      <trkpt lat="43.33817" lon="5.25265">
        <ele>20</ele>
        <time>2013-01-11T11:14:02.000Z</time>
      </trkpt>
      <trkpt lat="43.33815" lon="5.25273">
        <ele>20</ele>
        <time>2013-01-11T11:14:07.000Z</time>
      </trkpt>
      <trkpt lat="43.33815" lon="5.25282">
        <ele>28</ele>
        <time>2013-01-11T11:14:34.000Z</time>
      </trkpt>
      <trkpt lat="43.33807" lon="5.25288">
        <ele>32</ele>
        <time>2013-01-11T11:14:43.000Z</time>
      </trkpt>
      <trkpt lat="43.33806" lon="5.25296">
        <ele>33</ele>
        <time>2013-01-11T11:14:50.000Z</time>
      </trkpt>
      <trkpt lat="43.33807" lon="5.25304">
        <ele>31</ele>
        <time>2013-01-11T11:15:08.000Z</time>
      </trkpt>
      <trkpt lat="43.33806" lon="5.25316">
        <ele>31</ele>
        <time>2013-01-11T11:15:17.000Z</time>
      </trkpt>
      <trkpt lat="43.33797" lon="5.25337">
        <ele>39</ele>
        <time>2013-01-11T11:15:38.000Z</time>
      </trkpt>
      <trkpt lat="43.33794" lon="5.25343">
        <ele>39</ele>
        <time>2013-01-11T11:15:48.000Z</time>
      </trkpt>
      <trkpt lat="43.33789" lon="5.25344">
        <ele>39</ele>
        <time>2013-01-11T11:16:01.000Z</time>
      </trkpt>
      <trkpt lat="43.33795" lon="5.25347">
        <ele>29</ele>
        <time>2013-01-11T11:16:12.000Z</time>
      </trkpt>
      <trkpt lat="43.33797" lon="5.25354">
        <ele>28</ele>
        <time>2013-01-11T11:16:17.000Z</time>
      </trkpt>
      <trkpt lat="43.33796" lon="5.25369">
        <ele>31</ele>
        <time>2013-01-11T11:16:26.000Z</time>
      </trkpt>
      <trkpt lat="43.33799" lon="5.25377">
        <ele>33</ele>
        <time>2013-01-11T11:16:32.000Z</time>
      </trkpt>
      <trkpt lat="43.3382" lon="5.25408">
        <ele>37</ele>
        <time>2013-01-11T11:17:04.000Z</time>
      </trkpt>
      <trkpt lat="43.33857" lon="5.25445">
        <ele>37</ele>
        <time>2013-01-11T11:17:46.000Z</time>
      </trkpt>
      <trkpt lat="43.33858" lon="5.25446">
        <ele>37</ele>
        <time>2013-01-11T11:17:47.000Z</time>
      </trkpt>
      <trkpt lat="43.3386" lon="5.25449">
        <ele>37</ele>
        <time>2013-01-11T11:17:52.000Z</time>
      </trkpt>
      <trkpt lat="43.33865" lon="5.25454">
        <ele>37</ele>
        <time>2013-01-11T11:17:58.000Z</time>
      </trkpt>
      <trkpt lat="43.33873" lon="5.25462">
        <ele>37</ele>
        <time>2013-01-11T11:18:07.000Z</time>
      </trkpt>
      <trkpt lat="43.33887" lon="5.2548">
        <ele>38</ele>
        <time>2013-01-11T11:18:30.000Z</time>
      </trkpt>
      <trkpt lat="43.33908" lon="5.25505">
        <ele>36</ele>
        <time>2013-01-11T11:18:59.000Z</time>
      </trkpt>
      <trkpt lat="43.3394" lon="5.2555">
        <ele>35</ele>
        <time>2013-01-11T11:19:41.000Z</time>
      </trkpt>
      <trkpt lat="43.33941" lon="5.25551">
        <ele>35</ele>
        <time>2013-01-11T11:19:42.000Z</time>
      </trkpt>
      <trkpt lat="43.33964" lon="5.25585">
        <ele>35</ele>
        <time>2013-01-11T11:20:14.000Z</time>
      </trkpt>
      <trkpt lat="43.33969" lon="5.25601">
        <ele>36</ele>
        <time>2013-01-11T11:20:26.000Z</time>
      </trkpt>
      <trkpt lat="43.33971" lon="5.25612">
        <ele>37</ele>
        <time>2013-01-11T11:20:36.000Z</time>
      </trkpt>
      <trkpt lat="43.33967" lon="5.25622">
        <ele>29</ele>
        <time>2013-01-11T11:20:48.000Z</time>
      </trkpt>
      <trkpt lat="43.33958" lon="5.25631">
        <ele>29</ele>
        <time>2013-01-11T11:20:54.000Z</time>
      </trkpt>
      <trkpt lat="43.33946" lon="5.25642">
        <ele>31</ele>
        <time>2013-01-11T11:21:06.000Z</time>
      </trkpt>
      <trkpt lat="43.33944" lon="5.25656">
        <ele>32</ele>
        <time>2013-01-11T11:21:16.000Z</time>
      </trkpt>
      <trkpt lat="43.33947" lon="5.25668">
        <ele>33</ele>
        <time>2013-01-11T11:21:29.000Z</time>
      </trkpt>
      <trkpt lat="43.33952" lon="5.25681">
        <ele>29</ele>
        <time>2013-01-11T11:21:42.000Z</time>
      </trkpt>
      <trkpt lat="43.33961" lon="5.25699">
        <ele>28</ele>
        <time>2013-01-11T11:21:59.000Z</time>
      </trkpt>
      <trkpt lat="43.33963" lon="5.25706">
        <ele>27</ele>
        <time>2013-01-11T11:22:05.000Z</time>
      </trkpt>
      <trkpt lat="43.33971" lon="5.25719">
        <ele>22</ele>
        <time>2013-01-11T11:22:26.000Z</time>
      </trkpt>
      <trkpt lat="43.33974" lon="5.25726">
        <ele>22</ele>
        <time>2013-01-11T11:22:34.000Z</time>
      </trkpt>
      <trkpt lat="43.33978" lon="5.25732">
        <ele>22</ele>
        <time>2013-01-11T11:22:40.000Z</time>
      </trkpt>
      <trkpt lat="43.33982" lon="5.25746">
        <ele>25</ele>
        <time>2013-01-11T11:22:52.000Z</time>
      </trkpt>
      <trkpt lat="43.33977" lon="5.25761">
        <ele>28</ele>
        <time>2013-01-11T11:23:04.000Z</time>
      </trkpt>
      <trkpt lat="43.33973" lon="5.25771">
        <ele>31</ele>
        <time>2013-01-11T11:23:21.000Z</time>
      </trkpt>
      <trkpt lat="43.3397" lon="5.25792">
        <ele>35</ele>
        <time>2013-01-11T11:23:36.000Z</time>
      </trkpt>
      <trkpt lat="43.33976" lon="5.25805">
        <ele>36</ele>
        <time>2013-01-11T11:23:48.000Z</time>
      </trkpt>
      <trkpt lat="43.33981" lon="5.2581">
        <ele>34</ele>
        <time>2013-01-11T11:23:54.000Z</time>
      </trkpt>
      <trkpt lat="43.33989" lon="5.25814">
        <ele>23</ele>
        <time>2013-01-11T11:24:29.000Z</time>
      </trkpt>
      <trkpt lat="43.33999" lon="5.2583">
        <ele>21</ele>
        <time>2013-01-11T11:24:43.000Z</time>
      </trkpt>
      <trkpt lat="43.34" lon="5.25846">
        <ele>21</ele>
        <time>2013-01-11T11:25:02.000Z</time>
      </trkpt>
      <trkpt lat="43.33997" lon="5.25853">
        <ele>18</ele>
        <time>2013-01-11T11:25:13.000Z</time>
      </trkpt>
      <trkpt lat="43.33992" lon="5.25859">
        <ele>17</ele>
        <time>2013-01-11T11:25:19.000Z</time>
      </trkpt>
      <trkpt lat="43.33993" lon="5.25869">
        <ele>17</ele>
        <time>2013-01-11T11:25:25.000Z</time>
      </trkpt>
      <trkpt lat="43.34" lon="5.25891">
        <ele>20</ele>
        <time>2013-01-11T11:25:51.000Z</time>
      </trkpt>
      <trkpt lat="43.34003" lon="5.25906">
        <ele>24</ele>
        <time>2013-01-11T11:26:16.000Z</time>
      </trkpt>
      <trkpt lat="43.34004" lon="5.25913">
        <ele>25</ele>
        <time>2013-01-11T11:26:28.000Z</time>
      </trkpt>
      <trkpt lat="43.3401" lon="5.25919">
        <ele>25</ele>
        <time>2013-01-11T11:26:35.000Z</time>
      </trkpt>
      <trkpt lat="43.34018" lon="5.2593">
        <ele>24</ele>
        <time>2013-01-11T11:26:54.000Z</time>
      </trkpt>
      <trkpt lat="43.34023" lon="5.25935">
        <ele>27</ele>
        <time>2013-01-11T11:27:03.000Z</time>
      </trkpt>
      <trkpt lat="43.34031" lon="5.25947">
        <ele>32</ele>
        <time>2013-01-11T11:27:19.000Z</time>
      </trkpt>
      <trkpt lat="43.34037" lon="5.25957">
        <ele>31</ele>
        <time>2013-01-11T11:27:28.000Z</time>
      </trkpt>
      <trkpt lat="43.34045" lon="5.25969">
        <ele>31</ele>
        <time>2013-01-11T11:27:40.000Z</time>
      </trkpt>
      <trkpt lat="43.34053" lon="5.25992">
        <ele>31</ele>
        <time>2013-01-11T11:28:34.000Z</time>
      </trkpt>
      <trkpt lat="43.34055" lon="5.26006">
        <ele>30</ele>
        <time>2013-01-11T11:28:46.000Z</time>
      </trkpt>
      <trkpt lat="43.34054" lon="5.26013">
        <ele>29</ele>
        <time>2013-01-11T11:28:52.000Z</time>
      </trkpt>
      <trkpt lat="43.34055" lon="5.26021">
        <ele>26</ele>
        <time>2013-01-11T11:28:59.000Z</time>
      </trkpt>
      <trkpt lat="43.34057" lon="5.26033">
        <ele>22</ele>
        <time>2013-01-11T11:29:17.000Z</time>
      </trkpt>
      <trkpt lat="43.34058" lon="5.26041">
        <ele>20</ele>
        <time>2013-01-11T11:29:47.000Z</time>
      </trkpt>
      <trkpt lat="43.34053" lon="5.26042">
        <ele>19</ele>
        <time>2013-01-11T11:29:59.000Z</time>
      </trkpt>
      <trkpt lat="43.34039" lon="5.26047">
        <ele>13</ele>
        <time>2013-01-11T11:30:34.000Z</time>
      </trkpt>
      <trkpt lat="43.34029" lon="5.26054">
        <ele>7</ele>
        <time>2013-01-11T11:31:07.000Z</time>
      </trkpt>
      <trkpt lat="43.34033" lon="5.26061">
        <ele>5</ele>
        <time>2013-01-11T11:31:18.000Z</time>
      </trkpt>
      <trkpt lat="43.3404" lon="5.26062">
        <ele>4</ele>
        <time>2013-01-11T11:31:24.000Z</time>
      </trkpt>
      <trkpt lat="43.34046" lon="5.26067">
        <ele>5</ele>
        <time>2013-01-11T11:31:30.000Z</time>
      </trkpt>
      <trkpt lat="43.3405" lon="5.26074">
        <ele>3</ele>
        <time>2013-01-11T11:31:35.000Z</time>
      </trkpt>
      <trkpt lat="43.34058" lon="5.26082">
        <ele>3</ele>
        <time>2013-01-11T11:31:43.000Z</time>
      </trkpt>
      <trkpt lat="43.34063" lon="5.26087">
        <ele>3</ele>
        <time>2013-01-11T11:31:48.000Z</time>
      </trkpt>
      <trkpt lat="43.341" lon="5.26119">
        <ele>3.1</ele>
        <time>2013-01-11T11:33:02.000Z</time>
      </trkpt>
      <trkpt lat="43.34106" lon="5.26121">
        <ele>1</ele>
        <time>2013-01-11T11:33:13.000Z</time>
      </trkpt>
      <trkpt lat="43.34106" lon="5.26123">
        <ele>-1</ele>
        <time>2013-01-11T11:39:11.000Z</time>
      </trkpt>
      <trkpt lat="43.34108" lon="5.26122">
        <ele>-3</ele>
        <time>2013-01-11T11:43:03.000Z</time>
      </trkpt>
      <trkpt lat="43.34108" lon="5.26123">
        <ele>2.7</ele>
        <time>2013-01-11T11:55:42.000Z</time>
      </trkpt>
      <trkpt lat="43.34108" lon="5.2612">
        <ele>8</ele>
        <time>2013-01-11T12:01:48.000Z</time>
      </trkpt>
      <trkpt lat="43.34107" lon="5.26119">
        <ele>14</ele>
        <time>2013-01-11T12:03:06.000Z</time>
      </trkpt>
      <trkpt lat="43.34106" lon="5.26126">
        <ele>1</ele>
        <time>2013-01-11T12:05:36.000Z</time>
      </trkpt>
      <trkpt lat="43.34107" lon="5.26121">
        <ele>3</ele>
        <time>2013-01-11T12:18:12.000Z</time>
      </trkpt>
      <trkpt lat="43.34092" lon="5.26116">
        <ele>-2</ele>
        <time>2013-01-11T12:19:20.000Z</time>
      </trkpt>
      <trkpt lat="43.3409" lon="5.2611">
        <ele>4</ele>
        <time>2013-01-11T12:19:25.000Z</time>
      </trkpt>
      <trkpt lat="43.341" lon="5.26104">
        <ele>1</ele>
        <time>2013-01-11T12:19:33.000Z</time>
      </trkpt>
      <trkpt lat="43.34107" lon="5.26103">
        <ele>1</ele>
        <time>2013-01-11T12:19:38.000Z</time>
      </trkpt>
      <trkpt lat="43.34144" lon="5.26099">
        <ele>1</ele>
        <time>2013-01-11T12:20:07.000Z</time>
      </trkpt>
      <trkpt lat="43.34158" lon="5.26094">
        <ele>1</ele>
        <time>2013-01-11T12:20:19.000Z</time>
      </trkpt>
      <trkpt lat="43.34162" lon="5.26097">
        <ele>1</ele>
        <time>2013-01-11T12:20:29.000Z</time>
      </trkpt>
      <trkpt lat="43.34167" lon="5.261">
        <ele>2.8</ele>
        <time>2013-01-11T12:20:38.000Z</time>
      </trkpt>
      <trkpt lat="43.34176" lon="5.26095">
        <ele>2.6</ele>
        <time>2013-01-11T12:20:48.000Z</time>
      </trkpt>
      <trkpt lat="43.34187" lon="5.26087">
        <ele>2.4</ele>
        <time>2013-01-11T12:21:03.000Z</time>
      </trkpt>
      <trkpt lat="43.34189" lon="5.26079">
        <ele>2.9</ele>
        <time>2013-01-11T12:21:10.000Z</time>
      </trkpt>
      <trkpt lat="43.34189" lon="5.2607">
        <ele>2</ele>
        <time>2013-01-11T12:21:24.000Z</time>
      </trkpt>
      <trkpt lat="43.34193" lon="5.26064">
        <ele>3</ele>
        <time>2013-01-11T12:21:31.000Z</time>
      </trkpt>
      <trkpt lat="43.34197" lon="5.2606">
        <ele>3</ele>
        <time>2013-01-11T12:21:35.000Z</time>
      </trkpt>
      <trkpt lat="43.34212" lon="5.26043">
        <ele>6</ele>
        <time>2013-01-11T12:21:53.000Z</time>
      </trkpt>
      <trkpt lat="43.34232" lon="5.26021">
        <ele>7</ele>
        <time>2013-01-11T12:22:14.000Z</time>
      </trkpt>
      <trkpt lat="43.34246" lon="5.26008">
        <ele>7</ele>
        <time>2013-01-11T12:22:29.000Z</time>
      </trkpt>
      <trkpt lat="43.34252" lon="5.26003">
        <ele>7</ele>
        <time>2013-01-11T12:22:35.000Z</time>
      </trkpt>
      <trkpt lat="43.34267" lon="5.25993">
        <ele>7</ele>
        <time>2013-01-11T12:22:50.000Z</time>
      </trkpt>
      <trkpt lat="43.34271" lon="5.25999">
        <ele>6</ele>
        <time>2013-01-11T12:22:56.000Z</time>
      </trkpt>
      <trkpt lat="43.34276" lon="5.26012">
        <ele>4</ele>
        <time>2013-01-11T12:23:08.000Z</time>
      </trkpt>
      <trkpt lat="43.34276" lon="5.26025">
        <ele>4</ele>
        <time>2013-01-11T12:23:19.000Z</time>
      </trkpt>
      <trkpt lat="43.3427" lon="5.26055">
        <ele>8</ele>
        <time>2013-01-11T12:23:55.000Z</time>
      </trkpt>
      <trkpt lat="43.3427" lon="5.26063">
        <ele>9</ele>
        <time>2013-01-11T12:24:00.000Z</time>
      </trkpt>
      <trkpt lat="43.34256" lon="5.26077">
        <ele>13</ele>
        <time>2013-01-11T12:24:26.000Z</time>
      </trkpt>
      <trkpt lat="43.34253" lon="5.26083">
        <ele>15</ele>
        <time>2013-01-11T12:24:35.000Z</time>
      </trkpt>
      <trkpt lat="43.34243" lon="5.26095">
        <ele>16</ele>
        <time>2013-01-11T12:24:55.000Z</time>
      </trkpt>
      <trkpt lat="43.34244" lon="5.26103">
        <ele>16</ele>
        <time>2013-01-11T12:25:01.000Z</time>
      </trkpt>
      <trkpt lat="43.34244" lon="5.26112">
        <ele>15</ele>
        <time>2013-01-11T12:25:12.000Z</time>
      </trkpt>
      <trkpt lat="43.34239" lon="5.26117">
        <ele>17</ele>
        <time>2013-01-11T12:25:20.000Z</time>
      </trkpt>
      <trkpt lat="43.34239" lon="5.26126">
        <ele>18</ele>
        <time>2013-01-11T12:25:28.000Z</time>
      </trkpt>
      <trkpt lat="43.34239" lon="5.26134">
        <ele>21</ele>
        <time>2013-01-11T12:25:38.000Z</time>
      </trkpt>
      <trkpt lat="43.34241" lon="5.26141">
        <ele>23</ele>
        <time>2013-01-11T12:25:44.000Z</time>
      </trkpt>
      <trkpt lat="43.34242" lon="5.26149">
        <ele>24</ele>
        <time>2013-01-11T12:25:52.000Z</time>
      </trkpt>
      <trkpt lat="43.34245" lon="5.2616">
        <ele>28</ele>
        <time>2013-01-11T12:26:01.000Z</time>
      </trkpt>
      <trkpt lat="43.34247" lon="5.2618">
        <ele>33</ele>
        <time>2013-01-11T12:26:19.000Z</time>
      </trkpt>
      <trkpt lat="43.34245" lon="5.2619">
        <ele>39</ele>
        <time>2013-01-11T12:26:32.000Z</time>
      </trkpt>
      <trkpt lat="43.34251" lon="5.26217">
        <ele>24</ele>
        <time>2013-01-11T12:27:19.000Z</time>
      </trkpt>
      <trkpt lat="43.34246" lon="5.26223">
        <ele>23</ele>
        <time>2013-01-11T12:27:27.000Z</time>
      </trkpt>
      <trkpt lat="43.3424" lon="5.26225">
        <ele>24</ele>
        <time>2013-01-11T12:27:33.000Z</time>
      </trkpt>
      <trkpt lat="43.34236" lon="5.2623">
        <ele>24</ele>
        <time>2013-01-11T12:27:39.000Z</time>
      </trkpt>
      <trkpt lat="43.34233" lon="5.26238">
        <ele>23</ele>
        <time>2013-01-11T12:27:46.000Z</time>
      </trkpt>
      <trkpt lat="43.3423" lon="5.26244">
        <ele>22</ele>
        <time>2013-01-11T12:27:54.000Z</time>
      </trkpt>
      <trkpt lat="43.34226" lon="5.26249">
        <ele>21</ele>
        <time>2013-01-11T12:28:07.000Z</time>
      </trkpt>
      <trkpt lat="43.34222" lon="5.26249">
        <ele>24</ele>
        <time>2013-01-11T12:28:18.000Z</time>
      </trkpt>
      <trkpt lat="43.34217" lon="5.2625">
        <ele>23</ele>
        <time>2013-01-11T12:28:43.000Z</time>
      </trkpt>
      <trkpt lat="43.34212" lon="5.26253">
        <ele>20</ele>
        <time>2013-01-11T12:28:59.000Z</time>
      </trkpt>
      <trkpt lat="43.34207" lon="5.26258">
        <ele>18</ele>
        <time>2013-01-11T12:29:09.000Z</time>
      </trkpt>
      <trkpt lat="43.34202" lon="5.26267">
        <ele>15</ele>
        <time>2013-01-11T12:29:30.000Z</time>
      </trkpt>
      <trkpt lat="43.34196" lon="5.26279">
        <ele>13</ele>
        <time>2013-01-11T12:29:50.000Z</time>
      </trkpt>
      <trkpt lat="43.34197" lon="5.26292">
        <ele>13</ele>
        <time>2013-01-11T12:30:05.000Z</time>
      </trkpt>
      <trkpt lat="43.34195" lon="5.26299">
        <ele>13</ele>
        <time>2013-01-11T12:30:13.000Z</time>
      </trkpt>
      <trkpt lat="43.34195" lon="5.26311">
        <ele>15</ele>
        <time>2013-01-11T12:30:24.000Z</time>
      </trkpt>
      <trkpt lat="43.34203" lon="5.26337">
        <ele>20</ele>
        <time>2013-01-11T12:31:12.000Z</time>
      </trkpt>
      <trkpt lat="43.34208" lon="5.26345">
        <ele>17</ele>
        <time>2013-01-11T12:33:02.000Z</time>
      </trkpt>
      <trkpt lat="43.34211" lon="5.26355">
        <ele>24</ele>
        <time>2013-01-11T12:34:37.000Z</time>
      </trkpt>
      <trkpt lat="43.34212" lon="5.26362">
        <ele>22</ele>
        <time>2013-01-11T12:35:03.000Z</time>
      </trkpt>
      <trkpt lat="43.34213" lon="5.26369">
        <ele>22</ele>
        <time>2013-01-11T12:35:52.000Z</time>
      </trkpt>
      <trkpt lat="43.34209" lon="5.26379">
        <ele>28</ele>
        <time>2013-01-11T12:36:22.000Z</time>
      </trkpt>
      <trkpt lat="43.34211" lon="5.26386">
        <ele>28</ele>
        <time>2013-01-11T12:38:45.000Z</time>
      </trkpt>
      <trkpt lat="43.34207" lon="5.26402">
        <ele>25</ele>
        <time>2013-01-11T12:38:56.000Z</time>
      </trkpt>
      <trkpt lat="43.34207" lon="5.26409">
        <ele>24</ele>
        <time>2013-01-11T12:39:01.000Z</time>
      </trkpt>
      <trkpt lat="43.34206" lon="5.2642">
        <ele>23</ele>
        <time>2013-01-11T12:39:07.000Z</time>
      </trkpt>
      <trkpt lat="43.34203" lon="5.26435">
        <ele>23</ele>
        <time>2013-01-11T12:39:16.000Z</time>
      </trkpt>
      <trkpt lat="43.34201" lon="5.26443">
        <ele>23</ele>
        <time>2013-01-11T12:39:21.000Z</time>
      </trkpt>
      <trkpt lat="43.34196" lon="5.26458">
        <ele>23</ele>
        <time>2013-01-11T12:39:30.000Z</time>
      </trkpt>
      <trkpt lat="43.34193" lon="5.26465">
        <ele>22</ele>
        <time>2013-01-11T12:39:34.000Z</time>
      </trkpt>
      <trkpt lat="43.34195" lon="5.26472">
        <ele>22</ele>
        <time>2013-01-11T12:39:38.000Z</time>
      </trkpt>
      <trkpt lat="43.34202" lon="5.2649">
        <ele>24</ele>
        <time>2013-01-11T12:39:52.000Z</time>
      </trkpt>
      <trkpt lat="43.34205" lon="5.26498">
        <ele>25</ele>
        <time>2013-01-11T12:39:57.000Z</time>
      </trkpt>
      <trkpt lat="43.34212" lon="5.26513">
        <ele>29</ele>
        <time>2013-01-11T12:40:09.000Z</time>
      </trkpt>
      <trkpt lat="43.34211" lon="5.26527">
        <ele>31</ele>
        <time>2013-01-11T12:40:18.000Z</time>
      </trkpt>
      <trkpt lat="43.34208" lon="5.2654">
        <ele>31</ele>
        <time>2013-01-11T12:40:29.000Z</time>
      </trkpt>
      <trkpt lat="43.34207" lon="5.26549">
        <ele>27</ele>
        <time>2013-01-11T12:45:15.000Z</time>
      </trkpt>
      <trkpt lat="43.34215" lon="5.26553">
        <ele>28</ele>
        <time>2013-01-11T12:45:39.000Z</time>
      </trkpt>
      <trkpt lat="43.34219" lon="5.2655">
        <ele>28</ele>
        <time>2013-01-11T12:45:53.000Z</time>
      </trkpt>
      <trkpt lat="43.34247" lon="5.26567">
        <ele>24</ele>
        <time>2013-01-11T12:47:59.000Z</time>
      </trkpt>
      <trkpt lat="43.34253" lon="5.26568">
        <ele>23</ele>
        <time>2013-01-11T12:48:08.000Z</time>
      </trkpt>
      <trkpt lat="43.34257" lon="5.26561">
        <ele>22</ele>
        <time>2013-01-11T12:48:18.000Z</time>
      </trkpt>
      <trkpt lat="43.34259" lon="5.26553">
        <ele>21</ele>
        <time>2013-01-11T12:48:25.000Z</time>
      </trkpt>
      <trkpt lat="43.34261" lon="5.26546">
        <ele>19</ele>
        <time>2013-01-11T12:48:32.000Z</time>
      </trkpt>
      <trkpt lat="43.34263" lon="5.26538">
        <ele>18</ele>
        <time>2013-01-11T12:48:39.000Z</time>
      </trkpt>
      <trkpt lat="43.34265" lon="5.26531">
        <ele>19</ele>
        <time>2013-01-11T12:48:55.000Z</time>
      </trkpt>
      <trkpt lat="43.3427" lon="5.26529">
        <ele>19</ele>
        <time>2013-01-11T12:49:04.000Z</time>
      </trkpt>
      <trkpt lat="43.34275" lon="5.26525">
        <ele>20</ele>
        <time>2013-01-11T12:49:13.000Z</time>
      </trkpt>
      <trkpt lat="43.34281" lon="5.26518">
        <ele>21</ele>
        <time>2013-01-11T12:51:34.000Z</time>
      </trkpt>
      <trkpt lat="43.34288" lon="5.26519">
        <ele>17</ele>
        <time>2013-01-11T12:52:08.000Z</time>
      </trkpt>
      <trkpt lat="43.34294" lon="5.26517">
        <ele>18</ele>
        <time>2013-01-11T12:52:21.000Z</time>
      </trkpt>
      <trkpt lat="43.34303" lon="5.26519">
        <ele>15</ele>
        <time>2013-01-11T12:52:47.000Z</time>
      </trkpt>
      <trkpt lat="43.34306" lon="5.26525">
        <ele>9</ele>
        <time>2013-01-11T12:53:28.000Z</time>
      </trkpt>
      <trkpt lat="43.34309" lon="5.26531">
        <ele>4</ele>
        <time>2013-01-11T12:54:11.000Z</time>
      </trkpt>
      <trkpt lat="43.34304" lon="5.26541">
        <ele>3</ele>
        <time>2013-01-11T12:55:37.000Z</time>
      </trkpt>
      <trkpt lat="43.34304" lon="5.26549">
        <ele>5.1</ele>
        <time>2013-01-11T12:55:53.000Z</time>
      </trkpt>
      <trkpt lat="43.34307" lon="5.26557">
        <ele>2.3</ele>
        <time>2013-01-11T12:56:34.000Z</time>
      </trkpt>
      <trkpt lat="43.34313" lon="5.2656">
        <ele>1</ele>
        <time>2013-01-11T12:56:38.000Z</time>
      </trkpt>
      <trkpt lat="43.34319" lon="5.26562">
        <ele>1</ele>
        <time>2013-01-11T12:56:44.000Z</time>
      </trkpt>
      <trkpt lat="43.34326" lon="5.26561">
        <ele>2</ele>
        <time>2013-01-11T12:56:49.000Z</time>
      </trkpt>
      <trkpt lat="43.34342" lon="5.26565">
        <ele>6</ele>
        <time>2013-01-11T12:57:04.000Z</time>
      </trkpt>
      <trkpt lat="43.34348" lon="5.26567">
        <ele>8</ele>
        <time>2013-01-11T12:57:18.000Z</time>
      </trkpt>
      <trkpt lat="43.3436" lon="5.26583">
        <ele>7</ele>
        <time>2013-01-11T12:57:43.000Z</time>
      </trkpt>
      <trkpt lat="43.34358" lon="5.2659">
        <ele>8</ele>
        <time>2013-01-11T12:57:50.000Z</time>
      </trkpt>
      <trkpt lat="43.34358" lon="5.26598">
        <ele>9</ele>
        <time>2013-01-11T12:58:04.000Z</time>
      </trkpt>
      <trkpt lat="43.34357" lon="5.26605">
        <ele>10</ele>
        <time>2013-01-11T12:58:15.000Z</time>
      </trkpt>
      <trkpt lat="43.34369" lon="5.26616">
        <ele>9</ele>
        <time>2013-01-11T12:59:59.000Z</time>
      </trkpt>
      <trkpt lat="43.34374" lon="5.26619">
        <ele>8</ele>
        <time>2013-01-11T13:00:05.000Z</time>
      </trkpt>
      <trkpt lat="43.34381" lon="5.26632">
        <ele>7</ele>
        <time>2013-01-11T13:00:19.000Z</time>
      </trkpt>
      <trkpt lat="43.34382" lon="5.26641">
        <ele>8</ele>
        <time>2013-01-11T13:00:28.000Z</time>
      </trkpt>
      <trkpt lat="43.34389" lon="5.26648">
        <ele>11</ele>
        <time>2013-01-11T13:00:42.000Z</time>
      </trkpt>
      <trkpt lat="43.34397" lon="5.26667">
        <ele>13</ele>
        <time>2013-01-11T13:01:02.000Z</time>
      </trkpt>
      <trkpt lat="43.344" lon="5.26678">
        <ele>14</ele>
        <time>2013-01-11T13:01:12.000Z</time>
      </trkpt>
      <trkpt lat="43.34408" lon="5.26712">
        <ele>16</ele>
        <time>2013-01-11T13:01:40.000Z</time>
      </trkpt>
      <trkpt lat="43.34408" lon="5.26737">
        <ele>17</ele>
        <time>2013-01-11T13:02:02.000Z</time>
      </trkpt>
      <trkpt lat="43.34408" lon="5.26749">
        <ele>15</ele>
        <time>2013-01-11T13:02:16.000Z</time>
      </trkpt>
      <trkpt lat="43.34409" lon="5.26755">
        <ele>16</ele>
        <time>2013-01-11T13:02:34.000Z</time>
      </trkpt>
      <trkpt lat="43.34414" lon="5.26759">
        <ele>18</ele>
        <time>2013-01-11T13:02:46.000Z</time>
      </trkpt>
      <trkpt lat="43.34419" lon="5.2676">
        <ele>19</ele>
        <time>2013-01-11T13:02:55.000Z</time>
      </trkpt>
      <trkpt lat="43.34427" lon="5.26765">
        <ele>23</ele>
        <time>2013-01-11T13:03:14.000Z</time>
      </trkpt>
      <trkpt lat="43.34435" lon="5.2677">
        <ele>29</ele>
        <time>2013-01-11T13:03:38.000Z</time>
      </trkpt>
      <trkpt lat="43.34442" lon="5.26776">
        <ele>33</ele>
        <time>2013-01-11T13:03:50.000Z</time>
      </trkpt>
      <trkpt lat="43.34447" lon="5.26778">
        <ele>34</ele>
        <time>2013-01-11T13:03:56.000Z</time>
      </trkpt>
      <trkpt lat="43.34451" lon="5.26787">
        <ele>34</ele>
        <time>2013-01-11T13:04:02.000Z</time>
      </trkpt>
      <trkpt lat="43.34454" lon="5.26794">
        <ele>34</ele>
        <time>2013-01-11T13:04:08.000Z</time>
      </trkpt>
      <trkpt lat="43.34457" lon="5.26836">
        <ele>28</ele>
        <time>2013-01-11T13:04:33.000Z</time>
      </trkpt>
      <trkpt lat="43.34458" lon="5.26844">
        <ele>27</ele>
        <time>2013-01-11T13:04:38.000Z</time>
      </trkpt>
      <trkpt lat="43.34457" lon="5.26852">
        <ele>26</ele>
        <time>2013-01-11T13:04:43.000Z</time>
      </trkpt>
      <trkpt lat="43.34455" lon="5.26863">
        <ele>25</ele>
        <time>2013-01-11T13:05:01.000Z</time>
      </trkpt>
      <trkpt lat="43.34455" lon="5.26871">
        <ele>24</ele>
        <time>2013-01-11T13:05:07.000Z</time>
      </trkpt>
      <trkpt lat="43.3445" lon="5.26881">
        <ele>23</ele>
        <time>2013-01-11T13:05:17.000Z</time>
      </trkpt>
      <trkpt lat="43.34447" lon="5.26887">
        <ele>22</ele>
        <time>2013-01-11T13:05:24.000Z</time>
      </trkpt>
      <trkpt lat="43.34444" lon="5.26899">
        <ele>21</ele>
        <time>2013-01-11T13:05:41.000Z</time>
      </trkpt>
      <trkpt lat="43.3444" lon="5.26905">
        <ele>19</ele>
        <time>2013-01-11T13:06:06.000Z</time>
      </trkpt>
      <trkpt lat="43.34442" lon="5.26914">
        <ele>16</ele>
        <time>2013-01-11T13:06:24.000Z</time>
      </trkpt>
      <trkpt lat="43.34447" lon="5.26927">
        <ele>17</ele>
        <time>2013-01-11T13:06:51.000Z</time>
      </trkpt>
      <trkpt lat="43.34472" lon="5.26945">
        <ele>12</ele>
        <time>2013-01-11T13:07:46.000Z</time>
      </trkpt>
      <trkpt lat="43.34459" lon="5.26955">
        <ele>16</ele>
        <time>2013-01-11T13:08:07.000Z</time>
      </trkpt>
      <trkpt lat="43.34457" lon="5.26962">
        <ele>12</ele>
        <time>2013-01-11T13:08:32.000Z</time>
      </trkpt>
      <trkpt lat="43.34458" lon="5.2697">
        <ele>12</ele>
        <time>2013-01-11T13:08:43.000Z</time>
      </trkpt>
      <trkpt lat="43.34459" lon="5.26978">
        <ele>12</ele>
        <time>2013-01-11T13:08:55.000Z</time>
      </trkpt>
      <trkpt lat="43.34462" lon="5.26985">
        <ele>11</ele>
        <time>2013-01-11T13:09:05.000Z</time>
      </trkpt>
      <trkpt lat="43.34466" lon="5.26991">
        <ele>12</ele>
        <time>2013-01-11T13:09:14.000Z</time>
      </trkpt>
      <trkpt lat="43.34474" lon="5.26995">
        <ele>14</ele>
        <time>2013-01-11T13:09:30.000Z</time>
      </trkpt>
      <trkpt lat="43.34482" lon="5.27001">
        <ele>17</ele>
        <time>2013-01-11T13:09:44.000Z</time>
      </trkpt>
      <trkpt lat="43.34489" lon="5.2701">
        <ele>20</ele>
        <time>2013-01-11T13:10:05.000Z</time>
      </trkpt>
      <trkpt lat="43.34493" lon="5.27014">
        <ele>21</ele>
        <time>2013-01-11T13:10:15.000Z</time>
      </trkpt>
      <trkpt lat="43.34496" lon="5.27021">
        <ele>24</ele>
        <time>2013-01-11T13:10:30.000Z</time>
      </trkpt>
      <trkpt lat="43.34501" lon="5.27023">
        <ele>23</ele>
        <time>2013-01-11T13:11:32.000Z</time>
      </trkpt>
      <trkpt lat="43.34501" lon="5.27032">
        <ele>25</ele>
        <time>2013-01-11T13:12:31.000Z</time>
      </trkpt>
      <trkpt lat="43.34504" lon="5.27038">
        <ele>26</ele>
        <time>2013-01-11T13:12:40.000Z</time>
      </trkpt>
      <trkpt lat="43.34511" lon="5.27048">
        <ele>28</ele>
        <time>2013-01-11T13:13:34.000Z</time>
      </trkpt>
      <trkpt lat="43.34514" lon="5.27052">
        <ele>29</ele>
        <time>2013-01-11T13:14:02.000Z</time>
      </trkpt>
      <trkpt lat="43.34515" lon="5.27061">
        <ele>30</ele>
        <time>2013-01-11T13:14:10.000Z</time>
      </trkpt>
      <trkpt lat="43.34518" lon="5.27067">
        <ele>31</ele>
        <time>2013-01-11T13:14:24.000Z</time>
      </trkpt>
      <trkpt lat="43.34524" lon="5.27069">
        <ele>31</ele>
        <time>2013-01-11T13:14:35.000Z</time>
      </trkpt>
      <trkpt lat="43.34535" lon="5.27076">
        <ele>34</ele>
        <time>2013-01-11T13:14:55.000Z</time>
      </trkpt>
      <trkpt lat="43.34539" lon="5.27082">
        <ele>35</ele>
        <time>2013-01-11T13:15:16.000Z</time>
      </trkpt>
      <trkpt lat="43.34547" lon="5.27087">
        <ele>39</ele>
        <time>2013-01-11T13:15:37.000Z</time>
      </trkpt>
      <trkpt lat="43.34552" lon="5.27093">
        <ele>43</ele>
        <time>2013-01-11T13:16:11.000Z</time>
      </trkpt>
      <trkpt lat="43.34551" lon="5.271">
        <ele>51</ele>
        <time>2013-01-11T13:16:55.000Z</time>
      </trkpt>
      <trkpt lat="43.34555" lon="5.27095">
        <ele>49</ele>
        <time>2013-01-11T13:18:07.000Z</time>
      </trkpt>
      <trkpt lat="43.34562" lon="5.27091">
        <ele>49</ele>
        <time>2013-01-11T13:18:29.000Z</time>
      </trkpt>
      <trkpt lat="43.34567" lon="5.27091">
        <ele>51</ele>
        <time>2013-01-11T13:18:39.000Z</time>
      </trkpt>
      <trkpt lat="43.34571" lon="5.27095">
        <ele>50</ele>
        <time>2013-01-11T13:19:15.000Z</time>
      </trkpt>
      <trkpt lat="43.34589" lon="5.27107">
        <ele>52</ele>
        <time>2013-01-11T13:19:32.000Z</time>
      </trkpt>
      <trkpt lat="43.346" lon="5.27116">
        <ele>50</ele>
        <time>2013-01-11T13:19:47.000Z</time>
      </trkpt>
      <trkpt lat="43.34609" lon="5.27118">
        <ele>49</ele>
        <time>2013-01-11T13:19:57.000Z</time>
      </trkpt>
      <trkpt lat="43.34616" lon="5.27118">
        <ele>47</ele>
        <time>2013-01-11T13:20:03.000Z</time>
      </trkpt>
      <trkpt lat="43.34626" lon="5.27118">
        <ele>46</ele>
        <time>2013-01-11T13:20:12.000Z</time>
      </trkpt>
      <trkpt lat="43.34635" lon="5.27116">
        <ele>45</ele>
        <time>2013-01-11T13:20:21.000Z</time>
      </trkpt>
      <trkpt lat="43.34641" lon="5.27114">
        <ele>45</ele>
        <time>2013-01-11T13:20:27.000Z</time>
      </trkpt>
      <trkpt lat="43.34653" lon="5.27115">
        <ele>45</ele>
        <time>2013-01-11T13:20:38.000Z</time>
      </trkpt>
      <trkpt lat="43.34658" lon="5.27121">
        <ele>45</ele>
        <time>2013-01-11T13:20:44.000Z</time>
      </trkpt>
      <trkpt lat="43.34665" lon="5.27136">
        <ele>48</ele>
        <time>2013-01-11T13:20:57.000Z</time>
      </trkpt>
      <trkpt lat="43.34671" lon="5.27141">
        <ele>49</ele>
        <time>2013-01-11T13:21:05.000Z</time>
      </trkpt>
      <trkpt lat="43.34676" lon="5.27142">
        <ele>50</ele>
        <time>2013-01-11T13:21:14.000Z</time>
      </trkpt>
      <trkpt lat="43.34681" lon="5.27144">
        <ele>51</ele>
        <time>2013-01-11T13:22:20.000Z</time>
      </trkpt>
      <trkpt lat="43.34687" lon="5.27147">
        <ele>51</ele>
        <time>2013-01-11T13:24:39.000Z</time>
      </trkpt>
      <trkpt lat="43.34692" lon="5.27148">
        <ele>52</ele>
        <time>2013-01-11T13:24:49.000Z</time>
      </trkpt>
      <trkpt lat="43.34701" lon="5.27153">
        <ele>55</ele>
        <time>2013-01-11T13:25:08.000Z</time>
      </trkpt>
      <trkpt lat="43.34704" lon="5.2715">
        <ele>55</ele>
        <time>2013-01-11T13:25:44.000Z</time>
      </trkpt>
      <trkpt lat="43.347" lon="5.27139">
        <ele>59</ele>
        <time>2013-01-11T13:26:01.000Z</time>
      </trkpt>
      <trkpt lat="43.34702" lon="5.27132">
        <ele>62</ele>
        <time>2013-01-11T13:26:28.000Z</time>
      </trkpt>
      <trkpt lat="43.34706" lon="5.27127">
        <ele>64</ele>
        <time>2013-01-11T13:26:41.000Z</time>
      </trkpt>
      <trkpt lat="43.34703" lon="5.2712">
        <ele>66</ele>
        <time>2013-01-11T13:26:50.000Z</time>
      </trkpt>
      <trkpt lat="43.34697" lon="5.27103">
        <ele>70</ele>
        <time>2013-01-11T13:27:09.000Z</time>
      </trkpt>
      <trkpt lat="43.34705" lon="5.27099">
        <ele>73</ele>
        <time>2013-01-11T13:27:26.000Z</time>
      </trkpt>
      <trkpt lat="43.34711" lon="5.27097">
        <ele>75</ele>
        <time>2013-01-11T13:27:43.000Z</time>
      </trkpt>
      <trkpt lat="43.34708" lon="5.27091">
        <ele>76</ele>
        <time>2013-01-11T13:27:51.000Z</time>
      </trkpt>
      <trkpt lat="43.34707" lon="5.27084">
        <ele>77</ele>
        <time>2013-01-11T13:28:02.000Z</time>
      </trkpt>
      <trkpt lat="43.34714" lon="5.27077">
        <ele>78</ele>
        <time>2013-01-11T13:28:12.000Z</time>
      </trkpt>
      <trkpt lat="43.34719" lon="5.27074">
        <ele>80</ele>
        <time>2013-01-11T13:28:21.000Z</time>
      </trkpt>
      <trkpt lat="43.34728" lon="5.27063">
        <ele>84</ele>
        <time>2013-01-11T13:28:44.000Z</time>
      </trkpt>
      <trkpt lat="43.3473" lon="5.27052">
        <ele>86</ele>
        <time>2013-01-11T13:28:57.000Z</time>
      </trkpt>
      <trkpt lat="43.34727" lon="5.27045">
        <ele>86</ele>
        <time>2013-01-11T13:29:06.000Z</time>
      </trkpt>
      <trkpt lat="43.34724" lon="5.27038">
        <ele>87</ele>
        <time>2013-01-11T13:29:31.000Z</time>
      </trkpt>
      <trkpt lat="43.34718" lon="5.27035">
        <ele>87</ele>
        <time>2013-01-11T13:29:35.000Z</time>
      </trkpt>
      <trkpt lat="43.34713" lon="5.2703">
        <ele>87</ele>
        <time>2013-01-11T13:29:40.000Z</time>
      </trkpt>
      <trkpt lat="43.34706" lon="5.27023">
        <ele>90</ele>
        <time>2013-01-11T13:30:47.000Z</time>
      </trkpt>
      <trkpt lat="43.34701" lon="5.27018">
        <ele>89</ele>
        <time>2013-01-11T13:31:02.000Z</time>
      </trkpt>
      <trkpt lat="43.34697" lon="5.27015">
        <ele>91</ele>
        <time>2013-01-11T13:31:12.000Z</time>
      </trkpt>
      <trkpt lat="43.34691" lon="5.27013">
        <ele>95</ele>
        <time>2013-01-11T13:31:25.000Z</time>
      </trkpt>
      <trkpt lat="43.34685" lon="5.27012">
        <ele>97</ele>
        <time>2013-01-11T13:31:36.000Z</time>
      </trkpt>
      <trkpt lat="43.34678" lon="5.27005">
        <ele>99</ele>
        <time>2013-01-11T13:31:53.000Z</time>
      </trkpt>
      <trkpt lat="43.34676" lon="5.26999">
        <ele>100</ele>
        <time>2013-01-11T13:32:04.000Z</time>
      </trkpt>
      <trkpt lat="43.34672" lon="5.26987">
        <ele>99</ele>
        <time>2013-01-11T13:32:16.000Z</time>
      </trkpt>
      <trkpt lat="43.34663" lon="5.26985">
        <ele>95</ele>
        <time>2013-01-11T13:34:43.000Z</time>
      </trkpt>
      <trkpt lat="43.34655" lon="5.26986">
        <ele>96</ele>
        <time>2013-01-11T13:35:51.000Z</time>
      </trkpt>
      <trkpt lat="43.34647" lon="5.26991">
        <ele>99</ele>
        <time>2013-01-11T13:36:02.000Z</time>
      </trkpt>
      <trkpt lat="43.34644" lon="5.26997">
        <ele>101</ele>
        <time>2013-01-11T13:36:10.000Z</time>
      </trkpt>
      <trkpt lat="43.34639" lon="5.27007">
        <ele>102</ele>
        <time>2013-01-11T13:36:30.000Z</time>
      </trkpt>
      <trkpt lat="43.34634" lon="5.27016">
        <ele>105</ele>
        <time>2013-01-11T13:36:43.000Z</time>
      </trkpt>
      <trkpt lat="43.34627" lon="5.27019">
        <ele>104</ele>
        <time>2013-01-11T13:37:09.000Z</time>
      </trkpt>
      <trkpt lat="43.34633" lon="5.27027">
        <ele>111</ele>
        <time>2013-01-11T13:37:23.000Z</time>
      </trkpt>
      <trkpt lat="43.34628" lon="5.2703">
        <ele>110</ele>
        <time>2013-01-11T13:37:31.000Z</time>
      </trkpt>
      <trkpt lat="43.34624" lon="5.27025">
        <ele>107</ele>
        <time>2013-01-11T13:37:54.000Z</time>
      </trkpt>
      <trkpt lat="43.34622" lon="5.27021">
        <ele>105</ele>
        <time>2013-01-11T13:43:19.000Z</time>
      </trkpt>
      <trkpt lat="43.34627" lon="5.27021">
        <ele>104</ele>
        <time>2013-01-11T13:43:34.000Z</time>
      </trkpt>
      <trkpt lat="43.34632" lon="5.27017">
        <ele>104</ele>
        <time>2013-01-11T13:43:44.000Z</time>
      </trkpt>
      <trkpt lat="43.34636" lon="5.27011">
        <ele>104</ele>
        <time>2013-01-11T13:43:55.000Z</time>
      </trkpt>
      <trkpt lat="43.34638" lon="5.27005">
        <ele>103</ele>
        <time>2013-01-11T13:44:05.000Z</time>
      </trkpt>
      <trkpt lat="43.34645" lon="5.26992">
        <ele>101</ele>
        <time>2013-01-11T13:44:21.000Z</time>
      </trkpt>
      <trkpt lat="43.34651" lon="5.2699">
        <ele>102</ele>
        <time>2013-01-11T13:44:29.000Z</time>
      </trkpt>
      <trkpt lat="43.34657" lon="5.26988">
        <ele>101</ele>
        <time>2013-01-11T13:44:36.000Z</time>
      </trkpt>
      <trkpt lat="43.34669" lon="5.26987">
        <ele>101</ele>
        <time>2013-01-11T13:44:48.000Z</time>
      </trkpt>
      <trkpt lat="43.34675" lon="5.26986">
        <ele>102</ele>
        <time>2013-01-11T13:45:03.000Z</time>
      </trkpt>
      <trkpt lat="43.34681" lon="5.26979">
        <ele>105</ele>
        <time>2013-01-11T13:45:27.000Z</time>
      </trkpt>
      <trkpt lat="43.34679" lon="5.26967">
        <ele>107</ele>
        <time>2013-01-11T13:45:46.000Z</time>
      </trkpt>
      <trkpt lat="43.34685" lon="5.26967">
        <ele>108</ele>
        <time>2013-01-11T13:46:06.000Z</time>
      </trkpt>
      <trkpt lat="43.34691" lon="5.26965">
        <ele>110</ele>
        <time>2013-01-11T13:46:17.000Z</time>
      </trkpt>
      <trkpt lat="43.34691" lon="5.26953">
        <ele>111</ele>
        <time>2013-01-11T13:46:28.000Z</time>
      </trkpt>
      <trkpt lat="43.34695" lon="5.26947">
        <ele>112</ele>
        <time>2013-01-11T13:46:34.000Z</time>
      </trkpt>
      <trkpt lat="43.34703" lon="5.26934">
        <ele>113</ele>
        <time>2013-01-11T13:46:51.000Z</time>
      </trkpt>
      <trkpt lat="43.34707" lon="5.26908">
        <ele>115</ele>
        <time>2013-01-11T13:47:10.000Z</time>
      </trkpt>
      <trkpt lat="43.34712" lon="5.26889">
        <ele>116</ele>
        <time>2013-01-11T13:47:25.000Z</time>
      </trkpt>
      <trkpt lat="43.34715" lon="5.26876">
        <ele>117</ele>
        <time>2013-01-11T13:47:34.000Z</time>
      </trkpt>
      <trkpt lat="43.34721" lon="5.26853">
        <ele>117</ele>
        <time>2013-01-11T13:47:53.000Z</time>
      </trkpt>
      <trkpt lat="43.34729" lon="5.26832">
        <ele>117</ele>
        <time>2013-01-11T13:48:08.000Z</time>
      </trkpt>
      <trkpt lat="43.3473" lon="5.26815">
        <ele>117</ele>
        <time>2013-01-11T13:48:20.000Z</time>
      </trkpt>
      <trkpt lat="43.34728" lon="5.26802">
        <ele>117</ele>
        <time>2013-01-11T13:48:29.000Z</time>
      </trkpt>
      <trkpt lat="43.34715" lon="5.26788">
        <ele>117</ele>
        <time>2013-01-11T13:48:44.000Z</time>
      </trkpt>
      <trkpt lat="43.34703" lon="5.2678">
        <ele>118</ele>
        <time>2013-01-11T13:48:57.000Z</time>
      </trkpt>
      <trkpt lat="43.34696" lon="5.26762">
        <ele>120</ele>
        <time>2013-01-11T13:49:12.000Z</time>
      </trkpt>
      <trkpt lat="43.34693" lon="5.26721">
        <ele>123</ele>
        <time>2013-01-11T13:49:40.000Z</time>
      </trkpt>
      <trkpt lat="43.34689" lon="5.26715">
        <ele>123</ele>
        <time>2013-01-11T13:49:45.000Z</time>
      </trkpt>
      <trkpt lat="43.34675" lon="5.26705">
        <ele>124</ele>
        <time>2013-01-11T13:50:00.000Z</time>
      </trkpt>
      <trkpt lat="43.34669" lon="5.26707">
        <ele>124</ele>
        <time>2013-01-11T13:50:06.000Z</time>
      </trkpt>
      <trkpt lat="43.34649" lon="5.26707">
        <ele>127</ele>
        <time>2013-01-11T13:50:28.000Z</time>
      </trkpt>
      <trkpt lat="43.3461" lon="5.26707">
        <ele>128</ele>
        <time>2013-01-11T13:51:25.000Z</time>
      </trkpt>
      <trkpt lat="43.34605" lon="5.2671">
        <ele>128</ele>
        <time>2013-01-11T13:51:31.000Z</time>
      </trkpt>
      <trkpt lat="43.34599" lon="5.26709">
        <ele>128</ele>
        <time>2013-01-11T13:51:38.000Z</time>
      </trkpt>
      <trkpt lat="43.34599" lon="5.26688">
        <ele>130</ele>
        <time>2013-01-11T13:51:55.000Z</time>
      </trkpt>
      <trkpt lat="43.34599" lon="5.2668">
        <ele>131</ele>
        <time>2013-01-11T13:52:01.000Z</time>
      </trkpt>
      <trkpt lat="43.34598" lon="5.26671">
        <ele>131</ele>
        <time>2013-01-11T13:52:08.000Z</time>
      </trkpt>
      <trkpt lat="43.34597" lon="5.26664">
        <ele>132</ele>
        <time>2013-01-11T13:52:14.000Z</time>
      </trkpt>
      <trkpt lat="43.34594" lon="5.26651">
        <ele>134</ele>
        <time>2013-01-11T13:52:24.000Z</time>
      </trkpt>
      <trkpt lat="43.34588" lon="5.2663">
        <ele>137</ele>
        <time>2013-01-11T13:52:42.000Z</time>
      </trkpt>
      <trkpt lat="43.34579" lon="5.26619">
        <ele>136</ele>
        <time>2013-01-11T13:53:14.000Z</time>
      </trkpt>
      <trkpt lat="43.34579" lon="5.26612">
        <ele>136</ele>
        <time>2013-01-11T13:53:25.000Z</time>
      </trkpt>
      <trkpt lat="43.346" lon="5.26556">
        <ele>138</ele>
        <time>2013-01-11T13:54:07.000Z</time>
      </trkpt>
      <trkpt lat="43.346" lon="5.26556">
        <ele>138</ele>
        <time>2013-01-11T13:54:08.000Z</time>
      </trkpt>
      <trkpt lat="43.34601" lon="5.26548">
        <ele>138</ele>
        <time>2013-01-11T13:54:14.000Z</time>
      </trkpt>
      <trkpt lat="43.34606" lon="5.26547">
        <ele>137</ele>
        <time>2013-01-11T13:54:24.000Z</time>
      </trkpt>
      <trkpt lat="43.34625" lon="5.26561">
        <ele>135</ele>
        <time>2013-01-11T13:54:51.000Z</time>
      </trkpt>
      <trkpt lat="43.34631" lon="5.26567">
        <ele>134</ele>
        <time>2013-01-11T13:54:58.000Z</time>
      </trkpt>
      <trkpt lat="43.34636" lon="5.26569">
        <ele>132</ele>
        <time>2013-01-11T13:55:04.000Z</time>
      </trkpt>
      <trkpt lat="43.34668" lon="5.2657">
        <ele>127</ele>
        <time>2013-01-11T13:55:37.000Z</time>
      </trkpt>
      <trkpt lat="43.34677" lon="5.26565">
        <ele>126</ele>
        <time>2013-01-11T13:55:46.000Z</time>
      </trkpt>
      <trkpt lat="43.34687" lon="5.26557">
        <ele>124</ele>
        <time>2013-01-11T13:55:58.000Z</time>
      </trkpt>
      <trkpt lat="43.34697" lon="5.26546">
        <ele>123</ele>
        <time>2013-01-11T13:56:11.000Z</time>
      </trkpt>
      <trkpt lat="43.34698" lon="5.26537">
        <ele>122</ele>
        <time>2013-01-11T13:56:17.000Z</time>
      </trkpt>
      <trkpt lat="43.34698" lon="5.2651">
        <ele>118</ele>
        <time>2013-01-11T13:56:44.000Z</time>
      </trkpt>
      <trkpt lat="43.34695" lon="5.26518">
        <ele>117</ele>
        <time>2013-01-11T13:56:51.000Z</time>
      </trkpt>
      <trkpt lat="43.3469" lon="5.26523">
        <ele>116</ele>
        <time>2013-01-11T13:56:57.000Z</time>
      </trkpt>
      <trkpt lat="43.34678" lon="5.26523">
        <ele>114</ele>
        <time>2013-01-11T13:57:10.000Z</time>
      </trkpt>
      <trkpt lat="43.34668" lon="5.26523">
        <ele>112</ele>
        <time>2013-01-11T13:57:22.000Z</time>
      </trkpt>
      <trkpt lat="43.34669" lon="5.26517">
        <ele>111</ele>
        <time>2013-01-11T13:57:30.000Z</time>
      </trkpt>
      <trkpt lat="43.34678" lon="5.26506">
        <ele>109</ele>
        <time>2013-01-11T13:57:43.000Z</time>
      </trkpt>
      <trkpt lat="43.34678" lon="5.26493">
        <ele>108</ele>
        <time>2013-01-11T13:57:52.000Z</time>
      </trkpt>
      <trkpt lat="43.34672" lon="5.26468">
        <ele>105</ele>
        <time>2013-01-11T13:58:11.000Z</time>
      </trkpt>
      <trkpt lat="43.34669" lon="5.2643">
        <ele>99</ele>
        <time>2013-01-11T13:58:38.000Z</time>
      </trkpt>
      <trkpt lat="43.34668" lon="5.26421">
        <ele>98</ele>
        <time>2013-01-11T13:58:44.000Z</time>
      </trkpt>
      <trkpt lat="43.34667" lon="5.26396">
        <ele>95</ele>
        <time>2013-01-11T13:59:02.000Z</time>
      </trkpt>
      <trkpt lat="43.34669" lon="5.26388">
        <ele>94</ele>
        <time>2013-01-11T13:59:10.000Z</time>
      </trkpt>
      <trkpt lat="43.34675" lon="5.26386">
        <ele>92</ele>
        <time>2013-01-11T13:59:18.000Z</time>
      </trkpt>
      <trkpt lat="43.34687" lon="5.26388">
        <ele>90</ele>
        <time>2013-01-11T13:59:30.000Z</time>
      </trkpt>
      <trkpt lat="43.34699" lon="5.26383">
        <ele>88</ele>
        <time>2013-01-11T13:59:42.000Z</time>
      </trkpt>
      <trkpt lat="43.3471" lon="5.26376">
        <ele>86</ele>
        <time>2013-01-11T13:59:54.000Z</time>
      </trkpt>
      <trkpt lat="43.34752" lon="5.26356">
        <ele>82</ele>
        <time>2013-01-11T14:00:32.000Z</time>
      </trkpt>
      <trkpt lat="43.34753" lon="5.26356">
        <ele>82</ele>
        <time>2013-01-11T14:00:33.000Z</time>
      </trkpt>
      <trkpt lat="43.34761" lon="5.2635">
        <ele>81</ele>
        <time>2013-01-11T14:00:41.000Z</time>
      </trkpt>
      <trkpt lat="43.3476" lon="5.26341">
        <ele>81</ele>
        <time>2013-01-11T14:00:47.000Z</time>
      </trkpt>
      <trkpt lat="43.3475" lon="5.26298">
        <ele>78</ele>
        <time>2013-01-11T14:01:16.000Z</time>
      </trkpt>
      <trkpt lat="43.34753" lon="5.26291">
        <ele>77</ele>
        <time>2013-01-11T14:01:22.000Z</time>
      </trkpt>
      <trkpt lat="43.34761" lon="5.26267">
        <ele>76</ele>
        <time>2013-01-11T14:01:43.000Z</time>
      </trkpt>
      <trkpt lat="43.34765" lon="5.26252">
        <ele>75</ele>
        <time>2013-01-11T14:01:55.000Z</time>
      </trkpt>
      <trkpt lat="43.34769" lon="5.26239">
        <ele>75</ele>
        <time>2013-01-11T14:02:04.000Z</time>
      </trkpt>
      <trkpt lat="43.34771" lon="5.26231">
        <ele>74</ele>
        <time>2013-01-11T14:02:11.000Z</time>
      </trkpt>
      <trkpt lat="43.34772" lon="5.26223">
        <ele>73</ele>
        <time>2013-01-11T14:02:16.000Z</time>
      </trkpt>
      <trkpt lat="43.34766" lon="5.26221">
        <ele>73</ele>
        <time>2013-01-11T14:02:23.000Z</time>
      </trkpt>
      <trkpt lat="43.34755" lon="5.26227">
        <ele>75</ele>
        <time>2013-01-11T14:02:35.000Z</time>
      </trkpt>
      <trkpt lat="43.34731" lon="5.26241">
        <ele>78</ele>
        <time>2013-01-11T14:03:01.000Z</time>
      </trkpt>
      <trkpt lat="43.34719" lon="5.26246">
        <ele>79</ele>
        <time>2013-01-11T14:03:13.000Z</time>
      </trkpt>
      <trkpt lat="43.34706" lon="5.2625">
        <ele>80</ele>
        <time>2013-01-11T14:03:26.000Z</time>
      </trkpt>
      <trkpt lat="43.347" lon="5.26248">
        <ele>81</ele>
        <time>2013-01-11T14:03:32.000Z</time>
      </trkpt>
      <trkpt lat="43.34693" lon="5.2624">
        <ele>81</ele>
        <time>2013-01-11T14:03:41.000Z</time>
      </trkpt>
      <trkpt lat="43.34677" lon="5.26219">
        <ele>83</ele>
        <time>2013-01-11T14:04:02.000Z</time>
      </trkpt>
      <trkpt lat="43.34647" lon="5.2623">
        <ele>83</ele>
        <time>2013-01-11T14:04:29.000Z</time>
      </trkpt>
      <trkpt lat="43.3462" lon="5.26247">
        <ele>82</ele>
        <time>2013-01-11T14:04:56.000Z</time>
      </trkpt>
      <trkpt lat="43.34615" lon="5.26253">
        <ele>82</ele>
        <time>2013-01-11T14:05:02.000Z</time>
      </trkpt>
      <trkpt lat="43.3461" lon="5.26248">
        <ele>82</ele>
        <time>2013-01-11T14:05:10.000Z</time>
      </trkpt>
      <trkpt lat="43.34602" lon="5.26242">
        <ele>82</ele>
        <time>2013-01-11T14:05:19.000Z</time>
      </trkpt>
      <trkpt lat="43.346" lon="5.26235">
        <ele>82</ele>
        <time>2013-01-11T14:05:25.000Z</time>
      </trkpt>
      <trkpt lat="43.34601" lon="5.26214">
        <ele>83</ele>
        <time>2013-01-11T14:05:43.000Z</time>
      </trkpt>
      <trkpt lat="43.34599" lon="5.26202">
        <ele>84</ele>
        <time>2013-01-11T14:05:53.000Z</time>
      </trkpt>
      <trkpt lat="43.34592" lon="5.26203">
        <ele>85</ele>
        <time>2013-01-11T14:06:00.000Z</time>
      </trkpt>
      <trkpt lat="43.34576" lon="5.26212">
        <ele>88</ele>
        <time>2013-01-11T14:06:18.000Z</time>
      </trkpt>
      <trkpt lat="43.34558" lon="5.2622">
        <ele>90</ele>
        <time>2013-01-11T14:06:36.000Z</time>
      </trkpt>
      <trkpt lat="43.34517" lon="5.26224">
        <ele>92</ele>
        <time>2013-01-11T14:07:17.000Z</time>
      </trkpt>
      <trkpt lat="43.34514" lon="5.26217">
        <ele>93</ele>
        <time>2013-01-11T14:07:26.000Z</time>
      </trkpt>
      <trkpt lat="43.34509" lon="5.26189">
        <ele>88</ele>
        <time>2013-01-11T14:07:55.000Z</time>
      </trkpt>
      <trkpt lat="43.34506" lon="5.26193">
        <ele>87</ele>
        <time>2013-01-11T14:08:02.000Z</time>
      </trkpt>
      <trkpt lat="43.34506" lon="5.26201">
        <ele>85</ele>
        <time>2013-01-11T14:08:09.000Z</time>
      </trkpt>
      <trkpt lat="43.34499" lon="5.26214">
        <ele>83</ele>
        <time>2013-01-11T14:08:21.000Z</time>
      </trkpt>
      <trkpt lat="43.34491" lon="5.26222">
        <ele>82</ele>
        <time>2013-01-11T14:08:33.000Z</time>
      </trkpt>
      <trkpt lat="43.3449" lon="5.26214">
        <ele>80</ele>
        <time>2013-01-11T14:08:41.000Z</time>
      </trkpt>
      <trkpt lat="43.34491" lon="5.26206">
        <ele>79</ele>
        <time>2013-01-11T14:08:47.000Z</time>
      </trkpt>
      <trkpt lat="43.34489" lon="5.26194">
        <ele>77</ele>
        <time>2013-01-11T14:08:57.000Z</time>
      </trkpt>
      <trkpt lat="43.34477" lon="5.26186">
        <ele>74</ele>
        <time>2013-01-11T14:09:13.000Z</time>
      </trkpt>
      <trkpt lat="43.34469" lon="5.26189">
        <ele>73</ele>
        <time>2013-01-11T14:09:25.000Z</time>
      </trkpt>
      <trkpt lat="43.34463" lon="5.26193">
        <ele>71</ele>
        <time>2013-01-11T14:09:33.000Z</time>
      </trkpt>
      <trkpt lat="43.34444" lon="5.26196">
        <ele>68</ele>
        <time>2013-01-11T14:10:11.000Z</time>
      </trkpt>
      <trkpt lat="43.34436" lon="5.26193">
        <ele>67</ele>
        <time>2013-01-11T14:10:22.000Z</time>
      </trkpt>
      <trkpt lat="43.34432" lon="5.26188">
        <ele>66</ele>
        <time>2013-01-11T14:10:30.000Z</time>
      </trkpt>
      <trkpt lat="43.34432" lon="5.26175">
        <ele>65</ele>
        <time>2013-01-11T14:10:44.000Z</time>
      </trkpt>
      <trkpt lat="43.34425" lon="5.26157">
        <ele>63</ele>
        <time>2013-01-11T14:11:15.000Z</time>
      </trkpt>
      <trkpt lat="43.3442" lon="5.26152">
        <ele>62</ele>
        <time>2013-01-11T14:11:23.000Z</time>
      </trkpt>
      <trkpt lat="43.34418" lon="5.2614">
        <ele>61</ele>
        <time>2013-01-11T14:11:40.000Z</time>
      </trkpt>
      <trkpt lat="43.34414" lon="5.26134">
        <ele>60</ele>
        <time>2013-01-11T14:11:48.000Z</time>
      </trkpt>
      <trkpt lat="43.34402" lon="5.26125">
        <ele>59</ele>
        <time>2013-01-11T14:12:00.000Z</time>
      </trkpt>
      <trkpt lat="43.34395" lon="5.26112">
        <ele>56</ele>
        <time>2013-01-11T14:12:20.000Z</time>
      </trkpt>
      <trkpt lat="43.34391" lon="5.26106">
        <ele>55</ele>
        <time>2013-01-11T14:12:28.000Z</time>
      </trkpt>
      <trkpt lat="43.34385" lon="5.26104">
        <ele>54</ele>
        <time>2013-01-11T14:12:34.000Z</time>
      </trkpt>
      <trkpt lat="43.34379" lon="5.26102">
        <ele>53</ele>
        <time>2013-01-11T14:12:50.000Z</time>
      </trkpt>
      <trkpt lat="43.34374" lon="5.26098">
        <ele>52</ele>
        <time>2013-01-11T14:13:02.000Z</time>
      </trkpt>
      <trkpt lat="43.34369" lon="5.26089">
        <ele>50</ele>
        <time>2013-01-11T14:13:15.000Z</time>
      </trkpt>
      <trkpt lat="43.34358" lon="5.2608">
        <ele>48</ele>
        <time>2013-01-11T14:13:30.000Z</time>
      </trkpt>
      <trkpt lat="43.34349" lon="5.2608">
        <ele>46</ele>
        <time>2013-01-11T14:13:43.000Z</time>
      </trkpt>
      <trkpt lat="43.34336" lon="5.26072">
        <ele>42</ele>
        <time>2013-01-11T14:14:05.000Z</time>
      </trkpt>
      <trkpt lat="43.34327" lon="5.26073">
        <ele>39</ele>
        <time>2013-01-11T14:14:20.000Z</time>
      </trkpt>
      <trkpt lat="43.34322" lon="5.26075">
        <ele>37</ele>
        <time>2013-01-11T14:14:26.000Z</time>
      </trkpt>
      <trkpt lat="43.34316" lon="5.26078">
        <ele>37</ele>
        <time>2013-01-11T14:14:32.000Z</time>
      </trkpt>
      <trkpt lat="43.34311" lon="5.26081">
        <ele>35</ele>
        <time>2013-01-11T14:14:42.000Z</time>
      </trkpt>
      <trkpt lat="43.34293" lon="5.26082">
        <ele>32</ele>
        <time>2013-01-11T14:15:23.000Z</time>
      </trkpt>
      <trkpt lat="43.34286" lon="5.26088">
        <ele>28</ele>
        <time>2013-01-11T14:16:08.000Z</time>
      </trkpt>
      <trkpt lat="43.34281" lon="5.26088">
        <ele>25</ele>
        <time>2013-01-11T14:16:28.000Z</time>
      </trkpt>
      <trkpt lat="43.34276" lon="5.26086">
        <ele>23</ele>
        <time>2013-01-11T14:17:07.000Z</time>
      </trkpt>
      <trkpt lat="43.34272" lon="5.26076">
        <ele>18</ele>
        <time>2013-01-11T14:18:07.000Z</time>
      </trkpt>
      <trkpt lat="43.34266" lon="5.26066">
        <ele>12</ele>
        <time>2013-01-11T14:18:56.000Z</time>
      </trkpt>
      <trkpt lat="43.34267" lon="5.26053">
        <ele>9</ele>
        <time>2013-01-11T14:19:10.000Z</time>
      </trkpt>
      <trkpt lat="43.3427" lon="5.26049">
        <ele>13</ele>
        <time>2013-01-11T14:19:50.000Z</time>
      </trkpt>
      <trkpt lat="43.34275" lon="5.26038">
        <ele>13</ele>
        <time>2013-01-11T14:20:51.000Z</time>
      </trkpt>
      <trkpt lat="43.34276" lon="5.26026">
        <ele>12</ele>
        <time>2013-01-11T14:21:03.000Z</time>
      </trkpt>
      <trkpt lat="43.34277" lon="5.26019">
        <ele>10</ele>
        <time>2013-01-11T14:21:12.000Z</time>
      </trkpt>
      <trkpt lat="43.34278" lon="5.26006">
        <ele>9</ele>
        <time>2013-01-11T14:21:22.000Z</time>
      </trkpt>
      <trkpt lat="43.34272" lon="5.25988">
        <ele>11</ele>
        <time>2013-01-11T14:21:39.000Z</time>
      </trkpt>
      <trkpt lat="43.34267" lon="5.25989">
        <ele>10</ele>
        <time>2013-01-11T14:21:45.000Z</time>
      </trkpt>
      <trkpt lat="43.34251" lon="5.26004">
        <ele>9</ele>
        <time>2013-01-11T14:22:03.000Z</time>
      </trkpt>
      <trkpt lat="43.34232" lon="5.26023">
        <ele>14</ele>
        <time>2013-01-11T14:22:28.000Z</time>
      </trkpt>
      <trkpt lat="43.34226" lon="5.26033">
        <ele>19</ele>
        <time>2013-01-11T14:22:38.000Z</time>
      </trkpt>
      <trkpt lat="43.34194" lon="5.26059">
        <ele>5</ele>
        <time>2013-01-11T14:23:04.000Z</time>
      </trkpt>
      <trkpt lat="43.34191" lon="5.26066">
        <ele>3</ele>
        <time>2013-01-11T14:23:19.000Z</time>
      </trkpt>
      <trkpt lat="43.34191" lon="5.26079">
        <ele>2</ele>
        <time>2013-01-11T14:23:26.000Z</time>
      </trkpt>
      <trkpt lat="43.34171" lon="5.26094">
        <ele>5</ele>
        <time>2013-01-11T14:23:49.000Z</time>
      </trkpt>
      <trkpt lat="43.34165" lon="5.26093">
        <ele>6</ele>
        <time>2013-01-11T14:23:56.000Z</time>
      </trkpt>
      <trkpt lat="43.34159" lon="5.26092">
        <ele>7</ele>
        <time>2013-01-11T14:24:05.000Z</time>
      </trkpt>
      <trkpt lat="43.34149" lon="5.26096">
        <ele>6</ele>
        <time>2013-01-11T14:24:15.000Z</time>
      </trkpt>
      <trkpt lat="43.34133" lon="5.261">
        <ele>6</ele>
        <time>2013-01-11T14:24:28.000Z</time>
      </trkpt>
      <trkpt lat="43.34115" lon="5.261">
        <ele>5</ele>
        <time>2013-01-11T14:24:44.000Z</time>
      </trkpt>
      <trkpt lat="43.341" lon="5.26096">
        <ele>5</ele>
        <time>2013-01-11T14:24:57.000Z</time>
      </trkpt>
      <trkpt lat="43.3409" lon="5.26092">
        <ele>5</ele>
        <time>2013-01-11T14:25:06.000Z</time>
      </trkpt>
      <trkpt lat="43.34072" lon="5.26089">
        <ele>5</ele>
        <time>2013-01-11T14:25:21.000Z</time>
      </trkpt>
      <trkpt lat="43.34065" lon="5.26087">
        <ele>6</ele>
        <time>2013-01-11T14:25:27.000Z</time>
      </trkpt>
      <trkpt lat="43.3406" lon="5.26084">
        <ele>6</ele>
        <time>2013-01-11T14:25:34.000Z</time>
      </trkpt>
      <trkpt lat="43.34056" lon="5.26078">
        <ele>5</ele>
        <time>2013-01-11T14:25:45.000Z</time>
      </trkpt>
      <trkpt lat="43.34051" lon="5.26072">
        <ele>5</ele>
        <time>2013-01-11T14:25:52.000Z</time>
      </trkpt>
      <trkpt lat="43.34047" lon="5.26065">
        <ele>4</ele>
        <time>2013-01-11T14:26:00.000Z</time>
      </trkpt>
      <trkpt lat="43.3404" lon="5.26063">
        <ele>3</ele>
        <time>2013-01-11T14:26:07.000Z</time>
      </trkpt>
      <trkpt lat="43.34033" lon="5.26058">
        <ele>2</ele>
        <time>2013-01-11T14:26:25.000Z</time>
      </trkpt>
      <trkpt lat="43.34032" lon="5.2605">
        <ele>6</ele>
        <time>2013-01-11T14:26:42.000Z</time>
      </trkpt>
      <trkpt lat="43.34042" lon="5.26044">
        <ele>12</ele>
        <time>2013-01-11T14:27:09.000Z</time>
      </trkpt>
      <trkpt lat="43.34058" lon="5.26038">
        <ele>19</ele>
        <time>2013-01-11T14:27:41.000Z</time>
      </trkpt>
      <trkpt lat="43.34057" lon="5.26029">
        <ele>21</ele>
        <time>2013-01-11T14:27:49.000Z</time>
      </trkpt>
      <trkpt lat="43.34054" lon="5.2601">
        <ele>26</ele>
        <time>2013-01-11T14:28:07.000Z</time>
      </trkpt>
      <trkpt lat="43.34055" lon="5.26002">
        <ele>27</ele>
        <time>2013-01-11T14:28:15.000Z</time>
      </trkpt>
      <trkpt lat="43.34053" lon="5.25994">
        <ele>28</ele>
        <time>2013-01-11T14:28:23.000Z</time>
      </trkpt>
      <trkpt lat="43.34052" lon="5.25986">
        <ele>30</ele>
        <time>2013-01-11T14:28:31.000Z</time>
      </trkpt>
      <trkpt lat="43.3405" lon="5.25979">
        <ele>31</ele>
        <time>2013-01-11T14:28:47.000Z</time>
      </trkpt>
      <trkpt lat="43.34037" lon="5.25959">
        <ele>32</ele>
        <time>2013-01-11T14:29:06.000Z</time>
      </trkpt>
      <trkpt lat="43.34032" lon="5.25954">
        <ele>32</ele>
        <time>2013-01-11T14:29:14.000Z</time>
      </trkpt>
      <trkpt lat="43.34025" lon="5.25937">
        <ele>31</ele>
        <time>2013-01-11T14:30:27.000Z</time>
      </trkpt>
      <trkpt lat="43.34014" lon="5.25922">
        <ele>29</ele>
        <time>2013-01-11T14:30:46.000Z</time>
      </trkpt>
      <trkpt lat="43.3401" lon="5.25915">
        <ele>31</ele>
        <time>2013-01-11T14:30:53.000Z</time>
      </trkpt>
      <trkpt lat="43.34008" lon="5.25903">
        <ele>32</ele>
        <time>2013-01-11T14:31:07.000Z</time>
      </trkpt>
      <trkpt lat="43.34006" lon="5.25896">
        <ele>30</ele>
        <time>2013-01-11T14:31:16.000Z</time>
      </trkpt>
      <trkpt lat="43.34" lon="5.25881">
        <ele>25</ele>
        <time>2013-01-11T14:31:42.000Z</time>
      </trkpt>
      <trkpt lat="43.33995" lon="5.25861">
        <ele>20</ele>
        <time>2013-01-11T14:32:01.000Z</time>
      </trkpt>
      <trkpt lat="43.33997" lon="5.25854">
        <ele>19</ele>
        <time>2013-01-11T14:32:07.000Z</time>
      </trkpt>
      <trkpt lat="43.34002" lon="5.25849">
        <ele>19</ele>
        <time>2013-01-11T14:32:17.000Z</time>
      </trkpt>
      <trkpt lat="43.34001" lon="5.25837">
        <ele>21</ele>
        <time>2013-01-11T14:32:29.000Z</time>
      </trkpt>
      <trkpt lat="43.33997" lon="5.25827">
        <ele>21</ele>
        <time>2013-01-11T14:32:38.000Z</time>
      </trkpt>
      <trkpt lat="43.33981" lon="5.25801">
        <ele>21</ele>
        <time>2013-01-11T14:33:03.000Z</time>
      </trkpt>
      <trkpt lat="43.3398" lon="5.25782">
        <ele>18</ele>
        <time>2013-01-11T14:33:15.000Z</time>
      </trkpt>
      <trkpt lat="43.33986" lon="5.2576">
        <ele>16</ele>
        <time>2013-01-11T14:33:30.000Z</time>
      </trkpt>
      <trkpt lat="43.33988" lon="5.25751">
        <ele>15</ele>
        <time>2013-01-11T14:33:35.000Z</time>
      </trkpt>
      <trkpt lat="43.33985" lon="5.25739">
        <ele>15</ele>
        <time>2013-01-11T14:33:43.000Z</time>
      </trkpt>
      <trkpt lat="43.33982" lon="5.25727">
        <ele>18</ele>
        <time>2013-01-11T14:33:52.000Z</time>
      </trkpt>
      <trkpt lat="43.33977" lon="5.25719">
        <ele>20</ele>
        <time>2013-01-11T14:33:59.000Z</time>
      </trkpt>
      <trkpt lat="43.33963" lon="5.25696">
        <ele>26</ele>
        <time>2013-01-11T14:34:22.000Z</time>
      </trkpt>
      <trkpt lat="43.33959" lon="5.25689">
        <ele>28</ele>
        <time>2013-01-11T14:34:29.000Z</time>
      </trkpt>
      <trkpt lat="43.33949" lon="5.25668">
        <ele>30</ele>
        <time>2013-01-11T14:34:47.000Z</time>
      </trkpt>
      <trkpt lat="43.33948" lon="5.2566">
        <ele>31</ele>
        <time>2013-01-11T14:34:59.000Z</time>
      </trkpt>
      <trkpt lat="43.33947" lon="5.25647">
        <ele>31</ele>
        <time>2013-01-11T14:35:08.000Z</time>
      </trkpt>
      <trkpt lat="43.3395" lon="5.25639">
        <ele>31</ele>
        <time>2013-01-11T14:35:14.000Z</time>
      </trkpt>
      <trkpt lat="43.33956" lon="5.25631">
        <ele>35</ele>
        <time>2013-01-11T14:35:28.000Z</time>
      </trkpt>
      <trkpt lat="43.33962" lon="5.25622">
        <ele>43</ele>
        <time>2013-01-11T14:35:38.000Z</time>
      </trkpt>
      <trkpt lat="43.3397" lon="5.256">
        <ele>43</ele>
        <time>2013-01-11T14:35:48.000Z</time>
      </trkpt>
      <trkpt lat="43.33969" lon="5.25591">
        <ele>42</ele>
        <time>2013-01-11T14:35:54.000Z</time>
      </trkpt>
      <trkpt lat="43.33957" lon="5.25569">
        <ele>40</ele>
        <time>2013-01-11T14:36:12.000Z</time>
      </trkpt>
      <trkpt lat="43.33941" lon="5.2555">
        <ele>37</ele>
        <time>2013-01-11T14:36:30.000Z</time>
      </trkpt>
      <trkpt lat="43.33929" lon="5.25534">
        <ele>36</ele>
        <time>2013-01-11T14:36:45.000Z</time>
      </trkpt>
      <trkpt lat="43.33895" lon="5.25491">
        <ele>40</ele>
        <time>2013-01-11T14:37:27.000Z</time>
      </trkpt>
      <trkpt lat="43.33894" lon="5.2549">
        <ele>40</ele>
        <time>2013-01-11T14:37:28.000Z</time>
      </trkpt>
      <trkpt lat="43.33888" lon="5.25482">
        <ele>39</ele>
        <time>2013-01-11T14:37:36.000Z</time>
      </trkpt>
      <trkpt lat="43.33884" lon="5.25474">
        <ele>39</ele>
        <time>2013-01-11T14:37:43.000Z</time>
      </trkpt>
      <trkpt lat="43.33879" lon="5.2547">
        <ele>39</ele>
        <time>2013-01-11T14:37:53.000Z</time>
      </trkpt>
      <trkpt lat="43.3387" lon="5.25457">
        <ele>39</ele>
        <time>2013-01-11T14:38:05.000Z</time>
      </trkpt>
      <trkpt lat="43.33857" lon="5.25443">
        <ele>39</ele>
        <time>2013-01-11T14:38:20.000Z</time>
      </trkpt>
      <trkpt lat="43.3382" lon="5.25407">
        <ele>40</ele>
        <time>2013-01-11T14:39:01.000Z</time>
      </trkpt>
      <trkpt lat="43.3382" lon="5.25407">
        <ele>40</ele>
        <time>2013-01-11T14:39:02.000Z</time>
      </trkpt>
      <trkpt lat="43.33815" lon="5.25403">
        <ele>40</ele>
        <time>2013-01-11T14:39:09.000Z</time>
      </trkpt>
      <trkpt lat="43.33794" lon="5.25378">
        <ele>42</ele>
        <time>2013-01-11T14:39:37.000Z</time>
      </trkpt>
      <trkpt lat="43.33789" lon="5.25366">
        <ele>40</ele>
        <time>2013-01-11T14:39:47.000Z</time>
      </trkpt>
      <trkpt lat="43.33792" lon="5.25354">
        <ele>36</ele>
        <time>2013-01-11T14:40:00.000Z</time>
      </trkpt>
      <trkpt lat="43.33798" lon="5.25344">
        <ele>32</ele>
        <time>2013-01-11T14:40:10.000Z</time>
      </trkpt>
      <trkpt lat="43.33806" lon="5.25318">
        <ele>29</ele>
        <time>2013-01-11T14:40:28.000Z</time>
      </trkpt>
      <trkpt lat="43.33807" lon="5.25306">
        <ele>29</ele>
        <time>2013-01-11T14:40:41.000Z</time>
      </trkpt>
      <trkpt lat="43.33809" lon="5.25298">
        <ele>29</ele>
        <time>2013-01-11T14:40:51.000Z</time>
      </trkpt>
      <trkpt lat="43.33811" lon="5.2529">
        <ele>28</ele>
        <time>2013-01-11T14:40:57.000Z</time>
      </trkpt>
      <trkpt lat="43.33821" lon="5.25276">
        <ele>32</ele>
        <time>2013-01-11T14:41:18.000Z</time>
      </trkpt>
      <trkpt lat="43.33825" lon="5.2527">
        <ele>33</ele>
        <time>2013-01-11T14:41:24.000Z</time>
      </trkpt>
      <trkpt lat="43.33833" lon="5.25253">
        <ele>35</ele>
        <time>2013-01-11T14:41:43.000Z</time>
      </trkpt>
      <trkpt lat="43.33836" lon="5.25247">
        <ele>36</ele>
        <time>2013-01-11T14:41:54.000Z</time>
      </trkpt>
      <trkpt lat="43.33841" lon="5.25232">
        <ele>37</ele>
        <time>2013-01-11T14:42:06.000Z</time>
      </trkpt>
      <trkpt lat="43.33843" lon="5.25221">
        <ele>40</ele>
        <time>2013-01-11T14:42:17.000Z</time>
      </trkpt>
      <trkpt lat="43.33843" lon="5.25214">
        <ele>42</ele>
        <time>2013-01-11T14:42:24.000Z</time>
      </trkpt>
      <trkpt lat="43.33842" lon="5.25205">
        <ele>43</ele>
        <time>2013-01-11T14:42:31.000Z</time>
      </trkpt>
      <trkpt lat="43.33846" lon="5.25201">
        <ele>43</ele>
        <time>2013-01-11T14:42:38.000Z</time>
      </trkpt>
      <trkpt lat="43.33852" lon="5.25203">
        <ele>44</ele>
        <time>2013-01-11T14:42:46.000Z</time>
      </trkpt>
      <trkpt lat="43.33857" lon="5.25206">
        <ele>46</ele>
        <time>2013-01-11T14:43:02.000Z</time>
      </trkpt>
      <trkpt lat="43.33863" lon="5.2521">
        <ele>48</ele>
        <time>2013-01-11T14:43:11.000Z</time>
      </trkpt>
      <trkpt lat="43.33868" lon="5.25214">
        <ele>49</ele>
        <time>2013-01-11T14:43:18.000Z</time>
      </trkpt>
      <trkpt lat="43.33873" lon="5.25218">
        <ele>50</ele>
        <time>2013-01-11T14:43:25.000Z</time>
      </trkpt>
      <trkpt lat="43.33882" lon="5.25216">
        <ele>51</ele>
        <time>2013-01-11T14:43:35.000Z</time>
      </trkpt>
      <trkpt lat="43.33887" lon="5.25213">
        <ele>48</ele>
        <time>2013-01-11T14:44:04.000Z</time>
      </trkpt>
      <trkpt lat="43.33891" lon="5.25209">
        <ele>52</ele>
        <time>2013-01-11T14:44:30.000Z</time>
      </trkpt>
      <trkpt lat="43.33892" lon="5.25202">
        <ele>54</ele>
        <time>2013-01-11T14:44:46.000Z</time>
      </trkpt>
      <trkpt lat="43.33882" lon="5.25164">
        <ele>57</ele>
        <time>2013-01-11T14:45:26.000Z</time>
      </trkpt>
      <trkpt lat="43.33878" lon="5.25149">
        <ele>60</ele>
        <time>2013-01-11T14:45:46.000Z</time>
      </trkpt>
      <trkpt lat="43.33877" lon="5.25142">
        <ele>62</ele>
        <time>2013-01-11T14:45:56.000Z</time>
      </trkpt>
      <trkpt lat="43.33878" lon="5.2514">
        <ele>64</ele>
        <time>2013-01-11T14:46:06.000Z</time>
      </trkpt>
      <trkpt lat="43.33883" lon="5.25145">
        <ele>64</ele>
        <time>2013-01-11T14:46:14.000Z</time>
      </trkpt>
      <trkpt lat="43.33904" lon="5.25159">
        <ele>66</ele>
        <time>2013-01-11T14:46:47.000Z</time>
      </trkpt>
      <trkpt lat="43.3391" lon="5.25128">
        <ele>69</ele>
        <time>2013-01-11T14:47:18.000Z</time>
      </trkpt>
      <trkpt lat="43.33916" lon="5.25114">
        <ele>71</ele>
        <time>2013-01-11T14:47:35.000Z</time>
      </trkpt>
      <trkpt lat="43.33924" lon="5.25109">
        <ele>73</ele>
        <time>2013-01-11T14:47:49.000Z</time>
      </trkpt>
      <trkpt lat="43.33923" lon="5.25104">
        <ele>74</ele>
        <time>2013-01-11T14:47:59.000Z</time>
      </trkpt>
      <trkpt lat="43.33918" lon="5.251">
        <ele>75</ele>
        <time>2013-01-11T14:48:10.000Z</time>
      </trkpt>
      <trkpt lat="43.33922" lon="5.25098">
        <ele>77</ele>
        <time>2013-01-11T14:48:21.000Z</time>
      </trkpt>
      <trkpt lat="43.33939" lon="5.25094">
        <ele>81</ele>
        <time>2013-01-11T14:48:43.000Z</time>
      </trkpt>
      <trkpt lat="43.33941" lon="5.25087">
        <ele>83</ele>
        <time>2013-01-11T14:48:50.000Z</time>
      </trkpt>
      <trkpt lat="43.33942" lon="5.25067">
        <ele>85</ele>
        <time>2013-01-11T14:49:08.000Z</time>
      </trkpt>
      <trkpt lat="43.33949" lon="5.25059">
        <ele>86</ele>
        <time>2013-01-11T14:49:21.000Z</time>
      </trkpt>
      <trkpt lat="43.33963" lon="5.25056">
        <ele>89</ele>
        <time>2013-01-11T14:49:37.000Z</time>
      </trkpt>
      <trkpt lat="43.33978" lon="5.25054">
        <ele>91</ele>
        <time>2013-01-11T14:49:55.000Z</time>
      </trkpt>
      <trkpt lat="43.33985" lon="5.2504">
        <ele>93</ele>
        <time>2013-01-11T14:50:09.000Z</time>
      </trkpt>
      <trkpt lat="43.33988" lon="5.25033">
        <ele>95</ele>
        <time>2013-01-11T14:50:17.000Z</time>
      </trkpt>
      <trkpt lat="43.34" lon="5.25022">
        <ele>100</ele>
        <time>2013-01-11T14:50:40.000Z</time>
      </trkpt>
      <trkpt lat="43.34031" lon="5.25025">
        <ele>105</ele>
        <time>2013-01-11T14:51:28.000Z</time>
      </trkpt>
      <trkpt lat="43.34037" lon="5.2501">
        <ele>108</ele>
        <time>2013-01-11T14:51:45.000Z</time>
      </trkpt>
      <trkpt lat="43.34033" lon="5.25006">
        <ele>110</ele>
        <time>2013-01-11T14:51:54.000Z</time>
      </trkpt>
      <trkpt lat="43.34024" lon="5.24996">
        <ele>113</ele>
        <time>2013-01-11T14:52:11.000Z</time>
      </trkpt>
      <trkpt lat="43.34015" lon="5.2498">
        <ele>120</ele>
        <time>2013-01-11T14:52:35.000Z</time>
      </trkpt>
      <trkpt lat="43.3401" lon="5.24969">
        <ele>125</ele>
        <time>2013-01-11T14:52:58.000Z</time>
      </trkpt>
      <trkpt lat="43.34016" lon="5.2497">
        <ele>127</ele>
        <time>2013-01-11T14:53:07.000Z</time>
      </trkpt>
      <trkpt lat="43.34035" lon="5.24966">
        <ele>130</ele>
        <time>2013-01-11T14:53:31.000Z</time>
      </trkpt>
      <trkpt lat="43.34048" lon="5.24958">
        <ele>131</ele>
        <time>2013-01-11T14:53:53.000Z</time>
      </trkpt>
      <trkpt lat="43.34043" lon="5.24956">
        <ele>131</ele>
        <time>2013-01-11T14:54:03.000Z</time>
      </trkpt>
      <trkpt lat="43.34037" lon="5.24952">
        <ele>132</ele>
        <time>2013-01-11T14:54:11.000Z</time>
      </trkpt>
      <trkpt lat="43.34025" lon="5.24946">
        <ele>137</ele>
        <time>2013-01-11T14:54:39.000Z</time>
      </trkpt>
      <trkpt lat="43.3401" lon="5.2494">
        <ele>139</ele>
        <time>2013-01-11T14:54:53.000Z</time>
      </trkpt>
      <trkpt lat="43.34005" lon="5.24935">
        <ele>141</ele>
        <time>2013-01-11T14:54:59.000Z</time>
      </trkpt>
      <trkpt lat="43.34001" lon="5.24925">
        <ele>143</ele>
        <time>2013-01-11T14:55:08.000Z</time>
      </trkpt>
      <trkpt lat="43.33996" lon="5.2492">
        <ele>143</ele>
        <time>2013-01-11T14:55:15.000Z</time>
      </trkpt>
      <trkpt lat="43.33993" lon="5.2491">
        <ele>144</ele>
        <time>2013-01-11T14:55:27.000Z</time>
      </trkpt>
      <trkpt lat="43.33994" lon="5.24901">
        <ele>145</ele>
        <time>2013-01-11T14:55:36.000Z</time>
      </trkpt>
      <trkpt lat="43.33993" lon="5.24894">
        <ele>145</ele>
        <time>2013-01-11T14:55:44.000Z</time>
      </trkpt>
      <trkpt lat="43.33983" lon="5.24877">
        <ele>149</ele>
        <time>2013-01-11T14:56:04.000Z</time>
      </trkpt>
      <trkpt lat="43.33981" lon="5.2487">
        <ele>151</ele>
        <time>2013-01-11T14:56:11.000Z</time>
      </trkpt>
      <trkpt lat="43.33976" lon="5.24863">
        <ele>152</ele>
        <time>2013-01-11T14:56:17.000Z</time>
      </trkpt>
      <trkpt lat="43.3397" lon="5.24853">
        <ele>155</ele>
        <time>2013-01-11T14:56:25.000Z</time>
      </trkpt>
      <trkpt lat="43.33958" lon="5.24828">
        <ele>154</ele>
        <time>2013-01-11T14:56:42.000Z</time>
      </trkpt>
      <trkpt lat="43.33957" lon="5.2482">
        <ele>154</ele>
        <time>2013-01-11T14:56:46.000Z</time>
      </trkpt>
      <trkpt lat="43.33952" lon="5.24807">
        <ele>153</ele>
        <time>2013-01-11T14:56:54.000Z</time>
      </trkpt>
      <trkpt lat="43.33949" lon="5.24797">
        <ele>152</ele>
        <time>2013-01-11T14:57:00.000Z</time>
      </trkpt>
      <trkpt lat="43.33944" lon="5.24791">
        <ele>152</ele>
        <time>2013-01-11T14:57:04.000Z</time>
      </trkpt>
      <trkpt lat="43.3392" lon="5.24752">
        <ele>149</ele>
        <time>2013-01-11T14:57:30.000Z</time>
      </trkpt>
      <trkpt lat="43.33905" lon="5.24702">
        <ele>150</ele>
        <time>2013-01-11T14:58:01.000Z</time>
      </trkpt>
      <trkpt lat="43.33902" lon="5.2469">
        <ele>153</ele>
        <time>2013-01-11T14:58:10.000Z</time>
      </trkpt>
      <trkpt lat="43.33902" lon="5.24681">
        <ele>155</ele>
        <time>2013-01-11T14:58:16.000Z</time>
      </trkpt>
      <trkpt lat="43.33901" lon="5.24669">
        <ele>158</ele>
        <time>2013-01-11T14:58:25.000Z</time>
      </trkpt>
      <trkpt lat="43.33899" lon="5.24654">
        <ele>160</ele>
        <time>2013-01-11T14:58:38.000Z</time>
      </trkpt>
      <trkpt lat="43.33895" lon="5.24662">
        <ele>161</ele>
        <time>2013-01-11T14:58:44.000Z</time>
      </trkpt>
      <trkpt lat="43.33891" lon="5.24688">
        <ele>162</ele>
        <time>2013-01-11T14:59:02.000Z</time>
      </trkpt>
      <trkpt lat="43.33891" lon="5.24696">
        <ele>162</ele>
        <time>2013-01-11T14:59:08.000Z</time>
      </trkpt>
      <trkpt lat="43.33893" lon="5.24699">
        <ele>163</ele>
        <time>2013-01-11T15:04:23.000Z</time>
      </trkpt>
      <trkpt lat="43.33894" lon="5.24677">
        <ele>161</ele>
        <time>2013-01-11T15:04:41.000Z</time>
      </trkpt>
      <trkpt lat="43.33892" lon="5.24614">
        <ele>160</ele>
        <time>2013-01-11T15:05:21.000Z</time>
      </trkpt>
      <trkpt lat="43.33891" lon="5.24613">
        <ele>160</ele>
        <time>2013-01-11T15:05:22.000Z</time>
      </trkpt>
      <trkpt lat="43.33891" lon="5.24612">
        <ele>160</ele>
        <time>2013-01-11T15:05:23.000Z</time>
      </trkpt>
      <trkpt lat="43.33887" lon="5.24579">
        <ele>161</ele>
        <time>2013-01-11T15:05:43.000Z</time>
      </trkpt>
      <trkpt lat="43.33887" lon="5.24555">
        <ele>161</ele>
        <time>2013-01-11T15:05:58.000Z</time>
      </trkpt>
      <trkpt lat="43.33887" lon="5.24518">
        <ele>164</ele>
        <time>2013-01-11T15:06:20.000Z</time>
      </trkpt>
      <trkpt lat="43.33889" lon="5.2451">
        <ele>164</ele>
        <time>2013-01-11T15:06:25.000Z</time>
      </trkpt>
      <trkpt lat="43.339" lon="5.24484">
        <ele>165</ele>
        <time>2013-01-11T15:06:41.000Z</time>
      </trkpt>
      <trkpt lat="43.33911" lon="5.24466">
        <ele>165</ele>
        <time>2013-01-11T15:06:55.000Z</time>
      </trkpt>
      <trkpt lat="43.3392" lon="5.24459">
        <ele>166</ele>
        <time>2013-01-11T15:07:03.000Z</time>
      </trkpt>
      <trkpt lat="43.33948" lon="5.24435">
        <ele>168</ele>
        <time>2013-01-11T15:07:30.000Z</time>
      </trkpt>
      <trkpt lat="43.33956" lon="5.24426">
        <ele>169</ele>
        <time>2013-01-11T15:07:39.000Z</time>
      </trkpt>
      <trkpt lat="43.33975" lon="5.24401">
        <ele>170</ele>
        <time>2013-01-11T15:08:00.000Z</time>
      </trkpt>
      <trkpt lat="43.33981" lon="5.24383">
        <ele>170</ele>
        <time>2013-01-11T15:08:12.000Z</time>
      </trkpt>
      <trkpt lat="43.3399" lon="5.24352">
        <ele>171</ele>
        <time>2013-01-11T15:08:32.000Z</time>
      </trkpt>
      <trkpt lat="43.33992" lon="5.24342">
        <ele>171</ele>
        <time>2013-01-11T15:08:38.000Z</time>
      </trkpt>
      <trkpt lat="43.34001" lon="5.24298">
        <ele>171</ele>
        <time>2013-01-11T15:09:04.000Z</time>
      </trkpt>
      <trkpt lat="43.34004" lon="5.24268">
        <ele>172</ele>
        <time>2013-01-11T15:09:21.000Z</time>
      </trkpt>
      <trkpt lat="43.34008" lon="5.24249">
        <ele>173</ele>
        <time>2013-01-11T15:09:33.000Z</time>
      </trkpt>
      <trkpt lat="43.34021" lon="5.24221">
        <ele>175</ele>
        <time>2013-01-11T15:09:53.000Z</time>
      </trkpt>
      <trkpt lat="43.34051" lon="5.24174">
        <ele>178</ele>
        <time>2013-01-11T15:10:30.000Z</time>
      </trkpt>
      <trkpt lat="43.34052" lon="5.24173">
        <ele>178</ele>
        <time>2013-01-11T15:10:31.000Z</time>
      </trkpt>
      <trkpt lat="43.34059" lon="5.24162">
        <ele>179</ele>
        <time>2013-01-11T15:10:40.000Z</time>
      </trkpt>
      <trkpt lat="43.3408" lon="5.2413">
        <ele>182</ele>
        <time>2013-01-11T15:11:07.000Z</time>
      </trkpt>
      <trkpt lat="43.34114" lon="5.24087">
        <ele>185</ele>
        <time>2013-01-11T15:11:47.000Z</time>
      </trkpt>
      <trkpt lat="43.34115" lon="5.24085">
        <ele>185</ele>
        <time>2013-01-11T15:11:48.000Z</time>
      </trkpt>
      <trkpt lat="43.34139" lon="5.24033">
        <ele>187</ele>
        <time>2013-01-11T15:12:26.000Z</time>
      </trkpt>
      <trkpt lat="43.3414" lon="5.24032">
        <ele>187</ele>
        <time>2013-01-11T15:12:27.000Z</time>
      </trkpt>
      <trkpt lat="43.34164" lon="5.23978">
        <ele>191</ele>
        <time>2013-01-11T15:13:07.000Z</time>
      </trkpt>
      <trkpt lat="43.34164" lon="5.23977">
        <ele>191</ele>
        <time>2013-01-11T15:13:08.000Z</time>
      </trkpt>
      <trkpt lat="43.34187" lon="5.23928">
        <ele>194</ele>
        <time>2013-01-11T15:13:45.000Z</time>
      </trkpt>
      <trkpt lat="43.34215" lon="5.23882">
        <ele>201</ele>
        <time>2013-01-11T15:14:24.000Z</time>
      </trkpt>
      <trkpt lat="43.34217" lon="5.23874">
        <ele>201</ele>
        <time>2013-01-11T15:14:30.000Z</time>
      </trkpt>
      <trkpt lat="43.3422" lon="5.23856">
        <ele>203</ele>
        <time>2013-01-11T15:14:42.000Z</time>
      </trkpt>
      <trkpt lat="43.34222" lon="5.23842">
        <ele>204</ele>
        <time>2013-01-11T15:14:51.000Z</time>
      </trkpt>
      <trkpt lat="43.34225" lon="5.23834">
        <ele>204</ele>
        <time>2013-01-11T15:14:57.000Z</time>
      </trkpt>
      <trkpt lat="43.34231" lon="5.23828">
        <ele>205</ele>
        <time>2013-01-11T15:15:03.000Z</time>
      </trkpt>
      <trkpt lat="43.34241" lon="5.23824">
        <ele>206</ele>
        <time>2013-01-11T15:15:12.000Z</time>
      </trkpt>
      <trkpt lat="43.3425" lon="5.23828">
        <ele>207</ele>
        <time>2013-01-11T15:15:20.000Z</time>
      </trkpt>
      <trkpt lat="43.34285" lon="5.23868">
        <ele>212</ele>
        <time>2013-01-11T15:15:57.000Z</time>
      </trkpt>
      <trkpt lat="43.34286" lon="5.23869">
        <ele>212</ele>
        <time>2013-01-11T15:15:58.000Z</time>
      </trkpt>
      <trkpt lat="43.34303" lon="5.23892">
        <ele>214</ele>
        <time>2013-01-11T15:16:17.000Z</time>
      </trkpt>
      <trkpt lat="43.34335" lon="5.23938">
        <ele>216</ele>
        <time>2013-01-11T15:16:52.000Z</time>
      </trkpt>
      <trkpt lat="43.34336" lon="5.23939">
        <ele>216</ele>
        <time>2013-01-11T15:16:53.000Z</time>
      </trkpt>
      <trkpt lat="43.34343" lon="5.23948">
        <ele>216</ele>
        <time>2013-01-11T15:17:01.000Z</time>
      </trkpt>
      <trkpt lat="43.34352" lon="5.23956">
        <ele>216</ele>
        <time>2013-01-11T15:17:10.000Z</time>
      </trkpt>
      <trkpt lat="43.34373" lon="5.23963">
        <ele>217</ele>
        <time>2013-01-11T15:17:26.000Z</time>
      </trkpt>
      <trkpt lat="43.34418" lon="5.23965">
        <ele>217</ele>
        <time>2013-01-11T15:18:01.000Z</time>
      </trkpt>
      <trkpt lat="43.3442" lon="5.23965">
        <ele>217</ele>
        <time>2013-01-11T15:18:02.000Z</time>
      </trkpt>
      <trkpt lat="43.34425" lon="5.23965">
        <ele>217</ele>
        <time>2013-01-11T15:18:06.000Z</time>
      </trkpt>
      <trkpt lat="43.34472" lon="5.23959">
        <ele>219</ele>
        <time>2013-01-11T15:18:41.000Z</time>
      </trkpt>
      <trkpt lat="43.34473" lon="5.23959">
        <ele>219</ele>
        <time>2013-01-11T15:18:42.000Z</time>
      </trkpt>
      <trkpt lat="43.34518" lon="5.23957">
        <ele>222</ele>
        <time>2013-01-11T15:19:17.000Z</time>
      </trkpt>
      <trkpt lat="43.34519" lon="5.23957">
        <ele>222</ele>
        <time>2013-01-11T15:19:18.000Z</time>
      </trkpt>
      <trkpt lat="43.34564" lon="5.23952">
        <ele>222</ele>
        <time>2013-01-11T15:19:51.000Z</time>
      </trkpt>
      <trkpt lat="43.34565" lon="5.23952">
        <ele>222</ele>
        <time>2013-01-11T15:19:52.000Z</time>
      </trkpt>
      <trkpt lat="43.3461" lon="5.23945">
        <ele>222</ele>
        <time>2013-01-11T15:20:23.000Z</time>
      </trkpt>
      <trkpt lat="43.34612" lon="5.23945">
        <ele>222</ele>
        <time>2013-01-11T15:20:24.000Z</time>
      </trkpt>
      <trkpt lat="43.34632" lon="5.23945">
        <ele>221</ele>
        <time>2013-01-11T15:20:37.000Z</time>
      </trkpt>
      <trkpt lat="43.34678" lon="5.23942">
        <ele>221</ele>
        <time>2013-01-11T15:21:07.000Z</time>
      </trkpt>
      <trkpt lat="43.34679" lon="5.23942">
        <ele>221</ele>
        <time>2013-01-11T15:21:08.000Z</time>
      </trkpt>
      <trkpt lat="43.34725" lon="5.23941">
        <ele>223</ele>
        <time>2013-01-11T15:21:40.000Z</time>
      </trkpt>
      <trkpt lat="43.34726" lon="5.23941">
        <ele>223</ele>
        <time>2013-01-11T15:21:41.000Z</time>
      </trkpt>
      <trkpt lat="43.34771" lon="5.23929">
        <ele>224</ele>
        <time>2013-01-11T15:22:14.000Z</time>
      </trkpt>
      <trkpt lat="43.34773" lon="5.23929">
        <ele>224</ele>
        <time>2013-01-11T15:22:15.000Z</time>
      </trkpt>
      <trkpt lat="43.3479" lon="5.23931">
        <ele>224</ele>
        <time>2013-01-11T15:22:27.000Z</time>
      </trkpt>
      <trkpt lat="43.34834" lon="5.23948">
        <ele>223</ele>
        <time>2013-01-11T15:22:59.000Z</time>
      </trkpt>
      <trkpt lat="43.34835" lon="5.23948">
        <ele>223</ele>
        <time>2013-01-11T15:23:00.000Z</time>
      </trkpt>
      <trkpt lat="43.34841" lon="5.23948">
        <ele>224</ele>
        <time>2013-01-11T15:23:04.000Z</time>
      </trkpt>
      <trkpt lat="43.34851" lon="5.23947">
        <ele>225</ele>
        <time>2013-01-11T15:23:11.000Z</time>
      </trkpt>
      <trkpt lat="43.34861" lon="5.23941">
        <ele>225</ele>
        <time>2013-01-11T15:23:19.000Z</time>
      </trkpt>
      <trkpt lat="43.34871" lon="5.23928">
        <ele>225</ele>
        <time>2013-01-11T15:23:29.000Z</time>
      </trkpt>
      <trkpt lat="43.34902" lon="5.23883">
        <ele>224</ele>
        <time>2013-01-11T15:24:03.000Z</time>
      </trkpt>
      <trkpt lat="43.34903" lon="5.23881">
        <ele>224</ele>
        <time>2013-01-11T15:24:04.000Z</time>
      </trkpt>
      <trkpt lat="43.34934" lon="5.23836">
        <ele>225</ele>
        <time>2013-01-11T15:24:37.000Z</time>
      </trkpt>
      <trkpt lat="43.34935" lon="5.23835">
        <ele>225</ele>
        <time>2013-01-11T15:24:38.000Z</time>
      </trkpt>
      <trkpt lat="43.34938" lon="5.2383">
        <ele>226</ele>
        <time>2013-01-11T15:24:41.000Z</time>
      </trkpt>
      <trkpt lat="43.34968" lon="5.23785">
        <ele>226</ele>
        <time>2013-01-11T15:25:12.000Z</time>
      </trkpt>
      <trkpt lat="43.34969" lon="5.23783">
        <ele>226</ele>
        <time>2013-01-11T15:25:13.000Z</time>
      </trkpt>
      <trkpt lat="43.35" lon="5.23737">
        <ele>229</ele>
        <time>2013-01-11T15:25:47.000Z</time>
      </trkpt>
      <trkpt lat="43.35001" lon="5.23736">
        <ele>229</ele>
        <time>2013-01-11T15:25:48.000Z</time>
      </trkpt>
      <trkpt lat="43.35032" lon="5.2369">
        <ele>227</ele>
        <time>2013-01-11T15:26:19.000Z</time>
      </trkpt>
      <trkpt lat="43.35032" lon="5.23688">
        <ele>227</ele>
        <time>2013-01-11T15:26:20.000Z</time>
      </trkpt>
      <trkpt lat="43.35061" lon="5.23641">
        <ele>224</ele>
        <time>2013-01-11T15:26:53.000Z</time>
      </trkpt>
      <trkpt lat="43.35062" lon="5.23639">
        <ele>224</ele>
        <time>2013-01-11T15:26:54.000Z</time>
      </trkpt>
      <trkpt lat="43.35064" lon="5.23636">
        <ele>224</ele>
        <time>2013-01-11T15:26:56.000Z</time>
      </trkpt>
      <trkpt lat="43.35069" lon="5.23619">
        <ele>224</ele>
        <time>2013-01-11T15:27:06.000Z</time>
      </trkpt>
      <trkpt lat="43.35072" lon="5.23604">
        <ele>225</ele>
        <time>2013-01-11T15:27:15.000Z</time>
      </trkpt>
      <trkpt lat="43.35074" lon="5.23583">
        <ele>224</ele>
        <time>2013-01-11T15:27:27.000Z</time>
      </trkpt>
      <trkpt lat="43.35073" lon="5.23572">
        <ele>224</ele>
        <time>2013-01-11T15:27:33.000Z</time>
      </trkpt>
      <trkpt lat="43.35071" lon="5.23564">
        <ele>224</ele>
        <time>2013-01-11T15:27:38.000Z</time>
      </trkpt>
      <trkpt lat="43.35059" lon="5.23512">
        <ele>222</ele>
        <time>2013-01-11T15:28:09.000Z</time>
      </trkpt>
      <trkpt lat="43.35059" lon="5.23503">
        <ele>222</ele>
        <time>2013-01-11T15:28:15.000Z</time>
      </trkpt>
      <trkpt lat="43.35062" lon="5.23491">
        <ele>222</ele>
        <time>2013-01-11T15:28:22.000Z</time>
      </trkpt>
      <trkpt lat="43.35066" lon="5.2348">
        <ele>223</ele>
        <time>2013-01-11T15:28:29.000Z</time>
      </trkpt>
      <trkpt lat="43.35081" lon="5.23452">
        <ele>223</ele>
        <time>2013-01-11T15:28:48.000Z</time>
      </trkpt>
      <trkpt lat="43.35107" lon="5.23401">
        <ele>224</ele>
        <time>2013-01-11T15:29:21.000Z</time>
      </trkpt>
      <trkpt lat="43.35108" lon="5.23399">
        <ele>224</ele>
        <time>2013-01-11T15:29:22.000Z</time>
      </trkpt>
      <trkpt lat="43.35135" lon="5.23349">
        <ele>224</ele>
        <time>2013-01-11T15:29:55.000Z</time>
      </trkpt>
      <trkpt lat="43.35135" lon="5.23348">
        <ele>224</ele>
        <time>2013-01-11T15:29:56.000Z</time>
      </trkpt>
      <trkpt lat="43.35162" lon="5.23296">
        <ele>226</ele>
        <time>2013-01-11T15:30:30.000Z</time>
      </trkpt>
      <trkpt lat="43.35162" lon="5.23295">
        <ele>226</ele>
        <time>2013-01-11T15:30:31.000Z</time>
      </trkpt>
      <trkpt lat="43.35191" lon="5.23246">
        <ele>226</ele>
        <time>2013-01-11T15:31:05.000Z</time>
      </trkpt>
      <trkpt lat="43.35192" lon="5.23245">
        <ele>226</ele>
        <time>2013-01-11T15:31:06.000Z</time>
      </trkpt>
      <trkpt lat="43.35202" lon="5.23227">
        <ele>226</ele>
        <time>2013-01-11T15:31:20.000Z</time>
      </trkpt>
      <trkpt lat="43.35202" lon="5.23226">
        <ele>224</ele>
        <time>2013-01-11T15:32:09.000Z</time>
      </trkpt>
      <trkpt lat="43.35202" lon="5.23218">
        <ele>224</ele>
        <time>2013-01-11T15:32:16.000Z</time>
      </trkpt>
      <trkpt lat="43.35202" lon="5.2321">
        <ele>223</ele>
        <time>2013-01-11T15:32:36.000Z</time>
      </trkpt>
      <trkpt lat="43.35198" lon="5.23209">
        <ele>225</ele>
        <time>2013-01-11T15:33:27.000Z</time>
      </trkpt>
      <trkpt lat="43.35193" lon="5.23208">
        <ele>222</ele>
        <time>2013-01-11T15:34:59.000Z</time>
      </trkpt>
      <trkpt lat="43.35188" lon="5.23206">
        <ele>223</ele>
        <time>2013-01-11T15:35:30.000Z</time>
      </trkpt>
      <trkpt lat="43.35169" lon="5.23203">
        <ele>222</ele>
        <time>2013-01-11T15:35:51.000Z</time>
      </trkpt>
      <trkpt lat="43.35123" lon="5.23202">
        <ele>218</ele>
        <time>2013-01-11T15:36:26.000Z</time>
      </trkpt>
      <trkpt lat="43.35122" lon="5.23202">
        <ele>218</ele>
        <time>2013-01-11T15:36:27.000Z</time>
      </trkpt>
      <trkpt lat="43.35077" lon="5.23204">
        <ele>218</ele>
        <time>2013-01-11T15:37:08.000Z</time>
      </trkpt>
      <trkpt lat="43.35075" lon="5.23204">
        <ele>218</ele>
        <time>2013-01-11T15:37:09.000Z</time>
      </trkpt>
      <trkpt lat="43.35067" lon="5.23203">
        <ele>218</ele>
        <time>2013-01-11T15:37:15.000Z</time>
      </trkpt>
      <trkpt lat="43.35057" lon="5.23201">
        <ele>218</ele>
        <time>2013-01-11T15:37:20.000Z</time>
      </trkpt>
      <trkpt lat="43.35011" lon="5.23201">
        <ele>218</ele>
        <time>2013-01-11T15:37:53.000Z</time>
      </trkpt>
      <trkpt lat="43.35009" lon="5.23201">
        <ele>218</ele>
        <time>2013-01-11T15:37:54.000Z</time>
      </trkpt>
      <trkpt lat="43.34964" lon="5.23198">
        <ele>218</ele>
        <time>2013-01-11T15:38:29.000Z</time>
      </trkpt>
      <trkpt lat="43.34962" lon="5.23198">
        <ele>218</ele>
        <time>2013-01-11T15:38:30.000Z</time>
      </trkpt>
      <trkpt lat="43.34955" lon="5.23196">
        <ele>218</ele>
        <time>2013-01-11T15:38:36.000Z</time>
      </trkpt>
      <trkpt lat="43.34949" lon="5.23193">
        <ele>218</ele>
        <time>2013-01-11T15:38:41.000Z</time>
      </trkpt>
      <trkpt lat="43.34945" lon="5.23185">
        <ele>219</ele>
        <time>2013-01-11T15:38:47.000Z</time>
      </trkpt>
      <trkpt lat="43.34942" lon="5.23172">
        <ele>219</ele>
        <time>2013-01-11T15:38:56.000Z</time>
      </trkpt>
      <trkpt lat="43.34946" lon="5.23117">
        <ele>220</ele>
        <time>2013-01-11T15:39:28.000Z</time>
      </trkpt>
      <trkpt lat="43.34947" lon="5.23054">
        <ele>220</ele>
        <time>2013-01-11T15:40:07.000Z</time>
      </trkpt>
      <trkpt lat="43.34947" lon="5.23053">
        <ele>220</ele>
        <time>2013-01-11T15:40:08.000Z</time>
      </trkpt>
      <trkpt lat="43.34948" lon="5.2299">
        <ele>222</ele>
        <time>2013-01-11T15:40:46.000Z</time>
      </trkpt>
      <trkpt lat="43.34948" lon="5.22988">
        <ele>222</ele>
        <time>2013-01-11T15:40:47.000Z</time>
      </trkpt>
      <trkpt lat="43.34949" lon="5.22925">
        <ele>221</ele>
        <time>2013-01-11T15:41:24.000Z</time>
      </trkpt>
      <trkpt lat="43.34949" lon="5.22923">
        <ele>221</ele>
        <time>2013-01-11T15:41:25.000Z</time>
      </trkpt>
      <trkpt lat="43.34947" lon="5.22904">
        <ele>220</ele>
        <time>2013-01-11T15:41:36.000Z</time>
      </trkpt>
      <trkpt lat="43.34942" lon="5.22894">
        <ele>220</ele>
        <time>2013-01-11T15:41:43.000Z</time>
      </trkpt>
      <trkpt lat="43.34918" lon="5.22867">
        <ele>220</ele>
        <time>2013-01-11T15:42:06.000Z</time>
      </trkpt>
      <trkpt lat="43.34904" lon="5.22856">
        <ele>221</ele>
        <time>2013-01-11T15:42:18.000Z</time>
      </trkpt>
      <trkpt lat="43.34879" lon="5.22845">
        <ele>221</ele>
        <time>2013-01-11T15:42:37.000Z</time>
      </trkpt>
      <trkpt lat="43.34859" lon="5.22842">
        <ele>221</ele>
        <time>2013-01-11T15:42:51.000Z</time>
      </trkpt>
      <trkpt lat="43.34822" lon="5.22848">
        <ele>222</ele>
        <time>2013-01-11T15:43:18.000Z</time>
      </trkpt>
      <trkpt lat="43.34778" lon="5.22866">
        <ele>223</ele>
        <time>2013-01-11T15:43:52.000Z</time>
      </trkpt>
      <trkpt lat="43.34777" lon="5.22867">
        <ele>222</ele>
        <time>2013-01-11T15:43:53.000Z</time>
      </trkpt>
      <trkpt lat="43.34733" lon="5.22883">
        <ele>222</ele>
        <time>2013-01-11T15:44:27.000Z</time>
      </trkpt>
      <trkpt lat="43.34732" lon="5.22883">
        <ele>222</ele>
        <time>2013-01-11T15:44:28.000Z</time>
      </trkpt>
      <trkpt lat="43.34689" lon="5.22893">
        <ele>220</ele>
        <time>2013-01-11T15:45:02.000Z</time>
      </trkpt>
      <trkpt lat="43.34687" lon="5.22894">
        <ele>220</ele>
        <time>2013-01-11T15:45:03.000Z</time>
      </trkpt>
      <trkpt lat="43.34642" lon="5.22902">
        <ele>216</ele>
        <time>2013-01-11T15:45:38.000Z</time>
      </trkpt>
      <trkpt lat="43.34641" lon="5.22902">
        <ele>216</ele>
        <time>2013-01-11T15:45:39.000Z</time>
      </trkpt>
      <trkpt lat="43.34626" lon="5.22903">
        <ele>215</ele>
        <time>2013-01-11T15:45:50.000Z</time>
      </trkpt>
      <trkpt lat="43.3459" lon="5.22891">
        <ele>210</ele>
        <time>2013-01-11T15:46:19.000Z</time>
      </trkpt>
      <trkpt lat="43.34583" lon="5.22879">
        <ele>210</ele>
        <time>2013-01-11T15:46:28.000Z</time>
      </trkpt>
      <trkpt lat="43.34579" lon="5.22865">
        <ele>210</ele>
        <time>2013-01-11T15:46:37.000Z</time>
      </trkpt>
      <trkpt lat="43.34576" lon="5.22804">
        <ele>209</ele>
        <time>2013-01-11T15:47:13.000Z</time>
      </trkpt>
      <trkpt lat="43.34576" lon="5.22802">
        <ele>209</ele>
        <time>2013-01-11T15:47:14.000Z</time>
      </trkpt>
      <trkpt lat="43.34575" lon="5.2279">
        <ele>208</ele>
        <time>2013-01-11T15:47:21.000Z</time>
      </trkpt>
      <trkpt lat="43.34576" lon="5.22771">
        <ele>207</ele>
        <time>2013-01-11T15:47:33.000Z</time>
      </trkpt>
      <trkpt lat="43.3458" lon="5.22752">
        <ele>206</ele>
        <time>2013-01-11T15:47:45.000Z</time>
      </trkpt>
      <trkpt lat="43.3459" lon="5.22698">
        <ele>205</ele>
        <time>2013-01-11T15:48:17.000Z</time>
      </trkpt>
      <trkpt lat="43.34587" lon="5.22637">
        <ele>203</ele>
        <time>2013-01-11T15:48:52.000Z</time>
      </trkpt>
      <trkpt lat="43.34587" lon="5.22635">
        <ele>203</ele>
        <time>2013-01-11T15:48:53.000Z</time>
      </trkpt>
      <trkpt lat="43.34584" lon="5.226">
        <ele>201</ele>
        <time>2013-01-11T15:49:16.000Z</time>
      </trkpt>
      <trkpt lat="43.34579" lon="5.22593">
        <ele>201</ele>
        <time>2013-01-11T15:49:22.000Z</time>
      </trkpt>
      <trkpt lat="43.34568" lon="5.22588">
        <ele>201</ele>
        <time>2013-01-11T15:49:31.000Z</time>
      </trkpt>
      <trkpt lat="43.34551" lon="5.22585">
        <ele>200</ele>
        <time>2013-01-11T15:49:45.000Z</time>
      </trkpt>
      <trkpt lat="43.34542" lon="5.2258">
        <ele>199</ele>
        <time>2013-01-11T15:49:53.000Z</time>
      </trkpt>
      <trkpt lat="43.34514" lon="5.22567">
        <ele>196</ele>
        <time>2013-01-11T15:50:16.000Z</time>
      </trkpt>
      <trkpt lat="43.34507" lon="5.22557">
        <ele>195</ele>
        <time>2013-01-11T15:50:24.000Z</time>
      </trkpt>
      <trkpt lat="43.34497" lon="5.22535">
        <ele>194</ele>
        <time>2013-01-11T15:50:39.000Z</time>
      </trkpt>
      <trkpt lat="43.34478" lon="5.22503">
        <ele>192</ele>
        <time>2013-01-11T15:51:02.000Z</time>
      </trkpt>
      <trkpt lat="43.34474" lon="5.22478">
        <ele>190</ele>
        <time>2013-01-11T15:51:17.000Z</time>
      </trkpt>
      <trkpt lat="43.34486" lon="5.22418">
        <ele>186</ele>
        <time>2013-01-11T15:51:52.000Z</time>
      </trkpt>
      <trkpt lat="43.34486" lon="5.22416">
        <ele>186</ele>
        <time>2013-01-11T15:51:53.000Z</time>
      </trkpt>
      <trkpt lat="43.34486" lon="5.22413">
        <ele>185</ele>
        <time>2013-01-11T15:51:55.000Z</time>
      </trkpt>
      <trkpt lat="43.34487" lon="5.22403">
        <ele>185</ele>
        <time>2013-01-11T15:52:00.000Z</time>
      </trkpt>
      <trkpt lat="43.34483" lon="5.22341">
        <ele>179</ele>
        <time>2013-01-11T15:52:34.000Z</time>
      </trkpt>
      <trkpt lat="43.34482" lon="5.22339">
        <ele>179</ele>
        <time>2013-01-11T15:52:35.000Z</time>
      </trkpt>
      <trkpt lat="43.34473" lon="5.22295">
        <ele>176</ele>
        <time>2013-01-11T15:53:00.000Z</time>
      </trkpt>
      <trkpt lat="43.34472" lon="5.22288">
        <ele>176</ele>
        <time>2013-01-11T15:53:04.000Z</time>
      </trkpt>
      <trkpt lat="43.34461" lon="5.22226">
        <ele>173</ele>
        <time>2013-01-11T15:53:41.000Z</time>
      </trkpt>
      <trkpt lat="43.34461" lon="5.22225">
        <ele>173</ele>
        <time>2013-01-11T15:53:42.000Z</time>
      </trkpt>
      <trkpt lat="43.34458" lon="5.2221">
        <ele>173</ele>
        <time>2013-01-11T15:53:51.000Z</time>
      </trkpt>
      <trkpt lat="43.34445" lon="5.2215">
        <ele>171</ele>
        <time>2013-01-11T15:54:29.000Z</time>
      </trkpt>
      <trkpt lat="43.34444" lon="5.22148">
        <ele>171</ele>
        <time>2013-01-11T15:54:30.000Z</time>
      </trkpt>
      <trkpt lat="43.34438" lon="5.22112">
        <ele>172</ele>
        <time>2013-01-11T15:54:51.000Z</time>
      </trkpt>
      <trkpt lat="43.34437" lon="5.22098">
        <ele>171</ele>
        <time>2013-01-11T15:54:59.000Z</time>
      </trkpt>
      <trkpt lat="43.34436" lon="5.22068">
        <ele>170</ele>
        <time>2013-01-11T15:55:15.000Z</time>
      </trkpt>
      <trkpt lat="43.34443" lon="5.22045">
        <ele>169</ele>
        <time>2013-01-11T15:55:29.000Z</time>
      </trkpt>
      <trkpt lat="43.34455" lon="5.22017">
        <ele>170</ele>
        <time>2013-01-11T15:55:48.000Z</time>
      </trkpt>
      <trkpt lat="43.34476" lon="5.21967">
        <ele>174</ele>
        <time>2013-01-11T15:56:23.000Z</time>
      </trkpt>
      <trkpt lat="43.34508" lon="5.21934">
        <ele>175</ele>
        <time>2013-01-11T15:56:55.000Z</time>
      </trkpt>
      <trkpt lat="43.34514" lon="5.21922">
        <ele>175</ele>
        <time>2013-01-11T15:57:03.000Z</time>
      </trkpt>
      <trkpt lat="43.34533" lon="5.21865">
        <ele>176</ele>
        <time>2013-01-11T15:57:37.000Z</time>
      </trkpt>
      <trkpt lat="43.34534" lon="5.21863">
        <ele>176</ele>
        <time>2013-01-11T15:57:38.000Z</time>
      </trkpt>
      <trkpt lat="43.34549" lon="5.21815">
        <ele>176</ele>
        <time>2013-01-11T15:58:08.000Z</time>
      </trkpt>
      <trkpt lat="43.34577" lon="5.21766">
        <ele>174</ele>
        <time>2013-01-11T15:58:45.000Z</time>
      </trkpt>
      <trkpt lat="43.34578" lon="5.21764">
        <ele>174</ele>
        <time>2013-01-11T15:58:46.000Z</time>
      </trkpt>
      <trkpt lat="43.34588" lon="5.21748">
        <ele>174</ele>
        <time>2013-01-11T15:59:04.000Z</time>
      </trkpt>
      <trkpt lat="43.34592" lon="5.21738">
        <ele>174</ele>
        <time>2013-01-11T15:59:14.000Z</time>
      </trkpt>
      <trkpt lat="43.34589" lon="5.21731">
        <ele>173</ele>
        <time>2013-01-11T15:59:21.000Z</time>
      </trkpt>
      <trkpt lat="43.34588" lon="5.21721">
        <ele>172</ele>
        <time>2013-01-11T16:03:00.000Z</time>
      </trkpt>
      <trkpt lat="43.34585" lon="5.21724">
        <ele>169</ele>
        <time>2013-01-11T16:06:32.000Z</time>
      </trkpt>
    </trkseg>
  </trk>
</gpx>